PWSweather.com
Personal Weather Stations
Station Observations
MODESTO21
East Modesto Ca, Modesto, CA 95355

East Modesto CaModesto, CA 95355

Lat: 37.658055, Lon: -120.94719199999997

Elevation: 88

Station Type: AcuRite 01036CADI

Latest ConditionsUpdated 3:20:05 PM PST Sunday, Dec 16, 2018
Currently Today's Max Today's Min Today's Average
Temperature 57.9°F14.4°C 59.0°F15.0°C 42.6°F5.9°C 49.3°F9.6°C
Dew Point 51.1°F10.6°C 52.0°F11.1°C 41.0°F5.0°C 45.9°F7.7°C
Winds 2.2 mph SSE3.5 kmh SSE 11.4 mph -18.3 kmh - - 3.6 mph 5.8 kmh
Wind Gusts 5.3 mph8.5 kmh 11.4 mph18.3 kmh - -
Humidity 78% 99% 76% 89%
Pressure 30.03 in1016.9 mb 30.13 in1020.3 mb 30.02 in1016.6 mb -
Hour Temp Dew Point Humidity Winds Wind Gusts Pressure Precip Precip Rate Daily Precip Total
03:20 PM 57.9°F14.4°C 51.1°F10.6°C 78% 2.2 mph SSE3.5 kmh SSE 5.3 mph8.5 kmh 30.03 in1016.9 mb 0.00 in0.0 mm 0.00 in0.0 mm 0.00 in0.0 mm
03:19 PM 57.9°F14.4°C 51.1°F10.6°C 78% 2.2 mph ESE3.5 kmh ESE 5.3 mph8.5 kmh 30.03 in1016.9 mb 0.00 in0.0 mm 0.00 in0.0 mm 0.00 in0.0 mm
03:18 PM 57.9°F14.4°C 51.1°F10.6°C 78% 1.1 mph SSE1.8 kmh SSE 5.3 mph8.5 kmh 30.03 in1016.9 mb 0.00 in0.0 mm 0.00 in0.0 mm 0.00 in0.0 mm
03:17 PM 57.9°F14.4°C 51.1°F10.6°C 78% 3.2 mph SSW5.1 kmh SSW 5.3 mph8.5 kmh 30.03 in1016.9 mb 0.00 in0.0 mm 0.00 in0.0 mm 0.00 in0.0 mm
03:16 PM 57.9°F14.4°C 51.1°F10.6°C 78% 3.2 mph ESE5.1 kmh ESE 6.3 mph10.1 kmh 30.03 in1016.9 mb 0.00 in0.0 mm 0.00 in0.0 mm 0.00 in0.0 mm
03:15 PM 57.9°F14.4°C 51.1°F10.6°C 78% 2.7 mph ESE4.3 kmh ESE 6.3 mph10.1 kmh 30.03 in1016.9 mb 0.00 in0.0 mm 0.00 in0.0 mm 0.00 in0.0 mm
03:14 PM 58.1°F14.5°C 51.3°F10.7°C 78% 4.2 mph SE6.8 kmh SE 6.3 mph10.1 kmh 30.03 in1016.9 mb 0.00 in0.0 mm 0.00 in0.0 mm 0.00 in0.0 mm
03:13 PM 58.1°F14.5°C 51.3°F10.7°C 78% 4.2 mph SSE6.8 kmh SSE 6.3 mph10.1 kmh 30.03 in1016.9 mb 0.00 in0.0 mm 0.00 in0.0 mm 0.00 in0.0 mm
03:12 PM 58.1°F14.5°C 51.3°F10.7°C 78% 2.7 mph SSE4.3 kmh SSE 6.8 mph10.9 kmh 30.02 in1016.6 mb 0.00 in0.0 mm 0.00 in0.0 mm 0.00 in0.0 mm
03:11 PM 58.1°F14.5°C 51.3°F10.7°C 78% 3.2 mph ESE5.1 kmh ESE 6.8 mph10.9 kmh 30.02 in1016.6 mb 0.00 in0.0 mm 0.00 in0.0 mm 0.00 in0.0 mm
03:10 PM 58.1°F14.5°C 51.3°F10.7°C 78% 2.2 mph SE3.5 kmh SE 6.8 mph10.9 kmh 30.02 in1016.6 mb 0.00 in0.0 mm 0.00 in0.0 mm 0.00 in0.0 mm
03:09 PM 58.1°F14.5°C 51.3°F10.7°C 78% 3.2 mph SSE5.1 kmh SSE 6.8 mph10.9 kmh 30.02 in1016.6 mb 0.00 in0.0 mm 0.00 in0.0 mm 0.00 in0.0 mm
03:08 PM 58.1°F14.5°C 51.3°F10.7°C 78% 2.2 mph ESE3.5 kmh ESE 6.8 mph10.9 kmh 30.02 in1016.6 mb 0.00 in0.0 mm 0.00 in0.0 mm 0.00 in0.0 mm
03:07 PM 58.1°F14.5°C 51.3°F10.7°C 78% 2.7 mph ESE4.3 kmh ESE 6.8 mph10.9 kmh 30.02 in1016.6 mb 0.00 in0.0 mm 0.00 in0.0 mm 0.00 in0.0 mm
03:06 PM 58.1°F14.5°C 51.3°F10.7°C 78% 5.8 mph SSE9.3 kmh SSE 7.3 mph11.7 kmh 30.02 in1016.6 mb 0.00 in0.0 mm 0.00 in0.0 mm 0.00 in0.0 mm
03:05 PM 58.1°F14.5°C 51.3°F10.7°C 78% 5.3 mph ESE8.5 kmh ESE 7.3 mph11.7 kmh 30.02 in1016.6 mb 0.00 in0.0 mm 0.00 in0.0 mm 0.00 in0.0 mm
03:04 PM 58.1°F14.5°C 51.3°F10.7°C 78% 4.2 mph ESE6.8 kmh ESE 7.3 mph11.7 kmh 30.02 in1016.6 mb 0.00 in0.0 mm 0.00 in0.0 mm 0.00 in0.0 mm
03:03 PM 58.1°F14.5°C 51.3°F10.7°C 78% 3.7 mph SSE6.0 kmh SSE 7.3 mph11.7 kmh 30.02 in1016.6 mb 0.00 in0.0 mm 0.00 in0.0 mm 0.00 in0.0 mm
03:02 PM 58.1°F14.5°C 51.3°F10.7°C 78% 6.8 mph ESE10.9 kmh ESE 7.3 mph11.7 kmh 30.02 in1016.6 mb 0.00 in0.0 mm 0.00 in0.0 mm 0.00 in0.0 mm
03:01 PM 58.3°F14.6°C 51.4°F10.8°C 78% 4.2 mph ESE6.8 kmh ESE 7.3 mph11.7 kmh 30.02 in1016.6 mb 0.00 in0.0 mm 0.00 in0.0 mm 0.00 in0.0 mm
03:00 PM 58.3°F14.6°C 51.4°F10.8°C 78% 5.3 mph SE8.5 kmh SE 7.3 mph11.7 kmh 30.02 in1016.6 mb 0.00 in0.0 mm 0.00 in0.0 mm 0.00 in0.0 mm
02:59 PM 58.3°F14.6°C 51.4°F10.8°C 78% 5.3 mph SE8.5 kmh SE 7.3 mph11.7 kmh 30.02 in1016.6 mb 0.00 in0.0 mm 0.00 in0.0 mm 0.00 in0.0 mm
02:58 PM 58.3°F14.6°C 51.4°F10.8°C 78% 5.3 mph ESE8.5 kmh ESE 7.3 mph11.7 kmh 30.02 in1016.6 mb 0.00 in0.0 mm 0.00 in0.0 mm 0.00 in0.0 mm
02:57 PM 58.3°F14.6°C 51.4°F10.8°C 78% 3.2 mph SE5.1 kmh SE 7.3 mph11.7 kmh 30.02 in1016.6 mb 0.00 in0.0 mm 0.00 in0.0 mm 0.00 in0.0 mm
02:56 PM 58.3°F14.6°C 51.4°F10.8°C 78% 3.2 mph SE5.1 kmh SE 7.3 mph11.7 kmh 30.02 in1016.6 mb 0.00 in0.0 mm 0.00 in0.0 mm 0.00 in0.0 mm
02:55 PM 58.3°F14.6°C 51.4°F10.8°C 78% 3.7 mph E6.0 kmh E 7.3 mph11.7 kmh 30.02 in1016.6 mb 0.00 in0.0 mm 0.00 in0.0 mm 0.00 in0.0 mm
02:54 PM 58.3°F14.6°C 51.4°F10.8°C 78% 4.7 mph SSE7.6 kmh SSE 7.3 mph11.7 kmh 30.02 in1016.6 mb 0.00 in0.0 mm 0.00 in0.0 mm 0.00 in0.0 mm
02:53 PM 58.3°F14.6°C 51.4°F10.8°C 78% 3.2 mph SE5.1 kmh SE 7.3 mph11.7 kmh 30.02 in1016.6 mb 0.00 in0.0 mm 0.00 in0.0 mm 0.00 in0.0 mm
02:52 PM 58.3°F14.6°C 51.4°F10.8°C 78% 4.2 mph SSE6.8 kmh SSE 7.3 mph11.7 kmh 30.02 in1016.6 mb 0.00 in0.0 mm 0.00 in0.0 mm 0.00 in0.0 mm
02:51 PM 58.3°F14.6°C 51.4°F10.8°C 78% 4.2 mph SE6.8 kmh SE 7.3 mph11.7 kmh 30.02 in1016.6 mb 0.00 in0.0 mm 0.00 in0.0 mm 0.00 in0.0 mm
02:50 PM 58.3°F14.6°C 51.4°F10.8°C 78% 5.3 mph E8.5 kmh E 7.3 mph11.7 kmh 30.02 in1016.6 mb 0.00 in0.0 mm 0.00 in0.0 mm 0.00 in0.0 mm
02:49 PM 58.5°F14.7°C 51.6°F10.9°C 78% 7.3 mph ESE11.7 kmh ESE 7.3 mph11.7 kmh 30.02 in1016.6 mb 0.00 in0.0 mm 0.00 in0.0 mm 0.00 in0.0 mm
02:48 PM 58.5°F14.7°C 51.3°F10.7°C 77% 3.7 mph S6.0 kmh S 7.3 mph11.7 kmh 30.03 in1016.9 mb 0.00 in0.0 mm 0.00 in0.0 mm 0.00 in0.0 mm
02:47 PM 58.5°F14.7°C 51.3°F10.7°C 77% 5.3 mph ESE8.5 kmh ESE 8.3 mph13.4 kmh 30.03 in1016.9 mb 0.00 in0.0 mm 0.00 in0.0 mm 0.00 in0.0 mm
02:46 PM 58.5°F14.7°C 51.3°F10.7°C 77% 4.7 mph SSE7.6 kmh SSE 8.3 mph13.4 kmh 30.03 in1016.9 mb 0.00 in0.0 mm 0.00 in0.0 mm 0.00 in0.0 mm
02:45 PM 58.5°F14.7°C 51.3°F10.7°C 77% 6.3 mph ESE10.1 kmh ESE 8.3 mph13.4 kmh 30.03 in1016.9 mb 0.00 in0.0 mm 0.00 in0.0 mm 0.00 in0.0 mm
02:44 PM 58.6°F14.8°C 51.4°F10.8°C 77% 4.2 mph ESE6.8 kmh ESE 8.3 mph13.4 kmh 30.03 in1016.9 mb 0.00 in0.0 mm 0.00 in0.0 mm 0.00 in0.0 mm
02:43 PM 58.6°F14.8°C 51.4°F10.8°C 77% 4.7 mph ESE7.6 kmh ESE 8.3 mph13.4 kmh 30.03 in1016.9 mb 0.00 in0.0 mm 0.00 in0.0 mm 0.00 in0.0 mm
02:42 PM 58.6°F14.8°C 51.4°F10.8°C 77% 4.2 mph ESE6.8 kmh ESE 8.3 mph13.4 kmh 30.03 in1016.9 mb 0.00 in0.0 mm 0.00 in0.0 mm 0.00 in0.0 mm
02:41 PM 58.6°F14.8°C 51.4°F10.8°C 77% 3.7 mph ESE6.0 kmh ESE 8.3 mph13.4 kmh 30.03 in1016.9 mb 0.00 in0.0 mm 0.00 in0.0 mm 0.00 in0.0 mm
02:40 PM 58.6°F14.8°C 51.4°F10.8°C 77% 4.2 mph SE6.8 kmh SE 8.3 mph13.4 kmh 30.03 in1016.9 mb 0.00 in0.0 mm 0.00 in0.0 mm 0.00 in0.0 mm
02:39 PM 58.8°F14.9°C 51.6°F10.9°C 77% 4.2 mph SE6.8 kmh SE 8.3 mph13.4 kmh 30.03 in1016.9 mb 0.00 in0.0 mm 0.00 in0.0 mm 0.00 in0.0 mm
02:38 PM 58.8°F14.9°C 51.3°F10.7°C 76% 5.8 mph SSE9.3 kmh SSE 8.3 mph13.4 kmh 30.03 in1016.9 mb 0.00 in0.0 mm 0.00 in0.0 mm 0.00 in0.0 mm
02:37 PM 58.8°F14.9°C 51.3°F10.7°C 76% 4.7 mph ESE7.6 kmh ESE 6.3 mph10.1 kmh 30.03 in1016.9 mb 0.00 in0.0 mm 0.00 in0.0 mm 0.00 in0.0 mm
02:36 PM 58.8°F14.9°C 51.3°F10.7°C 76% 3.7 mph SSE6.0 kmh SSE 6.3 mph10.1 kmh 30.04 in1017.3 mb 0.00 in0.0 mm 0.00 in0.0 mm 0.00 in0.0 mm
02:35 PM 58.8°F14.9°C 51.3°F10.7°C 76% 3.7 mph ESE6.0 kmh ESE 6.3 mph10.1 kmh 30.04 in1017.3 mb 0.00 in0.0 mm 0.00 in0.0 mm 0.00 in0.0 mm
02:34 PM 59.0°F15.0°C 51.4°F10.8°C 76% 5.8 mph SE9.3 kmh SE 6.3 mph10.1 kmh 30.04 in1017.3 mb 0.00 in0.0 mm 0.00 in0.0 mm 0.00 in0.0 mm
02:33 PM 59.0°F15.0°C 51.4°F10.8°C 76% 2.7 mph ESE4.3 kmh ESE 6.3 mph10.1 kmh 30.04 in1017.3 mb 0.00 in0.0 mm 0.00 in0.0 mm 0.00 in0.0 mm
02:32 PM 59.0°F15.0°C 51.4°F10.8°C 76% 3.2 mph ESE5.1 kmh ESE 6.3 mph10.1 kmh 30.04 in1017.3 mb 0.00 in0.0 mm 0.00 in0.0 mm 0.00 in0.0 mm
02:31 PM 59.0°F15.0°C 51.4°F10.8°C 76% 5.3 mph ESE8.5 kmh ESE 6.3 mph10.1 kmh 30.04 in1017.3 mb 0.00 in0.0 mm 0.00 in0.0 mm 0.00 in0.0 mm
02:30 PM 59.0°F15.0°C 51.4°F10.8°C 76% 2.7 mph SSE4.3 kmh SSE 6.3 mph10.1 kmh 30.04 in1017.3 mb 0.00 in0.0 mm 0.00 in0.0 mm 0.00 in0.0 mm
02:29 PM 59.0°F15.0°C 51.4°F10.8°C 76% 4.2 mph E6.8 kmh E 6.3 mph10.1 kmh 30.04 in1017.3 mb 0.00 in0.0 mm 0.00 in0.0 mm 0.00 in0.0 mm
02:28 PM 59.0°F15.0°C 51.4°F10.8°C 76% 6.3 mph ESE10.1 kmh ESE 6.3 mph10.1 kmh 30.04 in1017.3 mb 0.00 in0.0 mm 0.00 in0.0 mm 0.00 in0.0 mm
02:27 PM 59.0°F15.0°C 51.4°F10.8°C 76% 6.3 mph ESE10.1 kmh ESE 6.8 mph10.9 kmh 30.04 in1017.3 mb 0.00 in0.0 mm 0.00 in0.0 mm 0.00 in0.0 mm
02:26 PM 59.0°F15.0°C 51.4°F10.8°C 76% 3.7 mph ESE6.0 kmh ESE 7.8 mph12.6 kmh 30.04 in1017.3 mb 0.00 in0.0 mm 0.00 in0.0 mm 0.00 in0.0 mm
02:25 PM 59.0°F15.0°C 51.4°F10.8°C 76% 5.3 mph SE8.5 kmh SE 7.8 mph12.6 kmh 30.04 in1017.3 mb 0.00 in0.0 mm 0.00 in0.0 mm 0.00 in0.0 mm
02:24 PM 59.0°F15.0°C 51.4°F10.8°C 76% 5.3 mph ESE8.5 kmh ESE 7.8 mph12.6 kmh 30.04 in1017.3 mb 0.00 in0.0 mm 0.00 in0.0 mm 0.00 in0.0 mm
02:23 PM 59.0°F15.0°C 51.4°F10.8°C 76% 2.7 mph S4.3 kmh S 7.8 mph12.6 kmh 30.04 in1017.3 mb 0.00 in0.0 mm 0.00 in0.0 mm 0.00 in0.0 mm
02:22 PM 59.0°F15.0°C 51.4°F10.8°C 76% 4.2 mph ESE6.8 kmh ESE 7.8 mph12.6 kmh 30.04 in1017.3 mb 0.00 in0.0 mm 0.00 in0.0 mm 0.00 in0.0 mm
02:21 PM 58.8°F14.9°C 51.3°F10.7°C 76% 6.3 mph ESE10.1 kmh ESE 7.8 mph12.6 kmh 30.04 in1017.3 mb 0.00 in0.0 mm 0.00 in0.0 mm 0.00 in0.0 mm
02:20 PM 58.8°F14.9°C 51.3°F10.7°C 76% 3.2 mph SSE5.1 kmh SSE 7.8 mph12.6 kmh 30.04 in1017.3 mb 0.00 in0.0 mm 0.00 in0.0 mm 0.00 in0.0 mm
02:19 PM 58.8°F14.9°C 51.3°F10.7°C 76% 4.7 mph SE7.6 kmh SE 7.8 mph12.6 kmh 30.04 in1017.3 mb 0.00 in0.0 mm 0.00 in0.0 mm 0.00 in0.0 mm
02:18 PM 58.8°F14.9°C 51.3°F10.7°C 76% 4.7 mph SE7.6 kmh SE 7.8 mph12.6 kmh 30.04 in1017.3 mb 0.00 in0.0 mm 0.00 in0.0 mm 0.00 in0.0 mm
02:17 PM 58.8°F14.9°C 51.3°F10.7°C 76% 6.8 mph ESE10.9 kmh ESE 7.8 mph12.6 kmh 30.04 in1017.3 mb 0.00 in0.0 mm 0.00 in0.0 mm 0.00 in0.0 mm
02:16 PM 58.8°F14.9°C 51.3°F10.7°C 76% 5.3 mph SE8.5 kmh SE 7.8 mph12.6 kmh 30.04 in1017.3 mb 0.00 in0.0 mm 0.00 in0.0 mm 0.00 in0.0 mm
02:15 PM 58.8°F14.9°C 51.3°F10.7°C 76% 4.2 mph ESE6.8 kmh ESE 6.8 mph10.9 kmh 30.04 in1017.3 mb 0.00 in0.0 mm 0.00 in0.0 mm 0.00 in0.0 mm
02:14 PM 58.8°F14.9°C 51.3°F10.7°C 76% 5.8 mph ESE9.3 kmh ESE 6.8 mph10.9 kmh 30.04 in1017.3 mb 0.00 in0.0 mm 0.00 in0.0 mm 0.00 in0.0 mm
02:13 PM 58.8°F14.9°C 51.3°F10.7°C 76% 5.3 mph ESE8.5 kmh ESE 6.8 mph10.9 kmh 30.03 in1016.9 mb 0.00 in0.0 mm 0.00 in0.0 mm 0.00 in0.0 mm
02:12 PM 58.8°F14.9°C 51.3°F10.7°C 76% 4.7 mph ESE7.6 kmh ESE 6.8 mph10.9 kmh 30.03 in1016.9 mb 0.00 in0.0 mm 0.00 in0.0 mm 0.00 in0.0 mm
02:11 PM 58.8°F14.9°C 51.3°F10.7°C 76% 4.7 mph S7.6 kmh S 6.8 mph10.9 kmh 30.03 in1016.9 mb 0.00 in0.0 mm 0.00 in0.0 mm 0.00 in0.0 mm
02:10 PM 58.8°F14.9°C 51.3°F10.7°C 76% 6.8 mph SSE10.9 kmh SSE 6.8 mph10.9 kmh 30.03 in1016.9 mb 0.00 in0.0 mm 0.00 in0.0 mm 0.00 in0.0 mm
02:09 PM 58.8°F14.9°C 51.3°F10.7°C 76% 4.2 mph ESE6.8 kmh ESE 6.8 mph10.9 kmh 30.03 in1016.9 mb 0.00 in0.0 mm 0.00 in0.0 mm 0.00 in0.0 mm
02:08 PM 58.8°F14.9°C 51.3°F10.7°C 76% 4.2 mph ESE6.8 kmh ESE 7.3 mph11.7 kmh 30.03 in1016.9 mb 0.00 in0.0 mm 0.00 in0.0 mm 0.00 in0.0 mm
02:07 PM 58.8°F14.9°C 51.3°F10.7°C 76% 3.7 mph SE6.0 kmh SE 7.3 mph11.7 kmh 30.03 in1016.9 mb 0.00 in0.0 mm 0.00 in0.0 mm 0.00 in0.0 mm
02:06 PM 58.8°F14.9°C 51.3°F10.7°C 76% 3.2 mph SE5.1 kmh SE 7.3 mph11.7 kmh 30.03 in1016.9 mb 0.00 in0.0 mm 0.00 in0.0 mm 0.00 in0.0 mm
02:05 PM 58.8°F14.9°C 51.3°F10.7°C 76% 3.7 mph S6.0 kmh S 7.3 mph11.7 kmh 30.03 in1016.9 mb 0.00 in0.0 mm 0.00 in0.0 mm 0.00 in0.0 mm
02:04 PM 58.8°F14.9°C 51.3°F10.7°C 76% 4.7 mph SE7.6 kmh SE 8.3 mph13.4 kmh 30.03 in1016.9 mb 0.00 in0.0 mm 0.00 in0.0 mm 0.00 in0.0 mm
02:03 PM 58.8°F14.9°C 51.3°F10.7°C 76% 5.8 mph SE9.3 kmh SE 8.3 mph13.4 kmh 30.03 in1016.9 mb 0.00 in0.0 mm 0.00 in0.0 mm 0.00 in0.0 mm
02:02 PM 58.8°F14.9°C 51.3°F10.7°C 76% 4.7 mph SE7.6 kmh SE 8.3 mph13.4 kmh 30.03 in1016.9 mb 0.00 in0.0 mm 0.00 in0.0 mm 0.00 in0.0 mm
02:01 PM 58.8°F14.9°C 51.3°F10.7°C 76% 5.8 mph SSE9.3 kmh SSE 8.3 mph13.4 kmh 30.05 in1017.6 mb 0.00 in0.0 mm 0.00 in0.0 mm 0.00 in0.0 mm
02:00 PM 58.8°F14.9°C 51.3°F10.7°C 76% 4.7 mph E7.6 kmh E 8.3 mph13.4 kmh 30.05 in1017.6 mb 0.00 in0.0 mm 0.00 in0.0 mm 0.00 in0.0 mm
01:59 PM 58.8°F14.9°C 51.3°F10.7°C 76% 4.2 mph SE6.8 kmh SE 8.3 mph13.4 kmh 30.05 in1017.6 mb 0.00 in0.0 mm 0.00 in0.0 mm 0.00 in0.0 mm
01:58 PM 58.8°F14.9°C 51.3°F10.7°C 76% 7.3 mph ESE11.7 kmh ESE 8.3 mph13.4 kmh 30.05 in1017.6 mb 0.00 in0.0 mm 0.00 in0.0 mm 0.00 in0.0 mm
01:57 PM 58.8°F14.9°C 51.3°F10.7°C 76% 5.3 mph SE8.5 kmh SE 8.3 mph13.4 kmh 30.05 in1017.6 mb 0.00 in0.0 mm 0.00 in0.0 mm 0.00 in0.0 mm
01:56 PM 58.6°F14.8°C 51.1°F10.6°C 76% 5.8 mph ESE9.3 kmh ESE 8.3 mph13.4 kmh 30.05 in1017.6 mb 0.00 in0.0 mm 0.00 in0.0 mm 0.00 in0.0 mm
01:55 PM 58.6°F14.8°C 51.1°F10.6°C 76% 7.3 mph ESE11.7 kmh ESE 8.3 mph13.4 kmh 30.05 in1017.6 mb 0.00 in0.0 mm 0.00 in0.0 mm 0.00 in0.0 mm
01:54 PM 58.6°F14.8°C 51.1°F10.6°C 76% 4.7 mph ESE7.6 kmh ESE 4.7 mph7.6 kmh 30.05 in1017.6 mb 0.00 in0.0 mm 0.00 in0.0 mm 0.00 in0.0 mm
01:53 PM 58.3°F14.6°C 51.4°F10.8°C 78% 3.7 mph ESE6.0 kmh ESE 6.3 mph10.1 kmh 30.05 in1017.6 mb 0.00 in0.0 mm 0.00 in0.0 mm 0.00 in0.0 mm
01:48 PM 58.3°F14.6°C 51.4°F10.8°C 78% 4.7 mph SSE7.6 kmh SSE 6.8 mph10.9 kmh 30.05 in1017.6 mb 0.00 in0.0 mm 0.00 in0.0 mm 0.00 in0.0 mm
01:47 PM 58.3°F14.6°C 51.4°F10.8°C 78% 4.7 mph SSE7.6 kmh SSE 6.8 mph10.9 kmh 30.05 in1017.6 mb 0.00 in0.0 mm 0.00 in0.0 mm 0.00 in0.0 mm
01:46 PM 58.3°F14.6°C 51.4°F10.8°C 78% 3.7 mph SSE6.0 kmh SSE 6.8 mph10.9 kmh 30.05 in1017.6 mb 0.00 in0.0 mm 0.00 in0.0 mm 0.00 in0.0 mm
01:45 PM 58.3°F14.6°C 51.4°F10.8°C 78% 4.2 mph ESE6.8 kmh ESE 6.8 mph10.9 kmh 30.05 in1017.6 mb 0.00 in0.0 mm 0.00 in0.0 mm 0.00 in0.0 mm
01:44 PM 58.3°F14.6°C 51.4°F10.8°C 78% 4.2 mph ESE6.8 kmh ESE 6.8 mph10.9 kmh 30.05 in1017.6 mb 0.00 in0.0 mm 0.00 in0.0 mm 0.00 in0.0 mm
01:43 PM 58.3°F14.6°C 51.8°F11.0°C 79% 4.2 mph SE6.8 kmh SE 6.8 mph10.9 kmh 30.05 in1017.6 mb 0.00 in0.0 mm 0.00 in0.0 mm 0.00 in0.0 mm
01:42 PM 58.3°F14.6°C 51.8°F11.0°C 79% 4.7 mph ESE7.6 kmh ESE 6.8 mph10.9 kmh 30.05 in1017.6 mb 0.00 in0.0 mm 0.00 in0.0 mm 0.00 in0.0 mm
01:41 PM 58.3°F14.6°C 51.8°F11.0°C 79% 3.7 mph ESE6.0 kmh ESE 6.8 mph10.9 kmh 30.05 in1017.6 mb 0.00 in0.0 mm 0.00 in0.0 mm 0.00 in0.0 mm
01:40 PM 58.3°F14.6°C 51.8°F11.0°C 79% 6.8 mph ESE10.9 kmh ESE 6.8 mph10.9 kmh 30.05 in1017.6 mb 0.00 in0.0 mm 0.00 in0.0 mm 0.00 in0.0 mm
01:39 PM 58.3°F14.6°C 51.8°F11.0°C 79% 3.2 mph SE5.1 kmh SE 6.3 mph10.1 kmh 30.05 in1017.6 mb 0.00 in0.0 mm 0.00 in0.0 mm 0.00 in0.0 mm
01:38 PM 58.3°F14.6°C 51.8°F11.0°C 79% 3.2 mph ESE5.1 kmh ESE 7.8 mph12.6 kmh 30.05 in1017.6 mb 0.00 in0.0 mm 0.00 in0.0 mm 0.00 in0.0 mm
01:37 PM 58.3°F14.6°C 51.8°F11.0°C 79% 3.7 mph SSE6.0 kmh SSE 7.8 mph12.6 kmh 30.05 in1017.6 mb 0.00 in0.0 mm 0.00 in0.0 mm 0.00 in0.0 mm
01:36 PM 58.1°F14.5°C 52.0°F11.1°C 80% 4.7 mph ESE7.6 kmh ESE 7.8 mph12.6 kmh 30.05 in1017.6 mb 0.00 in0.0 mm 0.00 in0.0 mm 0.00 in0.0 mm
01:35 PM 58.1°F14.5°C 52.0°F11.1°C 80% 4.7 mph SE7.6 kmh SE 7.8 mph12.6 kmh 30.05 in1017.6 mb 0.00 in0.0 mm 0.00 in0.0 mm 0.00 in0.0 mm
01:34 PM 58.1°F14.5°C 52.0°F11.1°C 80% 4.7 mph SSE7.6 kmh SSE 7.8 mph12.6 kmh 30.05 in1017.6 mb 0.00 in0.0 mm 0.00 in0.0 mm 0.00 in0.0 mm
01:33 PM 58.1°F14.5°C 52.0°F11.1°C 80% 2.7 mph SE4.3 kmh SE 7.8 mph12.6 kmh 30.05 in1017.6 mb 0.00 in0.0 mm 0.00 in0.0 mm 0.00 in0.0 mm
01:32 PM 58.1°F14.5°C 52.0°F11.1°C 80% 3.7 mph SE6.0 kmh SE 7.8 mph12.6 kmh 30.05 in1017.6 mb 0.00 in0.0 mm 0.00 in0.0 mm 0.00 in0.0 mm
01:31 PM 58.1°F14.5°C 52.0°F11.1°C 80% 4.2 mph ESE6.8 kmh ESE 7.8 mph12.6 kmh 30.05 in1017.6 mb 0.00 in0.0 mm 0.00 in0.0 mm 0.00 in0.0 mm
01:30 PM 58.1°F14.5°C 52.0°F11.1°C 80% 6.3 mph ESE10.1 kmh ESE 7.8 mph12.6 kmh 30.05 in1017.6 mb 0.00 in0.0 mm 0.00 in0.0 mm 0.00 in0.0 mm
01:29 PM 58.1°F14.5°C 52.0°F11.1°C 80% 5.8 mph ESE9.3 kmh ESE 7.8 mph12.6 kmh 30.05 in1017.6 mb 0.00 in0.0 mm 0.00 in0.0 mm 0.00 in0.0 mm
01:28 PM 58.1°F14.5°C 52.0°F11.1°C 80% 7.8 mph SE12.6 kmh SE 7.8 mph12.6 kmh 30.05 in1017.6 mb 0.00 in0.0 mm 0.00 in0.0 mm 0.00 in0.0 mm
01:27 PM 58.1°F14.5°C 52.0°F11.1°C 80% 3.7 mph ESE6.0 kmh ESE 5.8 mph9.3 kmh 30.05 in1017.6 mb 0.00 in0.0 mm 0.00 in0.0 mm 0.00 in0.0 mm
01:26 PM 58.1°F14.5°C 52.0°F11.1°C 80% 5.3 mph ESE8.5 kmh ESE 5.8 mph9.3 kmh 30.05 in1017.6 mb 0.00 in0.0 mm 0.00 in0.0 mm 0.00 in0.0 mm
01:25 PM 58.1°F14.5°C 52.0°F11.1°C 80% 3.7 mph ESE6.0 kmh ESE 5.8 mph9.3 kmh 30.05 in1017.6 mb 0.00 in0.0 mm 0.00 in0.0 mm 0.00 in0.0 mm
01:24 PM 58.1°F14.5°C 52.0°F11.1°C 80% 2.7 mph ESE4.3 kmh ESE 5.8 mph9.3 kmh 30.05 in1017.6 mb 0.00 in0.0 mm 0.00 in0.0 mm 0.00 in0.0 mm
01:23 PM 58.1°F14.5°C 52.0°F11.1°C 80% 2.7 mph SSE4.3 kmh SSE 5.8 mph9.3 kmh 30.05 in1017.6 mb 0.00 in0.0 mm 0.00 in0.0 mm 0.00 in0.0 mm
01:22 PM 58.1°F14.5°C 52.0°F11.1°C 80% 2.7 mph SE4.3 kmh SE 5.8 mph9.3 kmh 30.05 in1017.6 mb 0.00 in0.0 mm 0.00 in0.0 mm 0.00 in0.0 mm
01:21 PM 58.1°F14.5°C 52.0°F11.1°C 80% 1.7 mph ESE2.7 kmh ESE 5.8 mph9.3 kmh 30.05 in1017.6 mb 0.00 in0.0 mm 0.00 in0.0 mm 0.00 in0.0 mm
01:20 PM 58.1°F14.5°C 52.0°F11.1°C 80% 2.7 mph E4.3 kmh E 5.8 mph9.3 kmh 30.05 in1017.6 mb 0.00 in0.0 mm 0.00 in0.0 mm 0.00 in0.0 mm
01:19 PM 58.1°F14.5°C 52.0°F11.1°C 80% 4.2 mph ESE6.8 kmh ESE 5.8 mph9.3 kmh 30.05 in1017.6 mb 0.00 in0.0 mm 0.00 in0.0 mm 0.00 in0.0 mm
01:18 PM 58.1°F14.5°C 52.0°F11.1°C 80% 3.2 mph ESE5.1 kmh ESE 5.8 mph9.3 kmh 30.05 in1017.6 mb 0.00 in0.0 mm 0.00 in0.0 mm 0.00 in0.0 mm
01:17 PM 58.1°F14.5°C 52.0°F11.1°C 80% 2.7 mph ESE4.3 kmh ESE 5.8 mph9.3 kmh 30.05 in1017.6 mb 0.00 in0.0 mm 0.00 in0.0 mm 0.00 in0.0 mm
01:16 PM 58.1°F14.5°C 52.0°F11.1°C 80% 4.7 mph SE7.6 kmh SE 5.8 mph9.3 kmh 30.05 in1017.6 mb 0.00 in0.0 mm 0.00 in0.0 mm 0.00 in0.0 mm
01:15 PM 58.1°F14.5°C 52.0°F11.1°C 80% 3.7 mph ESE6.0 kmh ESE 5.8 mph9.3 kmh 30.05 in1017.6 mb 0.00 in0.0 mm 0.00 in0.0 mm 0.00 in0.0 mm
01:14 PM 58.1°F14.5°C 51.6°F10.9°C 79% 3.7 mph SE6.0 kmh SE 5.8 mph9.3 kmh 30.05 in1017.6 mb 0.00 in0.0 mm 0.00 in0.0 mm 0.00 in0.0 mm
01:13 PM 58.1°F14.5°C 51.6°F10.9°C 79% 4.2 mph ESE6.8 kmh ESE 5.8 mph9.3 kmh 30.05 in1017.6 mb 0.00 in0.0 mm 0.00 in0.0 mm 0.00 in0.0 mm
01:12 PM 58.1°F14.5°C 51.3°F10.7°C 78% 4.7 mph ESE7.6 kmh ESE 5.8 mph9.3 kmh 30.06 in1017.9 mb 0.00 in0.0 mm 0.00 in0.0 mm 0.00 in0.0 mm
01:11 PM 58.1°F14.5°C 51.3°F10.7°C 78% 2.7 mph ESE4.3 kmh ESE 5.8 mph9.3 kmh 30.06 in1017.9 mb 0.00 in0.0 mm 0.00 in0.0 mm 0.00 in0.0 mm
01:10 PM 58.1°F14.5°C 51.3°F10.7°C 78% 3.7 mph E6.0 kmh E 5.8 mph9.3 kmh 30.06 in1017.9 mb 0.00 in0.0 mm 0.00 in0.0 mm 0.00 in0.0 mm
01:09 PM 58.1°F14.5°C 51.3°F10.7°C 78% 2.2 mph E3.5 kmh E 5.8 mph9.3 kmh 30.06 in1017.9 mb 0.00 in0.0 mm 0.00 in0.0 mm 0.00 in0.0 mm
01:08 PM 58.1°F14.5°C 51.3°F10.7°C 78% 3.2 mph SE5.1 kmh SE 5.8 mph9.3 kmh 30.06 in1017.9 mb 0.00 in0.0 mm 0.00 in0.0 mm 0.00 in0.0 mm
01:07 PM 58.1°F14.5°C 51.3°F10.7°C 78% 1.7 mph ESE2.7 kmh ESE 5.8 mph9.3 kmh 30.06 in1017.9 mb 0.00 in0.0 mm 0.00 in0.0 mm 0.00 in0.0 mm
01:06 PM 58.1°F14.5°C 51.3°F10.7°C 78% 5.8 mph SE9.3 kmh SE 5.8 mph9.3 kmh 30.06 in1017.9 mb 0.00 in0.0 mm 0.00 in0.0 mm 0.00 in0.0 mm
01:05 PM 58.1°F14.5°C 51.3°F10.7°C 78% 4.2 mph ESE6.8 kmh ESE 5.8 mph9.3 kmh 30.06 in1017.9 mb 0.00 in0.0 mm 0.00 in0.0 mm 0.00 in0.0 mm
01:04 PM 58.1°F14.5°C 51.3°F10.7°C 78% 4.2 mph ESE6.8 kmh ESE 5.8 mph9.3 kmh 30.06 in1017.9 mb 0.00 in0.0 mm 0.00 in0.0 mm 0.00 in0.0 mm
01:03 PM 58.1°F14.5°C 51.3°F10.7°C 78% 3.7 mph ESE6.0 kmh ESE 5.8 mph9.3 kmh 30.06 in1017.9 mb 0.00 in0.0 mm 0.00 in0.0 mm 0.00 in0.0 mm
01:02 PM 58.1°F14.5°C 51.3°F10.7°C 78% 5.3 mph ESE8.5 kmh ESE 5.8 mph9.3 kmh 30.06 in1017.9 mb 0.00 in0.0 mm 0.00 in0.0 mm 0.00 in0.0 mm
01:01 PM 58.1°F14.5°C 51.3°F10.7°C 78% 3.2 mph ESE5.1 kmh ESE 5.8 mph9.3 kmh 30.06 in1017.9 mb 0.00 in0.0 mm 0.00 in0.0 mm 0.00 in0.0 mm
01:00 PM 58.1°F14.5°C 51.3°F10.7°C 78% 3.7 mph ESE6.0 kmh ESE 4.2 mph6.8 kmh 30.07 in1018.3 mb 0.00 in0.0 mm 0.00 in0.0 mm 0.00 in0.0 mm
12:59 PM 58.1°F14.5°C 51.3°F10.7°C 78% 3.2 mph ESE5.1 kmh ESE 4.2 mph6.8 kmh 30.07 in1018.3 mb 0.00 in0.0 mm 0.00 in0.0 mm 0.00 in0.0 mm
12:58 PM 58.1°F14.5°C 51.3°F10.7°C 78% 3.7 mph ESE6.0 kmh ESE 4.2 mph6.8 kmh 30.07 in1018.3 mb 0.00 in0.0 mm 0.00 in0.0 mm 0.00 in0.0 mm
12:57 PM 58.1°F14.5°C 51.3°F10.7°C 78% 4.2 mph ESE6.8 kmh ESE 4.2 mph6.8 kmh 30.07 in1018.3 mb 0.00 in0.0 mm 0.00 in0.0 mm 0.00 in0.0 mm
12:56 PM 58.1°F14.5°C 51.3°F10.7°C 78% 2.7 mph SE4.3 kmh SE 4.2 mph6.8 kmh 30.07 in1018.3 mb 0.00 in0.0 mm 0.00 in0.0 mm 0.00 in0.0 mm
12:55 PM 58.1°F14.5°C 51.3°F10.7°C 78% 3.7 mph ESE6.0 kmh ESE 4.2 mph6.8 kmh 30.07 in1018.3 mb 0.00 in0.0 mm 0.00 in0.0 mm 0.00 in0.0 mm
12:54 PM 58.1°F14.5°C 51.3°F10.7°C 78% 2.7 mph E4.3 kmh E 4.2 mph6.8 kmh 30.07 in1018.3 mb 0.00 in0.0 mm 0.00 in0.0 mm 0.00 in0.0 mm
12:53 PM 58.1°F14.5°C 51.3°F10.7°C 78% 2.7 mph ESE4.3 kmh ESE 4.2 mph6.8 kmh 30.07 in1018.3 mb 0.00 in0.0 mm 0.00 in0.0 mm 0.00 in0.0 mm
12:52 PM 58.1°F14.5°C 50.9°F10.5°C 77% 3.2 mph SSE5.1 kmh SSE 4.2 mph6.8 kmh 30.07 in1018.3 mb 0.00 in0.0 mm 0.00 in0.0 mm 0.00 in0.0 mm
12:51 PM 58.1°F14.5°C 50.9°F10.5°C 77% 3.2 mph E5.1 kmh E 4.2 mph6.8 kmh 30.07 in1018.3 mb 0.00 in0.0 mm 0.00 in0.0 mm 0.00 in0.0 mm
12:50 PM 58.1°F14.5°C 50.9°F10.5°C 77% 3.2 mph E5.1 kmh E 4.2 mph6.8 kmh 30.07 in1018.3 mb 0.00 in0.0 mm 0.00 in0.0 mm 0.00 in0.0 mm
12:49 PM 58.1°F14.5°C 50.9°F10.5°C 77% 2.7 mph E4.3 kmh E 4.2 mph6.8 kmh 30.07 in1018.3 mb 0.00 in0.0 mm 0.00 in0.0 mm 0.00 in0.0 mm
12:48 PM 58.1°F14.5°C 50.9°F10.5°C 77% 3.2 mph ESE5.1 kmh ESE 4.2 mph6.8 kmh 30.07 in1018.3 mb 0.00 in0.0 mm 0.00 in0.0 mm 0.00 in0.0 mm
12:47 PM 58.1°F14.5°C 50.9°F10.5°C 77% 3.7 mph ESE6.0 kmh ESE 4.2 mph6.8 kmh 30.07 in1018.3 mb 0.00 in0.0 mm 0.00 in0.0 mm 0.00 in0.0 mm
12:46 PM 58.1°F14.5°C 50.9°F10.5°C 77% 2.2 mph ESE3.5 kmh ESE 5.3 mph8.5 kmh 30.07 in1018.3 mb 0.00 in0.0 mm 0.00 in0.0 mm 0.00 in0.0 mm
12:45 PM 58.1°F14.5°C 50.9°F10.5°C 77% 3.2 mph SSE5.1 kmh SSE 5.3 mph8.5 kmh 30.07 in1018.3 mb 0.00 in0.0 mm 0.00 in0.0 mm 0.00 in0.0 mm
12:44 PM 58.1°F14.5°C 50.9°F10.5°C 77% 2.2 mph SE3.5 kmh SE 5.3 mph8.5 kmh 30.07 in1018.3 mb 0.00 in0.0 mm 0.00 in0.0 mm 0.00 in0.0 mm
12:43 PM 58.1°F14.5°C 50.9°F10.5°C 77% 2.7 mph ESE4.3 kmh ESE 5.3 mph8.5 kmh 30.07 in1018.3 mb 0.00 in0.0 mm 0.00 in0.0 mm 0.00 in0.0 mm
12:42 PM 58.1°F14.5°C 50.9°F10.5°C 77% 2.2 mph E3.5 kmh E 5.8 mph9.3 kmh 30.07 in1018.3 mb 0.00 in0.0 mm 0.00 in0.0 mm 0.00 in0.0 mm
12:41 PM 58.1°F14.5°C 50.9°F10.5°C 77% 2.7 mph SSE4.3 kmh SSE 5.8 mph9.3 kmh 30.07 in1018.3 mb 0.00 in0.0 mm 0.00 in0.0 mm 0.00 in0.0 mm
12:40 PM 58.1°F14.5°C 50.9°F10.5°C 77% 3.2 mph SSE5.1 kmh SSE 5.8 mph9.3 kmh 30.07 in1018.3 mb 0.00 in0.0 mm 0.00 in0.0 mm 0.00 in0.0 mm
12:39 PM 58.1°F14.5°C 50.9°F10.5°C 77% 3.7 mph SE6.0 kmh SE 6.3 mph10.1 kmh 30.07 in1018.3 mb 0.00 in0.0 mm 0.00 in0.0 mm 0.00 in0.0 mm
12:38 PM 58.1°F14.5°C 50.9°F10.5°C 77% 3.2 mph ESE5.1 kmh ESE 6.3 mph10.1 kmh 30.07 in1018.3 mb 0.00 in0.0 mm 0.00 in0.0 mm 0.00 in0.0 mm
12:37 PM 58.1°F14.5°C 50.9°F10.5°C 77% 2.7 mph ESE4.3 kmh ESE 6.3 mph10.1 kmh 30.07 in1018.3 mb 0.00 in0.0 mm 0.00 in0.0 mm 0.00 in0.0 mm
12:36 PM 58.1°F14.5°C 50.9°F10.5°C 77% 5.3 mph ESE8.5 kmh ESE 6.3 mph10.1 kmh 30.07 in1018.3 mb 0.00 in0.0 mm 0.00 in0.0 mm 0.00 in0.0 mm
12:35 PM 58.1°F14.5°C 50.9°F10.5°C 77% 4.7 mph SSE7.6 kmh SSE 6.3 mph10.1 kmh 30.07 in1018.3 mb 0.00 in0.0 mm 0.00 in0.0 mm 0.00 in0.0 mm
12:34 PM 57.9°F14.4°C 50.8°F10.4°C 77% 4.2 mph ESE6.8 kmh ESE 6.3 mph10.1 kmh 30.07 in1018.3 mb 0.00 in0.0 mm 0.00 in0.0 mm 0.00 in0.0 mm
12:33 PM 57.9°F14.4°C 50.8°F10.4°C 77% 4.2 mph SE6.8 kmh SE 6.3 mph10.1 kmh 30.07 in1018.3 mb 0.00 in0.0 mm 0.00 in0.0 mm 0.00 in0.0 mm
12:32 PM 57.9°F14.4°C 50.8°F10.4°C 77% 5.8 mph E9.3 kmh E 6.3 mph10.1 kmh 30.07 in1018.3 mb 0.00 in0.0 mm 0.00 in0.0 mm 0.00 in0.0 mm
12:31 PM 57.9°F14.4°C 50.8°F10.4°C 77% 2.7 mph ESE4.3 kmh ESE 6.3 mph10.1 kmh 30.07 in1018.3 mb 0.00 in0.0 mm 0.00 in0.0 mm 0.00 in0.0 mm
12:30 PM 57.9°F14.4°C 50.8°F10.4°C 77% 3.2 mph ESE5.1 kmh ESE 6.3 mph10.1 kmh 30.07 in1018.3 mb 0.00 in0.0 mm 0.00 in0.0 mm 0.00 in0.0 mm
12:29 PM 57.9°F14.4°C 50.8°F10.4°C 77% 6.3 mph SSE10.1 kmh SSE 6.3 mph10.1 kmh 30.07 in1018.3 mb 0.00 in0.0 mm 0.00 in0.0 mm 0.00 in0.0 mm
12:28 PM 57.9°F14.4°C 50.8°F10.4°C 77% 4.2 mph ESE6.8 kmh ESE 5.8 mph9.3 kmh 30.07 in1018.3 mb 0.00 in0.0 mm 0.00 in0.0 mm 0.00 in0.0 mm
12:27 PM 57.9°F14.4°C 50.8°F10.4°C 77% 4.2 mph ESE6.8 kmh ESE 5.8 mph9.3 kmh 30.07 in1018.3 mb 0.00 in0.0 mm 0.00 in0.0 mm 0.00 in0.0 mm
12:26 PM 57.9°F14.4°C 50.8°F10.4°C 77% 3.2 mph ESE5.1 kmh ESE 5.8 mph9.3 kmh 30.07 in1018.3 mb 0.00 in0.0 mm 0.00 in0.0 mm 0.00 in0.0 mm
12:25 PM 57.9°F14.4°C 50.8°F10.4°C 77% 4.7 mph ESE7.6 kmh ESE 5.8 mph9.3 kmh 30.08 in1018.6 mb 0.00 in0.0 mm 0.00 in0.0 mm 0.00 in0.0 mm
12:24 PM 57.9°F14.4°C 50.8°F10.4°C 77% 3.7 mph ESE6.0 kmh ESE 5.8 mph9.3 kmh 30.08 in1018.6 mb 0.00 in0.0 mm 0.00 in0.0 mm 0.00 in0.0 mm
12:23 PM 57.9°F14.4°C 50.8°F10.4°C 77% 2.7 mph SE4.3 kmh SE 5.8 mph9.3 kmh 30.08 in1018.6 mb 0.00 in0.0 mm 0.00 in0.0 mm 0.00 in0.0 mm
12:22 PM 57.9°F14.4°C 50.4°F10.2°C 76% 2.7 mph ESE4.3 kmh ESE 5.8 mph9.3 kmh 30.08 in1018.6 mb 0.00 in0.0 mm 0.00 in0.0 mm 0.00 in0.0 mm
12:21 PM 57.9°F14.4°C 50.4°F10.2°C 76% 5.8 mph ESE9.3 kmh ESE 5.8 mph9.3 kmh 30.08 in1018.6 mb 0.00 in0.0 mm 0.00 in0.0 mm 0.00 in0.0 mm
12:20 PM 57.9°F14.4°C 50.4°F10.2°C 76% 3.7 mph ESE6.0 kmh ESE 5.3 mph8.5 kmh 30.08 in1018.6 mb 0.00 in0.0 mm 0.00 in0.0 mm 0.00 in0.0 mm
12:19 PM 57.9°F14.4°C 50.4°F10.2°C 76% 4.7 mph SE7.6 kmh SE 5.3 mph8.5 kmh 30.08 in1018.6 mb 0.00 in0.0 mm 0.00 in0.0 mm 0.00 in0.0 mm
12:18 PM 57.9°F14.4°C 50.4°F10.2°C 76% 4.2 mph ESE6.8 kmh ESE 5.3 mph8.5 kmh 30.08 in1018.6 mb 0.00 in0.0 mm 0.00 in0.0 mm 0.00 in0.0 mm
12:17 PM 57.9°F14.4°C 50.4°F10.2°C 76% 4.2 mph ESE6.8 kmh ESE 5.3 mph8.5 kmh 30.08 in1018.6 mb 0.00 in0.0 mm 0.00 in0.0 mm 0.00 in0.0 mm
12:16 PM 57.9°F14.4°C 50.4°F10.2°C 76% 4.7 mph SSE7.6 kmh SSE 5.3 mph8.5 kmh 30.08 in1018.6 mb 0.00 in0.0 mm 0.00 in0.0 mm 0.00 in0.0 mm
12:15 PM 57.9°F14.4°C 50.4°F10.2°C 76% 3.7 mph ESE6.0 kmh ESE 4.2 mph6.8 kmh 30.08 in1018.6 mb 0.00 in0.0 mm 0.00 in0.0 mm 0.00 in0.0 mm
12:14 PM 57.9°F14.4°C 50.4°F10.2°C 76% 3.2 mph ESE5.1 kmh ESE 4.2 mph6.8 kmh 30.08 in1018.6 mb 0.00 in0.0 mm 0.00 in0.0 mm 0.00 in0.0 mm
12:13 PM 57.9°F14.4°C 50.4°F10.2°C 76% 2.7 mph ESE4.3 kmh ESE 4.2 mph6.8 kmh 30.08 in1018.6 mb 0.00 in0.0 mm 0.00 in0.0 mm 0.00 in0.0 mm
12:12 PM 57.9°F14.4°C 50.4°F10.2°C 76% 1.7 mph SE2.7 kmh SE 4.2 mph6.8 kmh 30.08 in1018.6 mb 0.00 in0.0 mm 0.00 in0.0 mm 0.00 in0.0 mm
12:11 PM 57.9°F14.4°C 50.4°F10.2°C 76% 3.2 mph SE5.1 kmh SE 4.2 mph6.8 kmh 30.08 in1018.6 mb 0.00 in0.0 mm 0.00 in0.0 mm 0.00 in0.0 mm
12:10 PM 57.9°F14.4°C 50.4°F10.2°C 76% 3.2 mph SE5.1 kmh SE 5.8 mph9.3 kmh 30.08 in1018.6 mb 0.00 in0.0 mm 0.00 in0.0 mm 0.00 in0.0 mm
12:09 PM 57.9°F14.4°C 50.4°F10.2°C 76% 3.2 mph ESE5.1 kmh ESE 5.8 mph9.3 kmh 30.08 in1018.6 mb 0.00 in0.0 mm 0.00 in0.0 mm 0.00 in0.0 mm
12:08 PM 57.7°F14.3°C 50.2°F10.1°C 76% 2.7 mph ESE4.3 kmh ESE 5.8 mph9.3 kmh 30.08 in1018.6 mb 0.00 in0.0 mm 0.00 in0.0 mm 0.00 in0.0 mm
12:07 PM 57.7°F14.3°C 50.2°F10.1°C 76% 2.7 mph ESE4.3 kmh ESE 5.8 mph9.3 kmh 30.08 in1018.6 mb 0.00 in0.0 mm 0.00 in0.0 mm 0.00 in0.0 mm
12:06 PM 57.7°F14.3°C 50.2°F10.1°C 76% 4.2 mph ESE6.8 kmh ESE 5.8 mph9.3 kmh 30.08 in1018.6 mb 0.00 in0.0 mm 0.00 in0.0 mm 0.00 in0.0 mm
12:05 PM 57.7°F14.3°C 50.2°F10.1°C 76% 3.7 mph SSE6.0 kmh SSE 5.8 mph9.3 kmh 30.08 in1018.6 mb 0.00 in0.0 mm 0.00 in0.0 mm 0.00 in0.0 mm
12:04 PM 57.7°F14.3°C 50.2°F10.1°C 76% 2.7 mph SE4.3 kmh SE 5.8 mph9.3 kmh 30.08 in1018.6 mb 0.00 in0.0 mm 0.00 in0.0 mm 0.00 in0.0 mm
12:03 PM 57.7°F14.3°C 50.2°F10.1°C 76% 2.7 mph SE4.3 kmh SE 5.8 mph9.3 kmh 30.08 in1018.6 mb 0.00 in0.0 mm 0.00 in0.0 mm 0.00 in0.0 mm
12:02 PM 57.7°F14.3°C 50.2°F10.1°C 76% 3.2 mph E5.1 kmh E 5.8 mph9.3 kmh 30.08 in1018.6 mb 0.00 in0.0 mm 0.00 in0.0 mm 0.00 in0.0 mm
12:01 PM 57.7°F14.3°C 50.2°F10.1°C 76% 2.2 mph SE3.5 kmh SE 5.8 mph9.3 kmh 30.08 in1018.6 mb 0.00 in0.0 mm 0.00 in0.0 mm 0.00 in0.0 mm
12:00 PM 57.7°F14.3°C 50.2°F10.1°C 76% 5.8 mph S9.3 kmh S 6.3 mph10.1 kmh 30.07 in1018.3 mb 0.00 in0.0 mm 0.00 in0.0 mm 0.00 in0.0 mm
11:59 AM 57.7°F14.3°C 50.2°F10.1°C 76% 3.2 mph SE5.1 kmh SE 6.3 mph10.1 kmh 30.07 in1018.3 mb 0.00 in0.0 mm 0.00 in0.0 mm 0.00 in0.0 mm
11:58 AM 57.6°F14.2°C 50.1°F10.1°C 76% 2.2 mph SSE3.5 kmh SSE 6.3 mph10.1 kmh 30.07 in1018.3 mb 0.00 in0.0 mm 0.00 in0.0 mm 0.00 in0.0 mm
11:57 AM 57.6°F14.2°C 50.1°F10.1°C 76% 3.2 mph SE5.1 kmh SE 6.3 mph10.1 kmh 30.07 in1018.3 mb 0.00 in0.0 mm 0.00 in0.0 mm 0.00 in0.0 mm
11:56 AM 57.6°F14.2°C 50.1°F10.1°C 76% 2.7 mph SE4.3 kmh SE 6.3 mph10.1 kmh 30.07 in1018.3 mb 0.00 in0.0 mm 0.00 in0.0 mm 0.00 in0.0 mm
11:55 AM 57.6°F14.2°C 50.1°F10.1°C 76% 2.7 mph S4.3 kmh S 6.3 mph10.1 kmh 30.07 in1018.3 mb 0.00 in0.0 mm 0.00 in0.0 mm 0.00 in0.0 mm
11:54 AM 57.6°F14.2°C 50.1°F10.1°C 76% 2.2 mph SE3.5 kmh SE 6.8 mph10.9 kmh 30.07 in1018.3 mb 0.00 in0.0 mm 0.00 in0.0 mm 0.00 in0.0 mm
11:53 AM 57.6°F14.2°C 50.1°F10.1°C 76% 1.1 mph SSW1.8 kmh SSW 6.8 mph10.9 kmh 30.07 in1018.3 mb 0.00 in0.0 mm 0.00 in0.0 mm 0.00 in0.0 mm
11:52 AM 57.4°F14.1°C 49.9°F9.9°C 76% 1.1 mph SE1.8 kmh SE 8.3 mph13.4 kmh 30.07 in1018.3 mb 0.00 in0.0 mm 0.00 in0.0 mm 0.00 in0.0 mm
11:51 AM 57.4°F14.1°C 49.9°F9.9°C 76% 1.1 mph SSE1.8 kmh SSE 8.3 mph13.4 kmh 30.07 in1018.3 mb 0.00 in0.0 mm 0.00 in0.0 mm 0.00 in0.0 mm
11:50 AM 57.4°F14.1°C 49.9°F9.9°C 76% 6.3 mph S10.1 kmh S 8.3 mph13.4 kmh 30.07 in1018.3 mb 0.00 in0.0 mm 0.00 in0.0 mm 0.00 in0.0 mm
11:49 AM 57.4°F14.1°C 49.9°F9.9°C 76% 3.7 mph SE6.0 kmh SE 8.3 mph13.4 kmh 30.07 in1018.3 mb 0.00 in0.0 mm 0.00 in0.0 mm 0.00 in0.0 mm
11:48 AM 57.2°F14.0°C 49.7°F9.8°C 76% 5.8 mph E9.3 kmh E 8.3 mph13.4 kmh 30.07 in1018.3 mb 0.00 in0.0 mm 0.00 in0.0 mm 0.00 in0.0 mm
11:47 AM 57.2°F14.0°C 49.7°F9.8°C 76% 4.2 mph S6.8 kmh S 8.3 mph13.4 kmh 30.07 in1018.3 mb 0.00 in0.0 mm 0.00 in0.0 mm 0.00 in0.0 mm
11:46 AM 57.2°F14.0°C 49.7°F9.8°C 76% 3.7 mph SSE6.0 kmh SSE 8.3 mph13.4 kmh 30.07 in1018.3 mb 0.00 in0.0 mm 0.00 in0.0 mm 0.00 in0.0 mm
11:45 AM 57.2°F14.0°C 49.7°F9.8°C 76% 3.2 mph S5.1 kmh S 9.4 mph15.1 kmh 30.07 in1018.3 mb 0.00 in0.0 mm 0.00 in0.0 mm 0.00 in0.0 mm
11:44 AM 57.2°F14.0°C 49.7°F9.8°C 76% 6.8 mph SSE10.9 kmh SSE 9.4 mph15.1 kmh 30.07 in1018.3 mb 0.00 in0.0 mm 0.00 in0.0 mm 0.00 in0.0 mm
11:43 AM 57.2°F14.0°C 49.7°F9.8°C 76% 4.7 mph ESE7.6 kmh ESE 9.4 mph15.1 kmh 30.07 in1018.3 mb 0.00 in0.0 mm 0.00 in0.0 mm 0.00 in0.0 mm
11:42 AM 57.2°F14.0°C 49.7°F9.8°C 76% 8.3 mph SE13.4 kmh SE 9.4 mph15.1 kmh 30.07 in1018.3 mb 0.00 in0.0 mm 0.00 in0.0 mm 0.00 in0.0 mm
11:41 AM 57.2°F14.0°C 49.7°F9.8°C 76% 8.3 mph ESE13.4 kmh ESE 9.4 mph15.1 kmh 30.07 in1018.3 mb 0.00 in0.0 mm 0.00 in0.0 mm 0.00 in0.0 mm
11:40 AM 57.2°F14.0°C 49.7°F9.8°C 76% 4.2 mph E6.8 kmh E 9.4 mph15.1 kmh 30.07 in1018.3 mb 0.00 in0.0 mm 0.00 in0.0 mm 0.00 in0.0 mm
11:39 AM 57.2°F14.0°C 49.7°F9.8°C 76% 3.7 mph S6.0 kmh S 9.4 mph15.1 kmh 30.07 in1018.3 mb 0.00 in0.0 mm 0.00 in0.0 mm 0.00 in0.0 mm
11:38 AM 57.2°F14.0°C 49.7°F9.8°C 76% 4.7 mph S7.6 kmh S 9.4 mph15.1 kmh 30.07 in1018.3 mb 0.00 in0.0 mm 0.00 in0.0 mm 0.00 in0.0 mm
11:37 AM 57.2°F14.0°C 49.7°F9.8°C 76% 6.8 mph SSE10.9 kmh SSE 9.4 mph15.1 kmh 30.07 in1018.3 mb 0.00 in0.0 mm 0.00 in0.0 mm 0.00 in0.0 mm
11:36 AM 57.2°F14.0°C 49.7°F9.8°C 76% 5.3 mph SSE8.5 kmh SSE 9.4 mph15.1 kmh 30.07 in1018.3 mb 0.00 in0.0 mm 0.00 in0.0 mm 0.00 in0.0 mm
11:35 AM 57.2°F14.0°C 49.7°F9.8°C 76% 4.7 mph SSE7.6 kmh SSE 8.9 mph14.3 kmh 30.07 in1018.3 mb 0.00 in0.0 mm 0.00 in0.0 mm 0.00 in0.0 mm
11:34 AM 57.2°F14.0°C 49.7°F9.8°C 76% 4.2 mph E6.8 kmh E 8.3 mph13.4 kmh 30.07 in1018.3 mb 0.00 in0.0 mm 0.00 in0.0 mm 0.00 in0.0 mm
11:33 AM 57.2°F14.0°C 49.7°F9.8°C 76% 4.2 mph ESE6.8 kmh ESE 8.9 mph14.3 kmh 30.07 in1018.3 mb 0.00 in0.0 mm 0.00 in0.0 mm 0.00 in0.0 mm
11:32 AM 57.2°F14.0°C 49.7°F9.8°C 76% 2.7 mph SSE4.3 kmh SSE 11.4 mph18.3 kmh 30.07 in1018.3 mb 0.00 in0.0 mm 0.00 in0.0 mm 0.00 in0.0 mm
11:31 AM 57.2°F14.0°C 49.7°F9.8°C 76% 4.7 mph ESE7.6 kmh ESE 11.4 mph18.3 kmh 30.07 in1018.3 mb 0.00 in0.0 mm 0.00 in0.0 mm 0.00 in0.0 mm
11:30 AM 57.2°F14.0°C 49.7°F9.8°C 76% 4.7 mph SSE7.6 kmh SSE 11.4 mph18.3 kmh 30.07 in1018.3 mb 0.00 in0.0 mm 0.00 in0.0 mm 0.00 in0.0 mm
11:29 AM 57.2°F14.0°C 49.7°F9.8°C 76% 6.8 mph SSE10.9 kmh SSE 11.4 mph18.3 kmh 30.07 in1018.3 mb 0.00 in0.0 mm 0.00 in0.0 mm 0.00 in0.0 mm
11:28 AM 57.2°F14.0°C 49.7°F9.8°C 76% 3.2 mph SSE5.1 kmh SSE 11.4 mph18.3 kmh 30.07 in1018.3 mb 0.00 in0.0 mm 0.00 in0.0 mm 0.00 in0.0 mm
11:27 AM 57.2°F14.0°C 49.7°F9.8°C 76% 5.3 mph ESE8.5 kmh ESE 11.4 mph18.3 kmh 30.07 in1018.3 mb 0.00 in0.0 mm 0.00 in0.0 mm 0.00 in0.0 mm
11:26 AM 57.0°F13.9°C 49.5°F9.7°C 76% 2.7 mph ESE4.3 kmh ESE 11.4 mph18.3 kmh 30.07 in1018.3 mb 0.00 in0.0 mm 0.00 in0.0 mm 0.00 in0.0 mm
11:25 AM 57.0°F13.9°C 49.5°F9.7°C 76% 5.3 mph E8.5 kmh E 11.4 mph18.3 kmh 30.07 in1018.3 mb 0.00 in0.0 mm 0.00 in0.0 mm 0.00 in0.0 mm
11:24 AM 57.0°F13.9°C 49.5°F9.7°C 76% 4.2 mph ESE6.8 kmh ESE 11.4 mph18.3 kmh 30.08 in1018.6 mb 0.00 in0.0 mm 0.00 in0.0 mm 0.00 in0.0 mm
11:23 AM 57.0°F13.9°C 49.5°F9.7°C 76% 5.8 mph S9.3 kmh S 11.4 mph18.3 kmh 30.08 in1018.6 mb 0.00 in0.0 mm 0.00 in0.0 mm 0.00 in0.0 mm
11:22 AM 57.0°F13.9°C 49.5°F9.7°C 76% 11.4 mph ESE18.3 kmh ESE 11.4 mph18.3 kmh 30.08 in1018.6 mb 0.00 in0.0 mm 0.00 in0.0 mm 0.00 in0.0 mm
11:21 AM 57.0°F13.9°C 49.9°F9.9°C 77% 8.9 mph E14.3 kmh E 10.4 mph16.7 kmh 30.08 in1018.6 mb 0.00 in0.0 mm 0.00 in0.0 mm 0.00 in0.0 mm
11:20 AM 57.0°F13.9°C 49.9°F9.9°C 77% 6.8 mph ESE10.9 kmh ESE 10.4 mph16.7 kmh 30.08 in1018.6 mb 0.00 in0.0 mm 0.00 in0.0 mm 0.00 in0.0 mm
11:19 AM 57.0°F13.9°C 49.9°F9.9°C 77% 5.8 mph ESE9.3 kmh ESE 10.4 mph16.7 kmh 30.08 in1018.6 mb 0.00 in0.0 mm 0.00 in0.0 mm 0.00 in0.0 mm
11:18 AM 57.0°F13.9°C 49.9°F9.9°C 77% 7.8 mph E12.6 kmh E 10.4 mph16.7 kmh 30.08 in1018.6 mb 0.00 in0.0 mm 0.00 in0.0 mm 0.00 in0.0 mm
11:17 AM 57.0°F13.9°C 49.9°F9.9°C 77% 6.3 mph ESE10.1 kmh ESE 10.4 mph16.7 kmh 30.08 in1018.6 mb 0.00 in0.0 mm 0.00 in0.0 mm 0.00 in0.0 mm
11:16 AM 57.0°F13.9°C 49.9°F9.9°C 77% 9.4 mph SE15.1 kmh SE 10.4 mph16.7 kmh 30.08 in1018.6 mb 0.00 in0.0 mm 0.00 in0.0 mm 0.00 in0.0 mm
11:15 AM 57.2°F14.0°C 50.4°F10.2°C 78% 7.3 mph E11.7 kmh E 9.9 mph15.9 kmh 30.08 in1018.6 mb 0.00 in0.0 mm 0.00 in0.0 mm 0.00 in0.0 mm
11:14 AM 57.2°F14.0°C 50.4°F10.2°C 78% 6.8 mph ESE10.9 kmh ESE 9.9 mph15.9 kmh 30.08 in1018.6 mb 0.00 in0.0 mm 0.00 in0.0 mm 0.00 in0.0 mm
11:13 AM 57.2°F14.0°C 50.4°F10.2°C 78% 6.3 mph ESE10.1 kmh ESE 9.9 mph15.9 kmh 30.08 in1018.6 mb 0.00 in0.0 mm 0.00 in0.0 mm 0.00 in0.0 mm
11:12 AM 57.2°F14.0°C 50.4°F10.2°C 78% 5.8 mph ESE9.3 kmh ESE 9.9 mph15.9 kmh 30.09 in1019.0 mb 0.00 in0.0 mm 0.00 in0.0 mm 0.00 in0.0 mm
11:11 AM 57.0°F13.9°C 50.2°F10.1°C 78% 3.7 mph ESE6.0 kmh ESE 9.9 mph15.9 kmh 30.09 in1019.0 mb 0.00 in0.0 mm 0.00 in0.0 mm 0.00 in0.0 mm
11:10 AM 57.0°F13.9°C 49.9°F9.9°C 77% 4.7 mph SE7.6 kmh SE 9.9 mph15.9 kmh 30.09 in1019.0 mb 0.00 in0.0 mm 0.00 in0.0 mm 0.00 in0.0 mm
11:09 AM 57.0°F13.9°C 49.9°F9.9°C 77% 4.7 mph ESE7.6 kmh ESE 9.9 mph15.9 kmh 30.09 in1019.0 mb 0.00 in0.0 mm 0.00 in0.0 mm 0.00 in0.0 mm
11:08 AM 57.0°F13.9°C 49.9°F9.9°C 77% 5.3 mph ESE8.5 kmh ESE 9.9 mph15.9 kmh 30.09 in1019.0 mb 0.00 in0.0 mm 0.00 in0.0 mm 0.00 in0.0 mm
11:07 AM 57.0°F13.9°C 49.9°F9.9°C 77% 5.3 mph SE8.5 kmh SE 9.9 mph15.9 kmh 30.09 in1019.0 mb 0.00 in0.0 mm 0.00 in0.0 mm 0.00 in0.0 mm
11:06 AM 57.0°F13.9°C 49.9°F9.9°C 77% 7.8 mph SE12.6 kmh SE 9.9 mph15.9 kmh 30.09 in1019.0 mb 0.00 in0.0 mm 0.00 in0.0 mm 0.00 in0.0 mm
11:05 AM 57.0°F13.9°C 50.2°F10.1°C 78% 5.8 mph SSE9.3 kmh SSE 8.3 mph13.4 kmh 30.09 in1019.0 mb 0.00 in0.0 mm 0.00 in0.0 mm 0.00 in0.0 mm
11:04 AM 56.8°F13.8°C 50.1°F10.1°C 78% 3.7 mph ESE6.0 kmh ESE 8.3 mph13.4 kmh 30.09 in1019.0 mb 0.00 in0.0 mm 0.00 in0.0 mm 0.00 in0.0 mm
11:03 AM 56.8°F13.8°C 50.1°F10.1°C 78% 5.3 mph SSE8.5 kmh SSE 8.3 mph13.4 kmh 30.09 in1019.0 mb 0.00 in0.0 mm 0.00 in0.0 mm 0.00 in0.0 mm
11:02 AM 56.8°F13.8°C 50.1°F10.1°C 78% 5.8 mph ESE9.3 kmh ESE 9.4 mph15.1 kmh 30.09 in1019.0 mb 0.00 in0.0 mm 0.00 in0.0 mm 0.00 in0.0 mm
11:01 AM 56.8°F13.8°C 50.1°F10.1°C 78% 8.3 mph SE13.4 kmh SE 9.4 mph15.1 kmh 30.10 in1019.3 mb 0.00 in0.0 mm 0.00 in0.0 mm 0.00 in0.0 mm
11:00 AM 56.8°F13.8°C 50.1°F10.1°C 78% 7.8 mph E12.6 kmh E 9.4 mph15.1 kmh 30.10 in1019.3 mb 0.00 in0.0 mm 0.00 in0.0 mm 0.00 in0.0 mm
10:59 AM 56.7°F13.7°C 49.9°F9.9°C 78% 6.3 mph SE10.1 kmh SE 9.4 mph15.1 kmh 30.10 in1019.3 mb 0.00 in0.0 mm 0.00 in0.0 mm 0.00 in0.0 mm
10:58 AM 56.7°F13.7°C 49.9°F9.9°C 78% 4.7 mph ESE7.6 kmh ESE 9.4 mph15.1 kmh 30.10 in1019.3 mb 0.00 in0.0 mm 0.00 in0.0 mm 0.00 in0.0 mm
10:57 AM 56.7°F13.7°C 49.9°F9.9°C 78% 6.3 mph ESE10.1 kmh ESE 9.4 mph15.1 kmh 30.10 in1019.3 mb 0.00 in0.0 mm 0.00 in0.0 mm 0.00 in0.0 mm
10:56 AM 56.7°F13.7°C 49.9°F9.9°C 78% 6.3 mph ESE10.1 kmh ESE 9.4 mph15.1 kmh 30.10 in1019.3 mb 0.00 in0.0 mm 0.00 in0.0 mm 0.00 in0.0 mm
10:55 AM 56.7°F13.7°C 49.9°F9.9°C 78% 7.3 mph ESE11.7 kmh ESE 9.4 mph15.1 kmh 30.10 in1019.3 mb 0.00 in0.0 mm 0.00 in0.0 mm 0.00 in0.0 mm
10:54 AM 56.7°F13.7°C 49.9°F9.9°C 78% 7.3 mph ESE11.7 kmh ESE 9.4 mph15.1 kmh 30.10 in1019.3 mb 0.00 in0.0 mm 0.00 in0.0 mm 0.00 in0.0 mm
10:53 AM 56.7°F13.7°C 50.2°F10.1°C 79% 6.3 mph E10.1 kmh E 9.4 mph15.1 kmh 30.10 in1019.3 mb 0.00 in0.0 mm 0.00 in0.0 mm 0.00 in0.0 mm
10:52 AM 56.5°F13.6°C 50.0°F10.0°C 79% 6.8 mph ESE10.9 kmh ESE 8.9 mph14.3 kmh 30.10 in1019.3 mb 0.00 in0.0 mm 0.00 in0.0 mm 0.00 in0.0 mm
10:51 AM 56.5°F13.6°C 50.0°F10.0°C 79% 6.8 mph SSE10.9 kmh SSE 8.9 mph14.3 kmh 30.10 in1019.3 mb 0.00 in0.0 mm 0.00 in0.0 mm 0.00 in0.0 mm
10:50 AM 56.5°F13.6°C 50.0°F10.0°C 79% 6.8 mph SSE10.9 kmh SSE 8.9 mph14.3 kmh 30.10 in1019.3 mb 0.00 in0.0 mm 0.00 in0.0 mm 0.00 in0.0 mm
10:49 AM 56.5°F13.6°C 50.0°F10.0°C 79% 5.3 mph ESE8.5 kmh ESE 8.9 mph14.3 kmh 30.09 in1019.0 mb 0.00 in0.0 mm 0.00 in0.0 mm 0.00 in0.0 mm
10:48 AM 56.5°F13.6°C 50.0°F10.0°C 79% 8.9 mph SE14.3 kmh SE 8.9 mph14.3 kmh 30.09 in1019.0 mb 0.00 in0.0 mm 0.00 in0.0 mm 0.00 in0.0 mm
10:47 AM 56.5°F13.6°C 50.0°F10.0°C 79% 6.3 mph SE10.1 kmh SE 7.3 mph11.7 kmh 30.09 in1019.0 mb 0.00 in0.0 mm 0.00 in0.0 mm 0.00 in0.0 mm
10:46 AM 56.5°F13.6°C 50.0°F10.0°C 79% 4.7 mph ESE7.6 kmh ESE 7.3 mph11.7 kmh 30.09 in1019.0 mb 0.00 in0.0 mm 0.00 in0.0 mm 0.00 in0.0 mm
10:45 AM 56.5°F13.6°C 50.0°F10.0°C 79% 5.8 mph E9.3 kmh E 7.3 mph11.7 kmh 30.09 in1019.0 mb 0.00 in0.0 mm 0.00 in0.0 mm 0.00 in0.0 mm
10:44 AM 56.5°F13.6°C 50.0°F10.0°C 79% 5.8 mph SSE9.3 kmh SSE 8.9 mph14.3 kmh 30.09 in1019.0 mb 0.00 in0.0 mm 0.00 in0.0 mm 0.00 in0.0 mm
10:43 AM 56.5°F13.6°C 50.0°F10.0°C 79% 4.7 mph SW7.6 kmh SW 8.9 mph14.3 kmh 30.09 in1019.0 mb 0.00 in0.0 mm 0.00 in0.0 mm 0.00 in0.0 mm
10:42 AM 56.3°F13.5°C 49.9°F9.9°C 79% 3.2 mph ESE5.1 kmh ESE 9.4 mph15.1 kmh 30.09 in1019.0 mb 0.00 in0.0 mm 0.00 in0.0 mm 0.00 in0.0 mm
10:41 AM 56.1°F13.4°C 49.7°F9.8°C 79% 4.2 mph ESE6.8 kmh ESE 9.9 mph15.9 kmh 30.09 in1019.0 mb 0.00 in0.0 mm 0.00 in0.0 mm 0.00 in0.0 mm
10:40 AM 56.1°F13.4°C 49.7°F9.8°C 79% 4.7 mph SE7.6 kmh SE 9.9 mph15.9 kmh 30.09 in1019.0 mb 0.00 in0.0 mm 0.00 in0.0 mm 0.00 in0.0 mm
10:39 AM 56.1°F13.4°C 49.7°F9.8°C 79% 7.3 mph SSE11.7 kmh SSE 9.9 mph15.9 kmh 30.09 in1019.0 mb 0.00 in0.0 mm 0.00 in0.0 mm 0.00 in0.0 mm
10:38 AM 56.1°F13.4°C 49.7°F9.8°C 79% 5.8 mph SSE9.3 kmh SSE 9.9 mph15.9 kmh 30.09 in1019.0 mb 0.00 in0.0 mm 0.00 in0.0 mm 0.00 in0.0 mm
10:37 AM 56.1°F13.4°C 49.7°F9.8°C 79% 5.8 mph SE9.3 kmh SE 9.9 mph15.9 kmh 30.09 in1019.0 mb 0.00 in0.0 mm 0.00 in0.0 mm 0.00 in0.0 mm
10:36 AM 56.3°F13.5°C 49.9°F9.9°C 79% 6.8 mph ESE10.9 kmh ESE 9.9 mph15.9 kmh 30.09 in1019.0 mb 0.00 in0.0 mm 0.00 in0.0 mm 0.00 in0.0 mm
10:35 AM 56.3°F13.5°C 49.9°F9.9°C 79% 6.8 mph ESE10.9 kmh ESE 9.9 mph15.9 kmh 30.09 in1019.0 mb 0.00 in0.0 mm 0.00 in0.0 mm 0.00 in0.0 mm
10:34 AM 56.3°F13.5°C 49.9°F9.9°C 79% 5.8 mph S9.3 kmh S 9.9 mph15.9 kmh 30.09 in1019.0 mb 0.00 in0.0 mm 0.00 in0.0 mm 0.00 in0.0 mm
10:33 AM 56.3°F13.5°C 49.9°F9.9°C 79% 5.8 mph ESE9.3 kmh ESE 9.9 mph15.9 kmh 30.09 in1019.0 mb 0.00 in0.0 mm 0.00 in0.0 mm 0.00 in0.0 mm
10:32 AM 56.3°F13.5°C 49.9°F9.9°C 79% 9.4 mph ESE15.1 kmh ESE 9.9 mph15.9 kmh 30.09 in1019.0 mb 0.00 in0.0 mm 0.00 in0.0 mm 0.00 in0.0 mm
10:31 AM 56.3°F13.5°C 49.9°F9.9°C 79% 9.9 mph ESE15.9 kmh ESE 9.9 mph15.9 kmh 30.09 in1019.0 mb 0.00 in0.0 mm 0.00 in0.0 mm 0.00 in0.0 mm
10:30 AM 56.3°F13.5°C 49.9°F9.9°C 79% 9.9 mph SSE15.9 kmh SSE 9.9 mph15.9 kmh 30.09 in1019.0 mb 0.00 in0.0 mm 0.00 in0.0 mm 0.00 in0.0 mm
10:29 AM 56.3°F13.5°C 50.2°F10.1°C 80% 7.3 mph SE11.7 kmh SE 7.8 mph12.6 kmh 30.09 in1019.0 mb 0.00 in0.0 mm 0.00 in0.0 mm 0.00 in0.0 mm
10:28 AM 56.3°F13.5°C 50.2°F10.1°C 80% 5.3 mph ESE8.5 kmh ESE 7.8 mph12.6 kmh 30.09 in1019.0 mb 0.00 in0.0 mm 0.00 in0.0 mm 0.00 in0.0 mm
10:27 AM 56.3°F13.5°C 50.2°F10.1°C 80% 5.8 mph ESE9.3 kmh ESE 7.8 mph12.6 kmh 30.09 in1019.0 mb 0.00 in0.0 mm 0.00 in0.0 mm 0.00 in0.0 mm
10:26 AM 56.3°F13.5°C 50.2°F10.1°C 80% 5.3 mph ESE8.5 kmh ESE 7.3 mph11.7 kmh 30.09 in1019.0 mb 0.00 in0.0 mm 0.00 in0.0 mm 0.00 in0.0 mm
10:25 AM 56.3°F13.5°C 50.2°F10.1°C 80% 6.8 mph SE10.9 kmh SE 7.3 mph11.7 kmh 30.09 in1019.0 mb 0.00 in0.0 mm 0.00 in0.0 mm 0.00 in0.0 mm
10:24 AM 56.3°F13.5°C 50.2°F10.1°C 80% 6.3 mph ESE10.1 kmh ESE 7.3 mph11.7 kmh 30.09 in1019.0 mb 0.00 in0.0 mm 0.00 in0.0 mm 0.00 in0.0 mm
10:23 AM 56.1°F13.4°C 50.0°F10.0°C 80% 2.7 mph SE4.3 kmh SE 7.3 mph11.7 kmh 30.09 in1019.0 mb 0.00 in0.0 mm 0.00 in0.0 mm 0.00 in0.0 mm
10:22 AM 56.1°F13.4°C 50.4°F10.2°C 81% 6.8 mph SSE10.9 kmh SSE 7.3 mph11.7 kmh 30.09 in1019.0 mb 0.00 in0.0 mm 0.00 in0.0 mm 0.00 in0.0 mm
10:21 AM 56.1°F13.4°C 50.4°F10.2°C 81% 5.8 mph S9.3 kmh S 7.3 mph11.7 kmh 30.09 in1019.0 mb 0.00 in0.0 mm 0.00 in0.0 mm 0.00 in0.0 mm
10:20 AM 55.9°F13.3°C 50.2°F10.1°C 81% 3.7 mph SSE6.0 kmh SSE 6.8 mph10.9 kmh 30.09 in1019.0 mb 0.00 in0.0 mm 0.00 in0.0 mm 0.00 in0.0 mm
10:19 AM 55.8°F13.2°C 50.0°F10.0°C 81% 4.2 mph SE6.8 kmh SE 6.8 mph10.9 kmh 30.09 in1019.0 mb 0.00 in0.0 mm 0.00 in0.0 mm 0.00 in0.0 mm
10:18 AM 55.8°F13.2°C 50.3°F10.2°C 82% 3.7 mph ESE6.0 kmh ESE 6.8 mph10.9 kmh 30.09 in1019.0 mb 0.00 in0.0 mm 0.00 in0.0 mm 0.00 in0.0 mm
10:17 AM 55.6°F13.1°C 50.2°F10.1°C 82% 6.3 mph SSE10.1 kmh SSE 6.3 mph10.1 kmh 30.09 in1019.0 mb 0.00 in0.0 mm 0.00 in0.0 mm 0.00 in0.0 mm
10:16 AM 55.6°F13.1°C 50.2°F10.1°C 82% 6.3 mph SE10.1 kmh SE 6.8 mph10.9 kmh 30.09 in1019.0 mb 0.00 in0.0 mm 0.00 in0.0 mm 0.00 in0.0 mm
10:15 AM 55.4°F13.0°C 50.3°F10.2°C 83% 3.7 mph ESE6.0 kmh ESE 6.8 mph10.9 kmh 30.09 in1019.0 mb 0.00 in0.0 mm 0.00 in0.0 mm 0.00 in0.0 mm
10:14 AM 55.2°F12.9°C 50.1°F10.1°C 83% 4.7 mph SSE7.6 kmh SSE 6.8 mph10.9 kmh 30.09 in1019.0 mb 0.00 in0.0 mm 0.00 in0.0 mm 0.00 in0.0 mm
10:13 AM 55.2°F12.9°C 50.1°F10.1°C 83% 3.7 mph ESE6.0 kmh ESE 6.8 mph10.9 kmh 30.09 in1019.0 mb 0.00 in0.0 mm 0.00 in0.0 mm 0.00 in0.0 mm
10:12 AM 55.0°F12.8°C 50.0°F10.0°C 83% 3.2 mph ESE5.1 kmh ESE 6.8 mph10.9 kmh 30.10 in1019.3 mb 0.00 in0.0 mm 0.00 in0.0 mm 0.00 in0.0 mm
10:11 AM 55.0°F12.8°C 50.0°F10.0°C 83% 3.7 mph S6.0 kmh S 6.8 mph10.9 kmh 30.10 in1019.3 mb 0.00 in0.0 mm 0.00 in0.0 mm 0.00 in0.0 mm
10:10 AM 54.9°F12.7°C 50.1°F10.1°C 84% 3.7 mph ESE6.0 kmh ESE 6.8 mph10.9 kmh 30.10 in1019.3 mb 0.00 in0.0 mm 0.00 in0.0 mm 0.00 in0.0 mm
10:09 AM 54.7°F12.6°C 49.9°F9.9°C 84% 4.2 mph SE6.8 kmh SE 6.8 mph10.9 kmh 30.10 in1019.3 mb 0.00 in0.0 mm 0.00 in0.0 mm 0.00 in0.0 mm
10:08 AM 54.7°F12.6°C 49.9°F9.9°C 84% 3.7 mph ESE6.0 kmh ESE 7.3 mph11.7 kmh 30.10 in1019.3 mb 0.00 in0.0 mm 0.00 in0.0 mm 0.00 in0.0 mm
10:07 AM 54.5°F12.5°C 49.8°F9.9°C 84% 4.7 mph SSE7.6 kmh SSE 7.3 mph11.7 kmh 30.10 in1019.3 mb 0.00 in0.0 mm 0.00 in0.0 mm 0.00 in0.0 mm
10:06 AM 54.5°F12.5°C 49.8°F9.9°C 84% 6.3 mph ESE10.1 kmh ESE 7.3 mph11.7 kmh 30.10 in1019.3 mb 0.00 in0.0 mm 0.00 in0.0 mm 0.00 in0.0 mm
10:05 AM 54.5°F12.5°C 49.8°F9.9°C 84% 3.7 mph ESE6.0 kmh ESE 7.3 mph11.7 kmh 30.10 in1019.3 mb 0.00 in0.0 mm 0.00 in0.0 mm 0.00 in0.0 mm
10:04 AM 54.3°F12.4°C 49.6°F9.8°C 84% 4.2 mph SSE6.8 kmh SSE 8.9 mph14.3 kmh 30.10 in1019.3 mb 0.00 in0.0 mm 0.00 in0.0 mm 0.00 in0.0 mm
10:03 AM 54.3°F12.4°C 49.6°F9.8°C 84% 6.3 mph SE10.1 kmh SE 8.9 mph14.3 kmh 30.10 in1019.3 mb 0.00 in0.0 mm 0.00 in0.0 mm 0.00 in0.0 mm
10:02 AM 54.3°F12.4°C 49.6°F9.8°C 84% 5.8 mph SSE9.3 kmh SSE 8.9 mph14.3 kmh 30.10 in1019.3 mb 0.00 in0.0 mm 0.00 in0.0 mm 0.00 in0.0 mm
10:01 AM 54.3°F12.4°C 49.6°F9.8°C 84% 6.3 mph SE10.1 kmh SE 8.9 mph14.3 kmh 30.10 in1019.3 mb 0.00 in0.0 mm 0.00 in0.0 mm 0.00 in0.0 mm
10:00 AM 54.3°F12.4°C 49.6°F9.8°C 84% 4.2 mph SSE6.8 kmh SSE 8.9 mph14.3 kmh 30.11 in1019.6 mb 0.00 in0.0 mm 0.00 in0.0 mm 0.00 in0.0 mm
09:59 AM 54.3°F12.4°C 49.6°F9.8°C 84% 5.3 mph ESE8.5 kmh ESE 8.9 mph14.3 kmh 30.11 in1019.6 mb 0.00 in0.0 mm 0.00 in0.0 mm 0.00 in0.0 mm
09:58 AM 54.3°F12.4°C 49.6°F9.8°C 84% 4.2 mph ESE6.8 kmh ESE 8.9 mph14.3 kmh 30.11 in1019.6 mb 0.00 in0.0 mm 0.00 in0.0 mm 0.00 in0.0 mm
09:57 AM 54.5°F12.5°C 49.4°F9.7°C 83% 5.3 mph ESE8.5 kmh ESE 8.9 mph14.3 kmh 30.11 in1019.6 mb 0.00 in0.0 mm 0.00 in0.0 mm 0.00 in0.0 mm
09:56 AM 54.5°F12.5°C 49.4°F9.7°C 83% 7.3 mph ESE11.7 kmh ESE 8.9 mph14.3 kmh 30.11 in1019.6 mb 0.00 in0.0 mm 0.00 in0.0 mm 0.00 in0.0 mm
09:55 AM 54.7°F12.6°C 49.6°F9.8°C 83% 6.8 mph SSE10.9 kmh SSE 8.9 mph14.3 kmh 30.11 in1019.6 mb 0.00 in0.0 mm 0.00 in0.0 mm 0.00 in0.0 mm
09:54 AM 54.9°F12.7°C 49.8°F9.9°C 83% 7.8 mph ESE12.6 kmh ESE 7.8 mph12.6 kmh 30.11 in1019.6 mb 0.00 in0.0 mm 0.00 in0.0 mm 0.00 in0.0 mm
09:53 AM 54.9°F12.7°C 49.8°F9.9°C 83% 5.8 mph ESE9.3 kmh ESE 7.8 mph12.6 kmh 30.11 in1019.6 mb 0.00 in0.0 mm 0.00 in0.0 mm 0.00 in0.0 mm
09:52 AM 54.9°F12.7°C 49.8°F9.9°C 83% 5.3 mph SSE8.5 kmh SSE 7.8 mph12.6 kmh 30.11 in1019.6 mb 0.00 in0.0 mm 0.00 in0.0 mm 0.00 in0.0 mm
09:51 AM 54.9°F12.7°C 49.8°F9.9°C 83% 5.8 mph SE9.3 kmh SE 7.8 mph12.6 kmh 30.11 in1019.6 mb 0.00 in0.0 mm 0.00 in0.0 mm 0.00 in0.0 mm
09:50 AM 55.0°F12.8°C 50.0°F10.0°C 83% 6.3 mph SE10.1 kmh SE 7.8 mph12.6 kmh 30.11 in1019.6 mb 0.00 in0.0 mm 0.00 in0.0 mm 0.00 in0.0 mm
09:49 AM 55.0°F12.8°C 50.0°F10.0°C 83% 6.3 mph SE10.1 kmh SE 7.8 mph12.6 kmh 30.11 in1019.6 mb 0.00 in0.0 mm 0.00 in0.0 mm 0.00 in0.0 mm
09:48 AM 55.0°F12.8°C 50.0°F10.0°C 83% 6.8 mph ESE10.9 kmh ESE 6.8 mph10.9 kmh 30.12 in1020.0 mb 0.00 in0.0 mm 0.00 in0.0 mm 0.00 in0.0 mm
09:47 AM 55.0°F12.8°C 50.0°F10.0°C 83% 5.8 mph SSE9.3 kmh SSE 6.8 mph10.9 kmh 30.12 in1020.0 mb 0.00 in0.0 mm 0.00 in0.0 mm 0.00 in0.0 mm
09:46 AM 54.9°F12.7°C 49.8°F9.9°C 83% 4.7 mph ENE7.6 kmh ENE 6.8 mph10.9 kmh 30.12 in1020.0 mb 0.00 in0.0 mm 0.00 in0.0 mm 0.00 in0.0 mm
09:45 AM 54.9°F12.7°C 49.8°F9.9°C 83% 6.3 mph SSE10.1 kmh SSE 6.3 mph10.1 kmh 30.12 in1020.0 mb 0.00 in0.0 mm 0.00 in0.0 mm 0.00 in0.0 mm
09:44 AM 54.5°F12.5°C 49.8°F9.9°C 84% 4.7 mph ESE7.6 kmh ESE 5.8 mph9.3 kmh 30.12 in1020.0 mb 0.00 in0.0 mm 0.00 in0.0 mm 0.00 in0.0 mm
09:43 AM 54.5°F12.5°C 49.8°F9.9°C 84% 4.7 mph S7.6 kmh S 5.8 mph9.3 kmh 30.12 in1020.0 mb 0.00 in0.0 mm 0.00 in0.0 mm 0.00 in0.0 mm
09:42 AM 54.1°F12.3°C 49.7°F9.8°C 85% 3.7 mph ESE6.0 kmh ESE 5.8 mph9.3 kmh 30.12 in1020.0 mb 0.00 in0.0 mm 0.00 in0.0 mm 0.00 in0.0 mm
09:41 AM 54.0°F12.2°C 49.6°F9.8°C 85% 2.7 mph SSE4.3 kmh SSE 5.8 mph9.3 kmh 30.12 in1020.0 mb 0.00 in0.0 mm 0.00 in0.0 mm 0.00 in0.0 mm
09:40 AM 53.6°F12.0°C 49.2°F9.6°C 85% 4.7 mph SE7.6 kmh SE 5.8 mph9.3 kmh 30.12 in1020.0 mb 0.00 in0.0 mm 0.00 in0.0 mm 0.00 in0.0 mm
09:39 AM 53.6°F12.0°C 49.2°F9.6°C 85% 5.3 mph SSW8.5 kmh SSW 5.8 mph9.3 kmh 30.12 in1020.0 mb 0.00 in0.0 mm 0.00 in0.0 mm 0.00 in0.0 mm
09:38 AM 53.6°F12.0°C 49.2°F9.6°C 85% 3.2 mph ESE5.1 kmh ESE 5.8 mph9.3 kmh 30.12 in1020.0 mb 0.00 in0.0 mm 0.00 in0.0 mm 0.00 in0.0 mm
09:37 AM 53.2°F11.8°C 48.8°F9.3°C 85% 4.2 mph SSE6.8 kmh SSE 5.8 mph9.3 kmh 30.12 in1020.0 mb 0.00 in0.0 mm 0.00 in0.0 mm 0.00 in0.0 mm
09:36 AM 53.2°F11.8°C 48.8°F9.3°C 85% 5.3 mph SE8.5 kmh SE 5.8 mph9.3 kmh 30.11 in1019.6 mb 0.00 in0.0 mm 0.00 in0.0 mm 0.00 in0.0 mm
09:35 AM 52.9°F11.6°C 48.8°F9.3°C 86% 4.2 mph SSE6.8 kmh SSE 5.8 mph9.3 kmh 30.11 in1019.6 mb 0.00 in0.0 mm 0.00 in0.0 mm 0.00 in0.0 mm
09:34 AM 52.5°F11.4°C 48.8°F9.3°C 87% 4.2 mph S6.8 kmh S 5.8 mph9.3 kmh 30.11 in1019.6 mb 0.00 in0.0 mm 0.00 in0.0 mm 0.00 in0.0 mm
09:33 AM 52.3°F11.3°C 48.6°F9.2°C 87% 3.7 mph S6.0 kmh S 5.8 mph9.3 kmh 30.11 in1019.6 mb 0.00 in0.0 mm 0.00 in0.0 mm 0.00 in0.0 mm
09:32 AM 52.2°F11.2°C 48.4°F9.1°C 87% 5.3 mph SSE8.5 kmh SSE 5.8 mph9.3 kmh 30.11 in1019.6 mb 0.00 in0.0 mm 0.00 in0.0 mm 0.00 in0.0 mm
09:31 AM 52.2°F11.2°C 48.4°F9.1°C 87% 4.7 mph SSE7.6 kmh SSE 5.8 mph9.3 kmh 30.11 in1019.6 mb 0.00 in0.0 mm 0.00 in0.0 mm 0.00 in0.0 mm
09:30 AM 51.8°F11.0°C 48.1°F8.9°C 87% 5.3 mph S8.5 kmh S 6.8 mph10.9 kmh 30.11 in1019.6 mb 0.00 in0.0 mm 0.00 in0.0 mm 0.00 in0.0 mm
09:29 AM 51.6°F10.9°C 48.2°F9.0°C 88% 4.2 mph S6.8 kmh S 6.8 mph10.9 kmh 30.11 in1019.6 mb 0.00 in0.0 mm 0.00 in0.0 mm 0.00 in0.0 mm
09:28 AM 51.4°F10.8°C 48.0°F8.9°C 88% 2.2 mph SE3.5 kmh SE 6.8 mph10.9 kmh 30.11 in1019.6 mb 0.00 in0.0 mm 0.00 in0.0 mm 0.00 in0.0 mm
09:27 AM 51.3°F10.7°C 47.8°F8.8°C 88% 4.7 mph SSE7.6 kmh SSE 6.8 mph10.9 kmh 30.11 in1019.6 mb 0.00 in0.0 mm 0.00 in0.0 mm 0.00 in0.0 mm
09:26 AM 51.3°F10.7°C 47.8°F8.8°C 88% 4.2 mph SSE6.8 kmh SSE 6.8 mph10.9 kmh 30.11 in1019.6 mb 0.00 in0.0 mm 0.00 in0.0 mm 0.00 in0.0 mm
09:25 AM 51.1°F10.6°C 47.7°F8.7°C 88% 2.7 mph ESE4.3 kmh ESE 6.8 mph10.9 kmh 30.11 in1019.6 mb 0.00 in0.0 mm 0.00 in0.0 mm 0.00 in0.0 mm
09:24 AM 50.9°F10.5°C 47.8°F8.8°C 89% 3.2 mph ESE5.1 kmh ESE 7.3 mph11.7 kmh 30.11 in1019.6 mb 0.00 in0.0 mm 0.00 in0.0 mm 0.00 in0.0 mm
09:23 AM 50.9°F10.5°C 47.8°F8.8°C 89% 5.8 mph SE9.3 kmh SE 7.3 mph11.7 kmh 30.11 in1019.6 mb 0.00 in0.0 mm 0.00 in0.0 mm 0.00 in0.0 mm
09:22 AM 50.7°F10.4°C 47.6°F8.7°C 89% 5.3 mph SE8.5 kmh SE 7.3 mph11.7 kmh 30.11 in1019.6 mb 0.00 in0.0 mm 0.00 in0.0 mm 0.00 in0.0 mm
09:21 AM 50.7°F10.4°C 47.6°F8.7°C 89% 3.7 mph ESE6.0 kmh ESE 7.3 mph11.7 kmh 30.11 in1019.6 mb 0.00 in0.0 mm 0.00 in0.0 mm 0.00 in0.0 mm
09:20 AM 50.5°F10.3°C 47.4°F8.6°C 89% 3.7 mph ESE6.0 kmh ESE 7.3 mph11.7 kmh 30.11 in1019.6 mb 0.00 in0.0 mm 0.00 in0.0 mm 0.00 in0.0 mm
09:19 AM 50.4°F10.2°C 47.2°F8.4°C 89% 2.7 mph SSE4.3 kmh SSE 7.3 mph11.7 kmh 30.11 in1019.6 mb 0.00 in0.0 mm 0.00 in0.0 mm 0.00 in0.0 mm
09:18 AM 50.4°F10.2°C 47.2°F8.4°C 89% 4.2 mph ESE6.8 kmh ESE 7.3 mph11.7 kmh 30.11 in1019.6 mb 0.00 in0.0 mm 0.00 in0.0 mm 0.00 in0.0 mm
09:17 AM 50.2°F10.1°C 47.1°F8.4°C 89% 2.2 mph SE3.5 kmh SE 7.3 mph11.7 kmh 30.11 in1019.6 mb 0.00 in0.0 mm 0.00 in0.0 mm 0.00 in0.0 mm
09:16 AM 50.2°F10.1°C 47.1°F8.4°C 89% 3.2 mph E5.1 kmh E 7.3 mph11.7 kmh 30.11 in1019.6 mb 0.00 in0.0 mm 0.00 in0.0 mm 0.00 in0.0 mm
09:15 AM 50.2°F10.1°C 47.1°F8.4°C 89% 3.2 mph S5.1 kmh S 7.3 mph11.7 kmh 30.11 in1019.6 mb 0.00 in0.0 mm 0.00 in0.0 mm 0.00 in0.0 mm
09:14 AM 50.0°F10.0°C 46.9°F8.3°C 89% 5.8 mph SSE9.3 kmh SSE 6.3 mph10.1 kmh 30.11 in1019.6 mb 0.00 in0.0 mm 0.00 in0.0 mm 0.00 in0.0 mm
09:13 AM 50.0°F10.0°C 46.9°F8.3°C 89% 3.2 mph SSE5.1 kmh SSE 6.3 mph10.1 kmh 30.10 in1019.3 mb 0.00 in0.0 mm 0.00 in0.0 mm 0.00 in0.0 mm
09:12 AM 50.0°F10.0°C 46.9°F8.3°C 89% 4.2 mph SE6.8 kmh SE 6.3 mph10.1 kmh 30.10 in1019.3 mb 0.00 in0.0 mm 0.00 in0.0 mm 0.00 in0.0 mm
09:11 AM 49.8°F9.9°C 46.7°F8.2°C 89% 3.2 mph SSE5.1 kmh SSE 5.8 mph9.3 kmh 30.10 in1019.3 mb 0.00 in0.0 mm 0.00 in0.0 mm 0.00 in0.0 mm
09:10 AM 49.8°F9.9°C 46.7°F8.2°C 89% 4.7 mph SSE7.6 kmh SSE 5.8 mph9.3 kmh 30.10 in1019.3 mb 0.00 in0.0 mm 0.00 in0.0 mm 0.00 in0.0 mm
09:09 AM 49.6°F9.8°C 46.5°F8.1°C 89% 3.7 mph SSE6.0 kmh SSE 5.8 mph9.3 kmh 30.10 in1019.3 mb 0.00 in0.0 mm 0.00 in0.0 mm 0.00 in0.0 mm
09:08 AM 49.5°F9.7°C 46.4°F8.0°C 89% 3.2 mph SE5.1 kmh SE 5.8 mph9.3 kmh 30.10 in1019.3 mb 0.00 in0.0 mm 0.00 in0.0 mm 0.00 in0.0 mm
09:07 AM 49.5°F9.7°C 46.4°F8.0°C 89% 3.2 mph SE5.1 kmh SE 5.8 mph9.3 kmh 30.10 in1019.3 mb 0.00 in0.0 mm 0.00 in0.0 mm 0.00 in0.0 mm
09:06 AM 49.5°F9.7°C 46.4°F8.0°C 89% 3.7 mph SE6.0 kmh SE 5.8 mph9.3 kmh 30.10 in1019.3 mb 0.00 in0.0 mm 0.00 in0.0 mm 0.00 in0.0 mm
09:05 AM 49.3°F9.6°C 46.2°F7.9°C 89% 3.7 mph SSE6.0 kmh SSE 5.8 mph9.3 kmh 30.10 in1019.3 mb 0.00 in0.0 mm 0.00 in0.0 mm 0.00 in0.0 mm
09:04 AM 49.3°F9.6°C 46.2°F7.9°C 89% 3.2 mph S5.1 kmh S 6.8 mph10.9 kmh 30.10 in1019.3 mb 0.00 in0.0 mm 0.00 in0.0 mm 0.00 in0.0 mm
09:03 AM 49.3°F9.6°C 46.2°F7.9°C 89% 5.3 mph SSE8.5 kmh SSE 6.8 mph10.9 kmh 30.10 in1019.3 mb 0.00 in0.0 mm 0.00 in0.0 mm 0.00 in0.0 mm
09:02 AM 49.3°F9.6°C 46.2°F7.9°C 89% 5.3 mph SSE8.5 kmh SSE 6.8 mph10.9 kmh 30.10 in1019.3 mb 0.00 in0.0 mm 0.00 in0.0 mm 0.00 in0.0 mm
09:01 AM 49.3°F9.6°C 46.2°F7.9°C 89% 3.7 mph ESE6.0 kmh ESE 6.8 mph10.9 kmh 30.10 in1019.3 mb 0.00 in0.0 mm 0.00 in0.0 mm 0.00 in0.0 mm
09:00 AM 49.3°F9.6°C 46.2°F7.9°C 89% 4.7 mph SE7.6 kmh SE 6.8 mph10.9 kmh 30.10 in1019.3 mb 0.00 in0.0 mm 0.00 in0.0 mm 0.00 in0.0 mm
08:59 AM 49.3°F9.6°C 46.2°F7.9°C 89% 4.2 mph ESE6.8 kmh ESE 6.8 mph10.9 kmh 30.10 in1019.3 mb 0.00 in0.0 mm 0.00 in0.0 mm 0.00 in0.0 mm
08:58 AM 49.3°F9.6°C 46.2°F7.9°C 89% 3.2 mph SE5.1 kmh SE 6.8 mph10.9 kmh 30.10 in1019.3 mb 0.00 in0.0 mm 0.00 in0.0 mm 0.00 in0.0 mm
08:57 AM 49.3°F9.6°C 45.9°F7.7°C 88% 4.2 mph SSE6.8 kmh SSE 6.8 mph10.9 kmh 30.10 in1019.3 mb 0.00 in0.0 mm 0.00 in0.0 mm 0.00 in0.0 mm
08:56 AM 49.5°F9.7°C 46.1°F7.8°C 88% 3.2 mph ESE5.1 kmh ESE 6.8 mph10.9 kmh 30.10 in1019.3 mb 0.00 in0.0 mm 0.00 in0.0 mm 0.00 in0.0 mm
08:55 AM 49.5°F9.7°C 46.1°F7.8°C 88% 5.8 mph SSE9.3 kmh SSE 6.8 mph10.9 kmh 30.10 in1019.3 mb 0.00 in0.0 mm 0.00 in0.0 mm 0.00 in0.0 mm
08:54 AM 49.3°F9.6°C 46.2°F7.9°C 89% 6.8 mph SSE10.9 kmh SSE 6.8 mph10.9 kmh 30.10 in1019.3 mb 0.00 in0.0 mm 0.00 in0.0 mm 0.00 in0.0 mm
08:53 AM 49.3°F9.6°C 46.2°F7.9°C 89% 3.2 mph SE5.1 kmh SE 6.3 mph10.1 kmh 30.10 in1019.3 mb 0.00 in0.0 mm 0.00 in0.0 mm 0.00 in0.0 mm
08:52 AM 48.7°F9.3°C 45.6°F7.6°C 89% 2.7 mph SSE4.3 kmh SSE 6.3 mph10.1 kmh 30.10 in1019.3 mb 0.00 in0.0 mm 0.00 in0.0 mm 0.00 in0.0 mm
08:51 AM 48.6°F9.2°C 45.8°F7.7°C 90% 5.3 mph SE8.5 kmh SE 6.3 mph10.1 kmh 30.10 in1019.3 mb 0.00 in0.0 mm 0.00 in0.0 mm 0.00 in0.0 mm
08:50 AM 48.2°F9.0°C 45.4°F7.4°C 90% 3.7 mph SSW6.0 kmh SSW 6.3 mph10.1 kmh 30.10 in1019.3 mb 0.00 in0.0 mm 0.00 in0.0 mm 0.00 in0.0 mm
08:49 AM 47.8°F8.8°C 45.1°F7.3°C 90% 3.2 mph ESE5.1 kmh ESE 6.3 mph10.1 kmh 30.11 in1019.6 mb 0.00 in0.0 mm 0.00 in0.0 mm 0.00 in0.0 mm
08:48 AM 47.7°F8.7°C 44.9°F7.2°C 90% 5.8 mph ESE9.3 kmh ESE 6.3 mph10.1 kmh 30.11 in1019.6 mb 0.00 in0.0 mm 0.00 in0.0 mm 0.00 in0.0 mm
08:47 AM 47.5°F8.6°C 45.0°F7.2°C 91% 4.7 mph SE7.6 kmh SE 5.8 mph9.3 kmh 30.11 in1019.6 mb 0.00 in0.0 mm 0.00 in0.0 mm 0.00 in0.0 mm
08:46 AM 47.5°F8.6°C 45.0°F7.2°C 91% 4.2 mph E6.8 kmh E 7.3 mph11.7 kmh 30.11 in1019.6 mb 0.00 in0.0 mm 0.00 in0.0 mm 0.00 in0.0 mm
08:45 AM 47.3°F8.5°C 44.8°F7.1°C 91% 3.7 mph ESE6.0 kmh ESE 7.3 mph11.7 kmh 30.11 in1019.6 mb 0.00 in0.0 mm 0.00 in0.0 mm 0.00 in0.0 mm
08:44 AM 47.3°F8.5°C 44.8°F7.1°C 91% 3.7 mph SSE6.0 kmh SSE 7.3 mph11.7 kmh 30.11 in1019.6 mb 0.00 in0.0 mm 0.00 in0.0 mm 0.00 in0.0 mm
08:43 AM 47.1°F8.4°C 44.6°F7.0°C 91% 2.7 mph ESE4.3 kmh ESE 7.3 mph11.7 kmh 30.11 in1019.6 mb 0.00 in0.0 mm 0.00 in0.0 mm 0.00 in0.0 mm
08:42 AM 47.1°F8.4°C 44.6°F7.0°C 91% 2.7 mph ESE4.3 kmh ESE 7.3 mph11.7 kmh 30.11 in1019.6 mb 0.00 in0.0 mm 0.00 in0.0 mm 0.00 in0.0 mm
08:41 AM 46.9°F8.3°C 44.5°F6.9°C 91% 4.2 mph SSE6.8 kmh SSE 7.8 mph12.6 kmh 30.11 in1019.6 mb 0.00 in0.0 mm 0.00 in0.0 mm 0.00 in0.0 mm
08:40 AM 46.9°F8.3°C 44.5°F6.9°C 91% 2.7 mph SE4.3 kmh SE 7.8 mph12.6 kmh 30.11 in1019.6 mb 0.00 in0.0 mm 0.00 in0.0 mm 0.00 in0.0 mm
08:39 AM 46.8°F8.2°C 44.3°F6.8°C 91% 3.2 mph SSE5.1 kmh SSE 7.8 mph12.6 kmh 30.11 in1019.6 mb 0.00 in0.0 mm 0.00 in0.0 mm 0.00 in0.0 mm
08:38 AM 46.8°F8.2°C 44.3°F6.8°C 91% 4.7 mph ESE7.6 kmh ESE 7.8 mph12.6 kmh 30.11 in1019.6 mb 0.00 in0.0 mm 0.00 in0.0 mm 0.00 in0.0 mm
08:37 AM 46.8°F8.2°C 44.6°F7.0°C 92% 4.7 mph SSE7.6 kmh SSE 7.8 mph12.6 kmh 30.11 in1019.6 mb 0.00 in0.0 mm 0.00 in0.0 mm 0.00 in0.0 mm
08:36 AM 46.6°F8.1°C 44.4°F6.9°C 92% 7.3 mph S11.7 kmh S 7.8 mph12.6 kmh 30.12 in1020.0 mb 0.00 in0.0 mm 0.00 in0.0 mm 0.00 in0.0 mm
08:35 AM 46.4°F8.0°C 44.2°F6.8°C 92% 5.8 mph ESE9.3 kmh ESE 7.8 mph12.6 kmh 30.12 in1020.0 mb 0.00 in0.0 mm 0.00 in0.0 mm 0.00 in0.0 mm
08:34 AM 46.4°F8.0°C 44.2°F6.8°C 92% 3.7 mph ESE6.0 kmh ESE 7.8 mph12.6 kmh 30.12 in1020.0 mb 0.00 in0.0 mm 0.00 in0.0 mm 0.00 in0.0 mm
08:33 AM 46.2°F7.9°C 44.0°F6.7°C 92% 4.2 mph SE6.8 kmh SE 7.8 mph12.6 kmh 30.12 in1020.0 mb 0.00 in0.0 mm 0.00 in0.0 mm 0.00 in0.0 mm
08:32 AM 46.2°F7.9°C 44.0°F6.7°C 92% 7.3 mph E11.7 kmh E 7.8 mph12.6 kmh 30.12 in1020.0 mb 0.00 in0.0 mm 0.00 in0.0 mm 0.00 in0.0 mm
08:31 AM 46.0°F7.8°C 43.8°F6.6°C 92% 5.3 mph SSE8.5 kmh SSE 5.3 mph8.5 kmh 30.12 in1020.0 mb 0.00 in0.0 mm 0.00 in0.0 mm 0.00 in0.0 mm
08:30 AM 45.9°F7.7°C 43.7°F6.5°C 92% 4.7 mph SE7.6 kmh SE 5.3 mph8.5 kmh 30.12 in1020.0 mb 0.00 in0.0 mm 0.00 in0.0 mm 0.00 in0.0 mm
08:29 AM 45.9°F7.7°C 43.7°F6.5°C 92% 3.2 mph SE5.1 kmh SE 4.7 mph7.6 kmh 30.12 in1020.0 mb 0.00 in0.0 mm 0.00 in0.0 mm 0.00 in0.0 mm
08:28 AM 45.9°F7.7°C 43.7°F6.5°C 92% 2.7 mph ESE4.3 kmh ESE 4.7 mph7.6 kmh 30.12 in1020.0 mb 0.00 in0.0 mm 0.00 in0.0 mm 0.00 in0.0 mm
08:27 AM 45.9°F7.7°C 43.7°F6.5°C 92% 3.7 mph SE6.0 kmh SE 4.7 mph7.6 kmh 30.12 in1020.0 mb 0.00 in0.0 mm 0.00 in0.0 mm 0.00 in0.0 mm
08:26 AM 45.7°F7.6°C 43.5°F6.4°C 92% 2.2 mph SSE3.5 kmh SSE 4.7 mph7.6 kmh 30.12 in1020.0 mb 0.00 in0.0 mm 0.00 in0.0 mm 0.00 in0.0 mm
08:25 AM 45.7°F7.6°C 43.5°F6.4°C 92% 3.7 mph SE6.0 kmh SE 4.7 mph7.6 kmh 30.12 in1020.0 mb 0.00 in0.0 mm 0.00 in0.0 mm 0.00 in0.0 mm
08:24 AM 45.7°F7.6°C 43.5°F6.4°C 92% 3.2 mph SSE5.1 kmh SSE 4.7 mph7.6 kmh 30.12 in1020.0 mb 0.00 in0.0 mm 0.00 in0.0 mm 0.00 in0.0 mm
08:23 AM 45.7°F7.6°C 43.5°F6.4°C 92% 2.7 mph S4.3 kmh S 4.7 mph7.6 kmh 30.12 in1020.0 mb 0.00 in0.0 mm 0.00 in0.0 mm 0.00 in0.0 mm
08:22 AM 45.5°F7.5°C 43.3°F6.3°C 92% 3.2 mph ESE5.1 kmh ESE 4.7 mph7.6 kmh 30.12 in1020.0 mb 0.00 in0.0 mm 0.00 in0.0 mm 0.00 in0.0 mm
08:21 AM 45.5°F7.5°C 43.3°F6.3°C 92% 1.7 mph ESE2.7 kmh ESE 4.7 mph7.6 kmh 30.12 in1020.0 mb 0.00 in0.0 mm 0.00 in0.0 mm 0.00 in0.0 mm
08:20 AM 45.5°F7.5°C 43.3°F6.3°C 92% 1.7 mph ESE2.7 kmh ESE 4.7 mph7.6 kmh 30.12 in1020.0 mb 0.00 in0.0 mm 0.00 in0.0 mm 0.00 in0.0 mm
08:19 AM 45.5°F7.5°C 43.3°F6.3°C 92% 3.7 mph SE6.0 kmh SE 4.7 mph7.6 kmh 30.12 in1020.0 mb 0.00 in0.0 mm 0.00 in0.0 mm 0.00 in0.0 mm
08:18 AM 45.5°F7.5°C 43.3°F6.3°C 92% 2.7 mph ESE4.3 kmh ESE 4.7 mph7.6 kmh 30.12 in1020.0 mb 0.00 in0.0 mm 0.00 in0.0 mm 0.00 in0.0 mm
08:17 AM 45.5°F7.5°C 43.3°F6.3°C 92% 4.7 mph SSE7.6 kmh SSE 4.7 mph7.6 kmh 30.12 in1020.0 mb 0.00 in0.0 mm 0.00 in0.0 mm 0.00 in0.0 mm
08:16 AM 45.5°F7.5°C 43.3°F6.3°C 92% 2.7 mph S4.3 kmh S 4.2 mph6.8 kmh 30.12 in1020.0 mb 0.00 in0.0 mm 0.00 in0.0 mm 0.00 in0.0 mm
08:15 AM 45.5°F7.5°C 43.3°F6.3°C 92% 3.7 mph S6.0 kmh S 4.2 mph6.8 kmh 30.12 in1020.0 mb 0.00 in0.0 mm 0.00 in0.0 mm 0.00 in0.0 mm
08:14 AM 45.3°F7.4°C 43.1°F6.2°C 92% 3.2 mph S5.1 kmh S 3.7 mph6.0 kmh 30.12 in1020.0 mb 0.00 in0.0 mm 0.00 in0.0 mm 0.00 in0.0 mm
08:13 AM 45.3°F7.4°C 43.1°F6.2°C 92% 2.7 mph SSW4.3 kmh SSW 3.7 mph6.0 kmh 30.11 in1019.6 mb 0.00 in0.0 mm 0.00 in0.0 mm 0.00 in0.0 mm
08:12 AM 45.3°F7.4°C 43.1°F6.2°C 92% 2.7 mph SSE4.3 kmh SSE 3.2 mph5.1 kmh 30.11 in1019.6 mb 0.00 in0.0 mm 0.00 in0.0 mm 0.00 in0.0 mm
08:11 AM 45.3°F7.4°C 43.1°F6.2°C 92% 3.2 mph S5.1 kmh S 3.2 mph5.1 kmh 30.11 in1019.6 mb 0.00 in0.0 mm 0.00 in0.0 mm 0.00 in0.0 mm
08:10 AM 45.3°F7.4°C 43.1°F6.2°C 92% 3.2 mph SSE5.1 kmh SSE 3.2 mph5.1 kmh 30.11 in1019.6 mb 0.00 in0.0 mm 0.00 in0.0 mm 0.00 in0.0 mm
08:09 AM 45.3°F7.4°C 43.1°F6.2°C 92% 3.2 mph S5.1 kmh S 3.2 mph5.1 kmh 30.11 in1019.6 mb 0.00 in0.0 mm 0.00 in0.0 mm 0.00 in0.0 mm
08:08 AM 45.3°F7.4°C 43.1°F6.2°C 92% 1.7 mph SSW2.7 kmh SSW 3.2 mph5.1 kmh 30.11 in1019.6 mb 0.00 in0.0 mm 0.00 in0.0 mm 0.00 in0.0 mm
08:07 AM 45.3°F7.4°C 43.1°F6.2°C 92% 1.7 mph SSW2.7 kmh SSW 3.2 mph5.1 kmh 30.11 in1019.6 mb 0.00 in0.0 mm 0.00 in0.0 mm 0.00 in0.0 mm
08:06 AM 45.3°F7.4°C 43.1°F6.2°C 92% 1.7 mph SW2.7 kmh SW 3.2 mph5.1 kmh 30.11 in1019.6 mb 0.00 in0.0 mm 0.00 in0.0 mm 0.00 in0.0 mm
08:05 AM 45.3°F7.4°C 43.1°F6.2°C 92% 2.2 mph WSW3.5 kmh WSW 3.2 mph5.1 kmh 30.11 in1019.6 mb 0.00 in0.0 mm 0.00 in0.0 mm 0.00 in0.0 mm
08:04 AM 45.1°F7.3°C 43.0°F6.1°C 92% Calm Calm 3.2 mph5.1 kmh 30.11 in1019.6 mb 0.00 in0.0 mm 0.00 in0.0 mm 0.00 in0.0 mm
08:03 AM 45.1°F7.3°C 43.0°F6.1°C 92% 2.7 mph WSW4.3 kmh WSW 3.2 mph5.1 kmh 30.11 in1019.6 mb 0.00 in0.0 mm 0.00 in0.0 mm 0.00 in0.0 mm
08:02 AM 45.1°F7.3°C 43.0°F6.1°C 92% 1.7 mph WSW2.7 kmh WSW 3.2 mph5.1 kmh 30.11 in1019.6 mb 0.00 in0.0 mm 0.00 in0.0 mm 0.00 in0.0 mm
08:01 AM 45.1°F7.3°C 43.0°F6.1°C 92% Calm Calm 3.2 mph5.1 kmh 30.11 in1019.6 mb 0.00 in0.0 mm 0.00 in0.0 mm 0.00 in0.0 mm
08:00 AM 45.0°F7.2°C 42.8°F6.0°C 92% 1.1 mph SW1.8 kmh SW 3.2 mph5.1 kmh 30.10 in1019.3 mb 0.00 in0.0 mm 0.00 in0.0 mm 0.00 in0.0 mm
07:59 AM 45.0°F7.2°C 42.8°F6.0°C 92% 1.7 mph SW2.7 kmh SW 3.2 mph5.1 kmh 30.10 in1019.3 mb 0.00 in0.0 mm 0.00 in0.0 mm 0.00 in0.0 mm
07:58 AM 45.0°F7.2°C 42.8°F6.0°C 92% 2.7 mph SW4.3 kmh SW 3.2 mph5.1 kmh 30.10 in1019.3 mb 0.00 in0.0 mm 0.00 in0.0 mm 0.00 in0.0 mm
07:57 AM 45.0°F7.2°C 42.8°F6.0°C 92% 1.1 mph SW1.8 kmh SW 3.2 mph5.1 kmh 30.10 in1019.3 mb 0.00 in0.0 mm 0.00 in0.0 mm 0.00 in0.0 mm
07:56 AM 45.0°F7.2°C 42.8°F6.0°C 92% 2.2 mph SSW3.5 kmh SSW 3.2 mph5.1 kmh 30.10 in1019.3 mb 0.00 in0.0 mm 0.00 in0.0 mm 0.00 in0.0 mm
07:55 AM 45.0°F7.2°C 42.8°F6.0°C 92% 1.7 mph S2.7 kmh S 3.2 mph5.1 kmh 30.10 in1019.3 mb 0.00 in0.0 mm 0.00 in0.0 mm 0.00 in0.0 mm
07:54 AM 45.0°F7.2°C 42.8°F6.0°C 92% 2.2 mph S3.5 kmh S 3.2 mph5.1 kmh 30.10 in1019.3 mb 0.00 in0.0 mm 0.00 in0.0 mm 0.00 in0.0 mm
07:53 AM 45.0°F7.2°C 42.8°F6.0°C 92% 2.7 mph S4.3 kmh S 3.2 mph5.1 kmh 30.10 in1019.3 mb 0.00 in0.0 mm 0.00 in0.0 mm 0.00 in0.0 mm
07:52 AM 45.0°F7.2°C 42.8°F6.0°C 92% 2.7 mph SSE4.3 kmh SSE 3.2 mph5.1 kmh 30.10 in1019.3 mb 0.00 in0.0 mm 0.00 in0.0 mm 0.00 in0.0 mm
07:51 AM 45.0°F7.2°C 42.8°F6.0°C 92% 3.2 mph S5.1 kmh S 3.2 mph5.1 kmh 30.10 in1019.3 mb 0.00 in0.0 mm 0.00 in0.0 mm 0.00 in0.0 mm
07:50 AM 44.6°F7.0°C 42.7°F5.9°C 93% 2.2 mph SSE3.5 kmh SSE 3.2 mph5.1 kmh 30.10 in1019.3 mb 0.00 in0.0 mm 0.00 in0.0 mm 0.00 in0.0 mm
07:49 AM 44.4°F6.9°C 42.5°F5.8°C 93% 2.2 mph ESE3.5 kmh ESE 3.2 mph5.1 kmh 30.09 in1019.0 mb 0.00 in0.0 mm 0.00 in0.0 mm 0.00 in0.0 mm
07:48 AM 44.4°F6.9°C 42.5°F5.8°C 93% 1.7 mph SE2.7 kmh SE 3.2 mph5.1 kmh 30.09 in1019.0 mb 0.00 in0.0 mm 0.00 in0.0 mm 0.00 in0.0 mm
07:47 AM 44.2°F6.8°C 42.3°F5.7°C 93% Calm Calm 3.7 mph6.0 kmh 30.09 in1019.0 mb 0.00 in0.0 mm 0.00 in0.0 mm 0.00 in0.0 mm
07:46 AM 44.2°F6.8°C 42.3°F5.7°C 93% Calm Calm 4.2 mph6.8 kmh 30.09 in1019.0 mb 0.00 in0.0 mm 0.00 in0.0 mm 0.00 in0.0 mm
07:45 AM 44.2°F6.8°C 42.3°F5.7°C 93% Calm Calm 4.2 mph6.8 kmh 30.09 in1019.0 mb 0.00 in0.0 mm 0.00 in0.0 mm 0.00 in0.0 mm
07:44 AM 44.2°F6.8°C 42.3°F5.7°C 93% 2.2 mph SSE3.5 kmh SSE 4.2 mph6.8 kmh 30.09 in1019.0 mb 0.00 in0.0 mm 0.00 in0.0 mm 0.00 in0.0 mm
07:43 AM 44.2°F6.8°C 42.3°F5.7°C 93% 2.2 mph ESE3.5 kmh ESE 4.2 mph6.8 kmh 30.09 in1019.0 mb 0.00 in0.0 mm 0.00 in0.0 mm 0.00 in0.0 mm
07:42 AM 44.1°F6.7°C 42.2°F5.7°C 93% 2.7 mph SSE4.3 kmh SSE 4.2 mph6.8 kmh 30.09 in1019.0 mb 0.00 in0.0 mm 0.00 in0.0 mm 0.00 in0.0 mm
07:41 AM 44.1°F6.7°C 42.2°F5.7°C 93% 2.7 mph ESE4.3 kmh ESE 4.2 mph6.8 kmh 30.09 in1019.0 mb 0.00 in0.0 mm 0.00 in0.0 mm 0.00 in0.0 mm
07:40 AM 44.1°F6.7°C 42.2°F5.7°C 93% 2.7 mph E4.3 kmh E 4.2 mph6.8 kmh 30.09 in1019.0 mb 0.00 in0.0 mm 0.00 in0.0 mm 0.00 in0.0 mm
07:39 AM 44.1°F6.7°C 42.2°F5.7°C 93% 2.7 mph ESE4.3 kmh ESE 4.2 mph6.8 kmh 30.09 in1019.0 mb 0.00 in0.0 mm 0.00 in0.0 mm 0.00 in0.0 mm
07:38 AM 44.1°F6.7°C 42.2°F5.7°C 93% 2.2 mph ESE3.5 kmh ESE 4.2 mph6.8 kmh 30.09 in1019.0 mb 0.00 in0.0 mm 0.00 in0.0 mm 0.00 in0.0 mm
07:37 AM 43.9°F6.6°C 42.0°F5.6°C 93% 3.7 mph SE6.0 kmh SE 4.2 mph6.8 kmh 30.10 in1019.3 mb 0.00 in0.0 mm 0.00 in0.0 mm 0.00 in0.0 mm
07:36 AM 43.9°F6.6°C 42.0°F5.6°C 93% 4.2 mph ESE6.8 kmh ESE 4.2 mph6.8 kmh 30.10 in1019.3 mb 0.00 in0.0 mm 0.00 in0.0 mm 0.00 in0.0 mm
07:35 AM 43.9°F6.6°C 42.0°F5.6°C 93% 2.7 mph ESE4.3 kmh ESE 3.2 mph5.1 kmh 30.10 in1019.3 mb 0.00 in0.0 mm 0.00 in0.0 mm 0.00 in0.0 mm
07:34 AM 43.9°F6.6°C 42.0°F5.6°C 93% 2.7 mph ESE4.3 kmh ESE 3.7 mph6.0 kmh 30.10 in1019.3 mb 0.00 in0.0 mm 0.00 in0.0 mm 0.00 in0.0 mm
07:33 AM 43.9°F6.6°C 42.0°F5.6°C 93% 2.7 mph ESE4.3 kmh ESE 4.2 mph6.8 kmh 30.10 in1019.3 mb 0.00 in0.0 mm 0.00 in0.0 mm 0.00 in0.0 mm
07:32 AM 43.9°F6.6°C 42.0°F5.6°C 93% 2.2 mph ESE3.5 kmh ESE 4.2 mph6.8 kmh 30.10 in1019.3 mb 0.00 in0.0 mm 0.00 in0.0 mm 0.00 in0.0 mm
07:31 AM 43.9°F6.6°C 41.7°F5.4°C 92% 2.7 mph ESE4.3 kmh ESE 4.2 mph6.8 kmh 30.10 in1019.3 mb 0.00 in0.0 mm 0.00 in0.0 mm 0.00 in0.0 mm
07:30 AM 43.9°F6.6°C 41.7°F5.4°C 92% 2.7 mph ESE4.3 kmh ESE 4.2 mph6.8 kmh 30.10 in1019.3 mb 0.00 in0.0 mm 0.00 in0.0 mm 0.00 in0.0 mm
07:29 AM 43.9°F6.6°C 41.7°F5.4°C 92% 1.7 mph ESE2.7 kmh ESE 4.2 mph6.8 kmh 30.10 in1019.3 mb 0.00 in0.0 mm 0.00 in0.0 mm 0.00 in0.0 mm
07:28 AM 43.9°F6.6°C 41.7°F5.4°C 92% 2.2 mph ESE3.5 kmh ESE 4.2 mph6.8 kmh 30.10 in1019.3 mb 0.00 in0.0 mm 0.00 in0.0 mm 0.00 in0.0 mm
07:27 AM 43.9°F6.6°C 41.7°F5.4°C 92% Calm Calm 4.2 mph6.8 kmh 30.10 in1019.3 mb 0.00 in0.0 mm 0.00 in0.0 mm 0.00 in0.0 mm
07:26 AM 43.9°F6.6°C 41.7°F5.4°C 92% 1.1 mph SSE1.8 kmh SSE 4.2 mph6.8 kmh 30.10 in1019.3 mb 0.00 in0.0 mm 0.00 in0.0 mm 0.00 in0.0 mm
07:25 AM 43.9°F6.6°C 41.7°F5.4°C 92% 2.2 mph S3.5 kmh S 4.2 mph6.8 kmh 30.09 in1019.0 mb 0.00 in0.0 mm 0.00 in0.0 mm 0.00 in0.0 mm
07:24 AM 43.9°F6.6°C 42.0°F5.6°C 93% 3.7 mph S6.0 kmh S 4.2 mph6.8 kmh 30.09 in1019.0 mb 0.00 in0.0 mm 0.00 in0.0 mm 0.00 in0.0 mm
07:23 AM 43.7°F6.5°C 41.8°F5.4°C 93% 2.7 mph S4.3 kmh S 2.7 mph4.3 kmh 30.09 in1019.0 mb 0.00 in0.0 mm 0.00 in0.0 mm 0.00 in0.0 mm
07:22 AM 43.7°F6.5°C 41.8°F5.4°C 93% Calm Calm 3.2 mph5.1 kmh 30.09 in1019.0 mb 0.00 in0.0 mm 0.00 in0.0 mm 0.00 in0.0 mm
07:21 AM 43.7°F6.5°C 41.8°F5.4°C 93% Calm Calm 3.2 mph5.1 kmh 30.09 in1019.0 mb 0.00 in0.0 mm 0.00 in0.0 mm 0.00 in0.0 mm
07:20 AM 43.7°F6.5°C 41.8°F5.4°C 93% 1.7 mph S2.7 kmh S 3.2 mph5.1 kmh 30.09 in1019.0 mb 0.00 in0.0 mm 0.00 in0.0 mm 0.00 in0.0 mm
07:19 AM 43.7°F6.5°C 41.8°F5.4°C 93% 1.7 mph S2.7 kmh S 3.7 mph6.0 kmh 30.09 in1019.0 mb 0.00 in0.0 mm 0.00 in0.0 mm 0.00 in0.0 mm
07:18 AM 43.7°F6.5°C 41.8°F5.4°C 93% 2.2 mph SSE3.5 kmh SSE 3.7 mph6.0 kmh 30.09 in1019.0 mb 0.00 in0.0 mm 0.00 in0.0 mm 0.00 in0.0 mm
07:17 AM 43.7°F6.5°C 41.8°F5.4°C 93% Calm Calm 3.7 mph6.0 kmh 30.09 in1019.0 mb 0.00 in0.0 mm 0.00 in0.0 mm 0.00 in0.0 mm
07:16 AM 43.7°F6.5°C 41.8°F5.4°C 93% 2.2 mph SSE3.5 kmh SSE 4.2 mph6.8 kmh 30.09 in1019.0 mb 0.00 in0.0 mm 0.00 in0.0 mm 0.00 in0.0 mm
07:15 AM 43.7°F6.5°C 41.8°F5.4°C 93% 1.7 mph SSE2.7 kmh SSE 4.2 mph6.8 kmh 30.09 in1019.0 mb 0.00 in0.0 mm 0.00 in0.0 mm 0.00 in0.0 mm
07:14 AM 43.7°F6.5°C 41.8°F5.4°C 93% 2.7 mph SSE4.3 kmh SSE 4.7 mph7.6 kmh 30.09 in1019.0 mb 0.00 in0.0 mm 0.00 in0.0 mm 0.00 in0.0 mm
07:13 AM 43.7°F6.5°C 41.8°F5.4°C 93% 2.2 mph SE3.5 kmh SE 4.7 mph7.6 kmh 30.09 in1019.0 mb 0.00 in0.0 mm 0.00 in0.0 mm 0.00 in0.0 mm
07:12 AM 43.7°F6.5°C 41.8°F5.4°C 93% 2.7 mph ESE4.3 kmh ESE 4.7 mph7.6 kmh 30.09 in1019.0 mb 0.00 in0.0 mm 0.00 in0.0 mm 0.00 in0.0 mm
07:11 AM 43.7°F6.5°C 41.8°F5.4°C 93% 2.7 mph SSE4.3 kmh SSE 4.7 mph7.6 kmh 30.09 in1019.0 mb 0.00 in0.0 mm 0.00 in0.0 mm 0.00 in0.0 mm
07:10 AM 43.7°F6.5°C 41.8°F5.4°C 93% 1.7 mph SE2.7 kmh SE 4.7 mph7.6 kmh 30.09 in1019.0 mb 0.00 in0.0 mm 0.00 in0.0 mm 0.00 in0.0 mm
07:09 AM 43.7°F6.5°C 41.8°F5.4°C 93% 2.2 mph SSW3.5 kmh SSW 4.7 mph7.6 kmh 30.09 in1019.0 mb 0.00 in0.0 mm 0.00 in0.0 mm 0.00 in0.0 mm
07:08 AM 43.5°F6.4°C 41.6°F5.3°C 93% 3.2 mph S5.1 kmh S 4.7 mph7.6 kmh 30.09 in1019.0 mb 0.00 in0.0 mm 0.00 in0.0 mm 0.00 in0.0 mm
07:07 AM 43.5°F6.4°C 41.6°F5.3°C 93% 2.7 mph S4.3 kmh S 4.7 mph7.6 kmh 30.09 in1019.0 mb 0.00 in0.0 mm 0.00 in0.0 mm 0.00 in0.0 mm
07:06 AM 43.5°F6.4°C 41.6°F5.3°C 93% 4.2 mph SE6.8 kmh SE 4.7 mph7.6 kmh 30.09 in1019.0 mb 0.00 in0.0 mm 0.00 in0.0 mm 0.00 in0.0 mm
07:05 AM 43.5°F6.4°C 41.6°F5.3°C 93% 3.2 mph SSW5.1 kmh SSW 4.7 mph7.6 kmh 30.09 in1019.0 mb 0.00 in0.0 mm 0.00 in0.0 mm 0.00 in0.0 mm
07:04 AM 43.3°F6.3°C 41.7°F5.4°C 94% 1.7 mph S2.7 kmh S 3.7 mph6.0 kmh 30.09 in1019.0 mb 0.00 in0.0 mm 0.00 in0.0 mm 0.00 in0.0 mm
07:03 AM 43.2°F6.2°C 41.6°F5.3°C 94% 1.1 mph S1.8 kmh S 3.7 mph6.0 kmh 30.09 in1019.0 mb 0.00 in0.0 mm 0.00 in0.0 mm 0.00 in0.0 mm
07:02 AM 43.2°F6.2°C 41.6°F5.3°C 94% 1.7 mph S2.7 kmh S 3.7 mph6.0 kmh 30.09 in1019.0 mb 0.00 in0.0 mm 0.00 in0.0 mm 0.00 in0.0 mm
07:01 AM 43.0°F6.1°C 41.4°F5.2°C 94% 2.7 mph S4.3 kmh S 4.2 mph6.8 kmh 30.09 in1019.0 mb 0.00 in0.0 mm 0.00 in0.0 mm 0.00 in0.0 mm
07:00 AM 43.0°F6.1°C 41.4°F5.2°C 94% Calm Calm 4.2 mph6.8 kmh 30.09 in1019.0 mb 0.00 in0.0 mm 0.00 in0.0 mm 0.00 in0.0 mm
06:59 AM 43.0°F6.1°C 41.4°F5.2°C 94% 1.1 mph ESE1.8 kmh ESE 4.2 mph6.8 kmh 30.09 in1019.0 mb 0.00 in0.0 mm 0.00 in0.0 mm 0.00 in0.0 mm
06:58 AM 43.0°F6.1°C 41.4°F5.2°C 94% 2.7 mph ESE4.3 kmh ESE 4.2 mph6.8 kmh 30.09 in1019.0 mb 0.00 in0.0 mm 0.00 in0.0 mm 0.00 in0.0 mm
06:57 AM 43.0°F6.1°C 41.4°F5.2°C 94% 2.7 mph ESE4.3 kmh ESE 4.2 mph6.8 kmh 30.09 in1019.0 mb 0.00 in0.0 mm 0.00 in0.0 mm 0.00 in0.0 mm
06:56 AM 43.0°F6.1°C 41.4°F5.2°C 94% 3.2 mph ESE5.1 kmh ESE 4.7 mph7.6 kmh 30.09 in1019.0 mb 0.00 in0.0 mm 0.00 in0.0 mm 0.00 in0.0 mm
06:55 AM 43.0°F6.1°C 41.4°F5.2°C 94% 2.7 mph SE4.3 kmh SE 4.7 mph7.6 kmh 30.09 in1019.0 mb 0.00 in0.0 mm 0.00 in0.0 mm 0.00 in0.0 mm
06:54 AM 43.0°F6.1°C 41.4°F5.2°C 94% 2.7 mph ESE4.3 kmh ESE 4.7 mph7.6 kmh 30.09 in1019.0 mb 0.00 in0.0 mm 0.00 in0.0 mm 0.00 in0.0 mm
06:53 AM 43.0°F6.1°C 41.4°F5.2°C 94% 3.7 mph ESE6.0 kmh ESE 4.7 mph7.6 kmh 30.09 in1019.0 mb 0.00 in0.0 mm 0.00 in0.0 mm 0.00 in0.0 mm
06:52 AM 43.0°F6.1°C 41.4°F5.2°C 94% 3.7 mph ESE6.0 kmh ESE 4.7 mph7.6 kmh 30.09 in1019.0 mb 0.00 in0.0 mm 0.00 in0.0 mm 0.00 in0.0 mm
06:51 AM 43.0°F6.1°C 41.4°F5.2°C 94% 2.7 mph ESE4.3 kmh ESE 4.7 mph7.6 kmh 30.09 in1019.0 mb 0.00 in0.0 mm 0.00 in0.0 mm 0.00 in0.0 mm
06:50 AM 43.0°F6.1°C 41.4°F5.2°C 94% 3.2 mph ESE5.1 kmh ESE 4.7 mph7.6 kmh 30.09 in1019.0 mb 0.00 in0.0 mm 0.00 in0.0 mm 0.00 in0.0 mm
06:49 AM 43.0°F6.1°C 41.4°F5.2°C 94% 3.2 mph SE5.1 kmh SE 4.7 mph7.6 kmh 30.09 in1019.0 mb 0.00 in0.0 mm 0.00 in0.0 mm 0.00 in0.0 mm
06:48 AM 43.0°F6.1°C 41.4°F5.2°C 94% 2.7 mph ESE4.3 kmh ESE 4.7 mph7.6 kmh 30.09 in1019.0 mb 0.00 in0.0 mm 0.00 in0.0 mm 0.00 in0.0 mm
06:47 AM 43.0°F6.1°C 41.4°F5.2°C 94% 2.2 mph SE3.5 kmh SE 4.7 mph7.6 kmh 30.09 in1019.0 mb 0.00 in0.0 mm 0.00 in0.0 mm 0.00 in0.0 mm
06:46 AM 43.0°F6.1°C 41.4°F5.2°C 94% 4.7 mph SE7.6 kmh SE 4.7 mph7.6 kmh 30.09 in1019.0 mb 0.00 in0.0 mm 0.00 in0.0 mm 0.00 in0.0 mm
06:45 AM 43.0°F6.1°C 41.4°F5.2°C 94% 4.7 mph SSE7.6 kmh SSE 4.7 mph7.6 kmh 30.09 in1019.0 mb 0.00 in0.0 mm 0.00 in0.0 mm 0.00 in0.0 mm
06:44 AM 43.0°F6.1°C 41.4°F5.2°C 94% 2.7 mph ESE4.3 kmh ESE 3.7 mph6.0 kmh 30.09 in1019.0 mb 0.00 in0.0 mm 0.00 in0.0 mm 0.00 in0.0 mm
06:43 AM 43.0°F6.1°C 41.4°F5.2°C 94% 3.2 mph SE5.1 kmh SE 3.7 mph6.0 kmh 30.09 in1019.0 mb 0.00 in0.0 mm 0.00 in0.0 mm 0.00 in0.0 mm
06:42 AM 43.0°F6.1°C 41.4°F5.2°C 94% 1.7 mph SSE2.7 kmh SSE 3.7 mph6.0 kmh 30.09 in1019.0 mb 0.00 in0.0 mm 0.00 in0.0 mm 0.00 in0.0 mm
06:41 AM 43.0°F6.1°C 41.4°F5.2°C 94% 3.7 mph SE6.0 kmh SE 3.7 mph6.0 kmh 30.09 in1019.0 mb 0.00 in0.0 mm 0.00 in0.0 mm 0.00 in0.0 mm
06:40 AM 43.0°F6.1°C 41.4°F5.2°C 94% 2.7 mph SSW4.3 kmh SSW 3.7 mph6.0 kmh 30.09 in1019.0 mb 0.00 in0.0 mm 0.00 in0.0 mm 0.00 in0.0 mm
06:39 AM 43.0°F6.1°C 41.4°F5.2°C 94% Calm Calm 3.7 mph6.0 kmh 30.09 in1019.0 mb 0.00 in0.0 mm 0.00 in0.0 mm 0.00 in0.0 mm
06:38 AM 43.0°F6.1°C 41.4°F5.2°C 94% 2.7 mph SSW4.3 kmh SSW 3.7 mph6.0 kmh 30.09 in1019.0 mb 0.00 in0.0 mm 0.00 in0.0 mm 0.00 in0.0 mm
06:37 AM 43.0°F6.1°C 41.4°F5.2°C 94% Calm Calm 3.7 mph6.0 kmh 30.09 in1019.0 mb 0.00 in0.0 mm 0.00 in0.0 mm 0.00 in0.0 mm
06:36 AM 43.0°F6.1°C 41.4°F5.2°C 94% 3.2 mph S5.1 kmh S 3.7 mph6.0 kmh 30.09 in1019.0 mb 0.00 in0.0 mm 0.00 in0.0 mm 0.00 in0.0 mm
06:35 AM 43.0°F6.1°C 41.4°F5.2°C 94% 1.1 mph SSE1.8 kmh SSE 3.7 mph6.0 kmh 30.09 in1019.0 mb 0.00 in0.0 mm 0.00 in0.0 mm 0.00 in0.0 mm
06:34 AM 43.0°F6.1°C 41.4°F5.2°C 94% 1.1 mph SE1.8 kmh SE 3.7 mph6.0 kmh 30.09 in1019.0 mb 0.00 in0.0 mm 0.00 in0.0 mm 0.00 in0.0 mm
06:33 AM 43.0°F6.1°C 41.4°F5.2°C 94% Calm Calm 3.7 mph6.0 kmh 30.09 in1019.0 mb 0.00 in0.0 mm 0.00 in0.0 mm 0.00 in0.0 mm
06:32 AM 43.0°F6.1°C 41.4°F5.2°C 94% 2.2 mph ESE3.5 kmh ESE 4.2 mph6.8 kmh 30.09 in1019.0 mb 0.00 in0.0 mm 0.00 in0.0 mm 0.00 in0.0 mm
06:31 AM 43.0°F6.1°C 41.4°F5.2°C 94% Calm Calm 4.2 mph6.8 kmh 30.09 in1019.0 mb 0.00 in0.0 mm 0.00 in0.0 mm 0.00 in0.0 mm
06:30 AM 43.0°F6.1°C 41.4°F5.2°C 94% 2.2 mph ESE3.5 kmh ESE 4.2 mph6.8 kmh 30.09 in1019.0 mb 0.00 in0.0 mm 0.00 in0.0 mm 0.00 in0.0 mm
06:29 AM 43.0°F6.1°C 41.4°F5.2°C 94% 2.2 mph SSE3.5 kmh SSE 4.2 mph6.8 kmh 30.09 in1019.0 mb 0.00 in0.0 mm 0.00 in0.0 mm 0.00 in0.0 mm
06:28 AM 43.0°F6.1°C 41.6°F5.3°C 95% 2.2 mph SSE3.5 kmh SSE 4.2 mph6.8 kmh 30.09 in1019.0 mb 0.00 in0.0 mm 0.00 in0.0 mm 0.00 in0.0 mm
06:27 AM 43.0°F6.1°C 41.6°F5.3°C 95% 2.7 mph ESE4.3 kmh ESE 4.2 mph6.8 kmh 30.09 in1019.0 mb 0.00 in0.0 mm 0.00 in0.0 mm 0.00 in0.0 mm
06:26 AM 43.0°F6.1°C 41.6°F5.3°C 95% 3.7 mph SSE6.0 kmh SSE 4.2 mph6.8 kmh 30.09 in1019.0 mb 0.00 in0.0 mm 0.00 in0.0 mm 0.00 in0.0 mm
06:25 AM 43.0°F6.1°C 41.6°F5.3°C 95% 1.7 mph SE2.7 kmh SE 4.2 mph6.8 kmh 30.09 in1019.0 mb 0.00 in0.0 mm 0.00 in0.0 mm 0.00 in0.0 mm
06:24 AM 43.0°F6.1°C 41.6°F5.3°C 95% 1.7 mph ESE2.7 kmh ESE 4.2 mph6.8 kmh 30.09 in1019.0 mb 0.00 in0.0 mm 0.00 in0.0 mm 0.00 in0.0 mm
06:23 AM 43.0°F6.1°C 41.6°F5.3°C 95% 2.2 mph ESE3.5 kmh ESE 4.2 mph6.8 kmh 30.09 in1019.0 mb 0.00 in0.0 mm 0.00 in0.0 mm 0.00 in0.0 mm
06:22 AM 43.0°F6.1°C 41.6°F5.3°C 95% 4.2 mph ESE6.8 kmh ESE 4.2 mph6.8 kmh 30.09 in1019.0 mb 0.00 in0.0 mm 0.00 in0.0 mm 0.00 in0.0 mm
06:21 AM 43.0°F6.1°C 41.6°F5.3°C 95% 3.7 mph SE6.0 kmh SE 4.2 mph6.8 kmh 30.09 in1019.0 mb 0.00 in0.0 mm 0.00 in0.0 mm 0.00 in0.0 mm
06:20 AM 43.0°F6.1°C 41.6°F5.3°C 95% 3.2 mph ESE5.1 kmh ESE 4.2 mph6.8 kmh 30.09 in1019.0 mb 0.00 in0.0 mm 0.00 in0.0 mm 0.00 in0.0 mm
06:19 AM 43.0°F6.1°C 41.6°F5.3°C 95% 2.7 mph ESE4.3 kmh ESE 4.2 mph6.8 kmh 30.09 in1019.0 mb 0.00 in0.0 mm 0.00 in0.0 mm 0.00 in0.0 mm
06:18 AM 43.0°F6.1°C 41.6°F5.3°C 95% 2.7 mph ESE4.3 kmh ESE 4.2 mph6.8 kmh 30.09 in1019.0 mb 0.00 in0.0 mm 0.00 in0.0 mm 0.00 in0.0 mm
06:17 AM 43.0°F6.1°C 41.6°F5.3°C 95% 4.2 mph E6.8 kmh E 4.7 mph7.6 kmh 30.09 in1019.0 mb 0.00 in0.0 mm 0.00 in0.0 mm 0.00 in0.0 mm
06:16 AM 43.0°F6.1°C 41.6°F5.3°C 95% 3.2 mph SE5.1 kmh SE 4.7 mph7.6 kmh 30.09 in1019.0 mb 0.00 in0.0 mm 0.00 in0.0 mm 0.00 in0.0 mm
06:15 AM 43.0°F6.1°C 41.6°F5.3°C 95% 3.2 mph ESE5.1 kmh ESE 5.3 mph8.5 kmh 30.09 in1019.0 mb 0.00 in0.0 mm 0.00 in0.0 mm 0.00 in0.0 mm
06:14 AM 43.0°F6.1°C 41.6°F5.3°C 95% 2.7 mph SE4.3 kmh SE 5.3 mph8.5 kmh 30.09 in1019.0 mb 0.00 in0.0 mm 0.00 in0.0 mm 0.00 in0.0 mm
06:13 AM 43.0°F6.1°C 41.6°F5.3°C 95% 2.2 mph SSE3.5 kmh SSE 6.8 mph10.9 kmh 30.09 in1019.0 mb 0.00 in0.0 mm 0.00 in0.0 mm 0.00 in0.0 mm
06:12 AM 43.0°F6.1°C 41.6°F5.3°C 95% 2.2 mph ESE3.5 kmh ESE 6.8 mph10.9 kmh 30.08 in1018.6 mb 0.00 in0.0 mm 0.00 in0.0 mm 0.00 in0.0 mm
06:11 AM 43.0°F6.1°C 41.6°F5.3°C 95% 2.2 mph SE3.5 kmh SE 6.8 mph10.9 kmh 30.08 in1018.6 mb 0.00 in0.0 mm 0.00 in0.0 mm 0.00 in0.0 mm
06:10 AM 43.0°F6.1°C 41.6°F5.3°C 95% 2.2 mph ESE3.5 kmh ESE 6.8 mph10.9 kmh 30.08 in1018.6 mb 0.00 in0.0 mm 0.00 in0.0 mm 0.00 in0.0 mm
06:09 AM 43.0°F6.1°C 41.6°F5.3°C 95% 4.2 mph SE6.8 kmh SE 6.8 mph10.9 kmh 30.08 in1018.6 mb 0.00 in0.0 mm 0.00 in0.0 mm 0.00 in0.0 mm
06:08 AM 43.0°F6.1°C 41.6°F5.3°C 95% 4.2 mph SE6.8 kmh SE 6.8 mph10.9 kmh 30.08 in1018.6 mb 0.00 in0.0 mm 0.00 in0.0 mm 0.00 in0.0 mm
06:07 AM 43.0°F6.1°C 41.6°F5.3°C 95% 4.7 mph ESE7.6 kmh ESE 6.8 mph10.9 kmh 30.08 in1018.6 mb 0.00 in0.0 mm 0.00 in0.0 mm 0.00 in0.0 mm
06:06 AM 43.0°F6.1°C 41.6°F5.3°C 95% 4.2 mph SE6.8 kmh SE 6.8 mph10.9 kmh 30.08 in1018.6 mb 0.00 in0.0 mm 0.00 in0.0 mm 0.00 in0.0 mm
06:05 AM 43.0°F6.1°C 41.6°F5.3°C 95% 4.2 mph SE6.8 kmh SE 6.8 mph10.9 kmh 30.08 in1018.6 mb 0.00 in0.0 mm 0.00 in0.0 mm 0.00 in0.0 mm
06:04 AM 43.0°F6.1°C 41.6°F5.3°C 95% 5.3 mph SSE8.5 kmh SSE 6.8 mph10.9 kmh 30.08 in1018.6 mb 0.00 in0.0 mm 0.00 in0.0 mm 0.00 in0.0 mm
06:03 AM 43.0°F6.1°C 41.6°F5.3°C 95% 3.7 mph SSE6.0 kmh SSE 6.8 mph10.9 kmh 30.08 in1018.6 mb 0.00 in0.0 mm 0.00 in0.0 mm 0.00 in0.0 mm
06:02 AM 43.0°F6.1°C 41.6°F5.3°C 95% 4.2 mph SE6.8 kmh SE 7.3 mph11.7 kmh 30.08 in1018.6 mb 0.00 in0.0 mm 0.00 in0.0 mm 0.00 in0.0 mm
06:01 AM 43.0°F6.1°C 41.6°F5.3°C 95% 4.2 mph ESE6.8 kmh ESE 7.3 mph11.7 kmh 30.09 in1019.0 mb 0.00 in0.0 mm 0.00 in0.0 mm 0.00 in0.0 mm
06:00 AM 43.0°F6.1°C 41.6°F5.3°C 95% 4.2 mph SSE6.8 kmh SSE 7.3 mph11.7 kmh 30.09 in1019.0 mb 0.00 in0.0 mm 0.00 in0.0 mm 0.00 in0.0 mm
05:59 AM 43.0°F6.1°C 41.6°F5.3°C 95% 5.8 mph ESE9.3 kmh ESE 7.3 mph11.7 kmh 30.09 in1019.0 mb 0.00 in0.0 mm 0.00 in0.0 mm 0.00 in0.0 mm
05:58 AM 43.0°F6.1°C 41.6°F5.3°C 95% 4.7 mph ESE7.6 kmh ESE 7.3 mph11.7 kmh 30.09 in1019.0 mb 0.00 in0.0 mm 0.00 in0.0 mm 0.00 in0.0 mm
05:57 AM 43.0°F6.1°C 41.6°F5.3°C 95% 5.8 mph ESE9.3 kmh ESE 7.3 mph11.7 kmh 30.09 in1019.0 mb 0.00 in0.0 mm 0.00 in0.0 mm 0.00 in0.0 mm
05:56 AM 42.8°F6.0°C 41.5°F5.3°C 95% 6.8 mph ESE10.9 kmh ESE 7.3 mph11.7 kmh 30.09 in1019.0 mb 0.00 in0.0 mm 0.00 in0.0 mm 0.00 in0.0 mm
05:55 AM 42.8°F6.0°C 41.5°F5.3°C 95% 5.3 mph ESE8.5 kmh ESE 7.3 mph11.7 kmh 30.09 in1019.0 mb 0.00 in0.0 mm 0.00 in0.0 mm 0.00 in0.0 mm
05:54 AM 42.6°F5.9°C 41.3°F5.2°C 95% 4.2 mph SSE6.8 kmh SSE 7.3 mph11.7 kmh 30.09 in1019.0 mb 0.00 in0.0 mm 0.00 in0.0 mm 0.00 in0.0 mm
05:53 AM 42.6°F5.9°C 41.3°F5.2°C 95% 5.3 mph ESE8.5 kmh ESE 7.3 mph11.7 kmh 30.09 in1019.0 mb 0.00 in0.0 mm 0.00 in0.0 mm 0.00 in0.0 mm
05:52 AM 42.6°F5.9°C 41.3°F5.2°C 95% 6.8 mph ESE10.9 kmh ESE 6.8 mph10.9 kmh 30.09 in1019.0 mb 0.00 in0.0 mm 0.00 in0.0 mm 0.00 in0.0 mm
05:51 AM 42.6°F5.9°C 41.3°F5.2°C 95% 4.2 mph ESE6.8 kmh ESE 6.3 mph10.1 kmh 30.09 in1019.0 mb 0.00 in0.0 mm 0.00 in0.0 mm 0.00 in0.0 mm
05:50 AM 42.6°F5.9°C 41.3°F5.2°C 95% 4.7 mph ESE7.6 kmh ESE 4.7 mph7.6 kmh 30.09 in1019.0 mb 0.00 in0.0 mm 0.00 in0.0 mm 0.00 in0.0 mm
05:49 AM 42.6°F5.9°C 41.3°F5.2°C 95% 4.2 mph ESE6.8 kmh ESE 4.2 mph6.8 kmh 30.10 in1019.3 mb 0.00 in0.0 mm 0.00 in0.0 mm 0.00 in0.0 mm
05:48 AM 42.6°F5.9°C 41.3°F5.2°C 95% 3.7 mph ESE6.0 kmh ESE 4.2 mph6.8 kmh 30.10 in1019.3 mb 0.00 in0.0 mm 0.00 in0.0 mm 0.00 in0.0 mm
05:47 AM 42.6°F5.9°C 41.3°F5.2°C 95% 2.7 mph SSE4.3 kmh SSE 4.2 mph6.8 kmh 30.10 in1019.3 mb 0.00 in0.0 mm 0.00 in0.0 mm 0.00 in0.0 mm
05:46 AM 42.6°F5.9°C 41.3°F5.2°C 95% 3.7 mph ESE6.0 kmh ESE 4.2 mph6.8 kmh 30.10 in1019.3 mb 0.00 in0.0 mm 0.00 in0.0 mm 0.00 in0.0 mm
05:45 AM 42.6°F5.9°C 41.3°F5.2°C 95% 3.2 mph ESE5.1 kmh ESE 4.2 mph6.8 kmh 30.10 in1019.3 mb 0.00 in0.0 mm 0.00 in0.0 mm 0.00 in0.0 mm
05:44 AM 42.6°F5.9°C 41.3°F5.2°C 95% 3.2 mph ESE5.1 kmh ESE 4.2 mph6.8 kmh 30.10 in1019.3 mb 0.00 in0.0 mm 0.00 in0.0 mm 0.00 in0.0 mm
05:43 AM 42.6°F5.9°C 41.3°F5.2°C 95% 2.7 mph ESE4.3 kmh ESE 4.2 mph6.8 kmh 30.10 in1019.3 mb 0.00 in0.0 mm 0.00 in0.0 mm 0.00 in0.0 mm
05:42 AM 42.6°F5.9°C 41.0°F5.0°C 94% 2.7 mph ESE4.3 kmh ESE 4.2 mph6.8 kmh 30.10 in1019.3 mb 0.00 in0.0 mm 0.00 in0.0 mm 0.00 in0.0 mm
05:41 AM 42.6°F5.9°C 41.0°F5.0°C 94% 2.7 mph ESE4.3 kmh ESE 4.2 mph6.8 kmh 30.10 in1019.3 mb 0.00 in0.0 mm 0.00 in0.0 mm 0.00 in0.0 mm
05:40 AM 42.6°F5.9°C 41.0°F5.0°C 94% 3.7 mph ESE6.0 kmh ESE 4.2 mph6.8 kmh 30.10 in1019.3 mb 0.00 in0.0 mm 0.00 in0.0 mm 0.00 in0.0 mm
05:39 AM 42.6°F5.9°C 41.0°F5.0°C 94% 4.2 mph SE6.8 kmh SE 4.7 mph7.6 kmh 30.10 in1019.3 mb 0.00 in0.0 mm 0.00 in0.0 mm 0.00 in0.0 mm
05:38 AM 42.6°F5.9°C 41.0°F5.0°C 94% 2.7 mph ESE4.3 kmh ESE 4.7 mph7.6 kmh 30.10 in1019.3 mb 0.00 in0.0 mm 0.00 in0.0 mm 0.00 in0.0 mm
05:37 AM 42.6°F5.9°C 41.0°F5.0°C 94% 2.2 mph ESE3.5 kmh ESE 4.7 mph7.6 kmh 30.10 in1019.3 mb 0.00 in0.0 mm 0.00 in0.0 mm 0.00 in0.0 mm
05:36 AM 42.6°F5.9°C 41.0°F5.0°C 94% 3.2 mph ESE5.1 kmh ESE 4.7 mph7.6 kmh 30.10 in1019.3 mb 0.00 in0.0 mm 0.00 in0.0 mm 0.00 in0.0 mm
05:35 AM 42.6°F5.9°C 41.0°F5.0°C 94% 2.2 mph S3.5 kmh S 4.7 mph7.6 kmh 30.10 in1019.3 mb 0.00 in0.0 mm 0.00 in0.0 mm 0.00 in0.0 mm
05:34 AM 42.6°F5.9°C 41.0°F5.0°C 94% 2.7 mph SSE4.3 kmh SSE 4.7 mph7.6 kmh 30.10 in1019.3 mb 0.00 in0.0 mm 0.00 in0.0 mm 0.00 in0.0 mm
05:33 AM 42.6°F5.9°C 41.0°F5.0°C 94% 2.7 mph ESE4.3 kmh ESE 4.7 mph7.6 kmh 30.10 in1019.3 mb 0.00 in0.0 mm 0.00 in0.0 mm 0.00 in0.0 mm
05:32 AM 42.6°F5.9°C 41.0°F5.0°C 94% 3.2 mph S5.1 kmh S 4.7 mph7.6 kmh 30.10 in1019.3 mb 0.00 in0.0 mm 0.00 in0.0 mm 0.00 in0.0 mm
05:31 AM 42.6°F5.9°C 41.0°F5.0°C 94% 3.2 mph SSE5.1 kmh SSE 4.7 mph7.6 kmh 30.10 in1019.3 mb 0.00 in0.0 mm 0.00 in0.0 mm 0.00 in0.0 mm
05:30 AM 42.6°F5.9°C 41.0°F5.0°C 94% 2.2 mph ESE3.5 kmh ESE 4.7 mph7.6 kmh 30.10 in1019.3 mb 0.00 in0.0 mm 0.00 in0.0 mm 0.00 in0.0 mm
05:29 AM 42.6°F5.9°C 41.0°F5.0°C 94% 2.7 mph SE4.3 kmh SE 4.7 mph7.6 kmh 30.10 in1019.3 mb 0.00 in0.0 mm 0.00 in0.0 mm 0.00 in0.0 mm
05:28 AM 42.6°F5.9°C 41.0°F5.0°C 94% 3.2 mph ESE5.1 kmh ESE 4.7 mph7.6 kmh 30.10 in1019.3 mb 0.00 in0.0 mm 0.00 in0.0 mm 0.00 in0.0 mm
05:27 AM 42.6°F5.9°C 41.0°F5.0°C 94% 3.2 mph SSE5.1 kmh SSE 4.7 mph7.6 kmh 30.10 in1019.3 mb 0.00 in0.0 mm 0.00 in0.0 mm 0.00 in0.0 mm
05:26 AM 42.6°F5.9°C 41.0°F5.0°C 94% 2.7 mph ESE4.3 kmh ESE 4.7 mph7.6 kmh 30.10 in1019.3 mb 0.00 in0.0 mm 0.00 in0.0 mm 0.00 in0.0 mm
05:25 AM 42.6°F5.9°C 41.0°F5.0°C 94% 4.7 mph ESE7.6 kmh ESE 4.7 mph7.6 kmh 30.10 in1019.3 mb 0.00 in0.0 mm 0.00 in0.0 mm 0.00 in0.0 mm
05:24 AM 42.6°F5.9°C 41.0°F5.0°C 94% 4.2 mph ESE6.8 kmh ESE 4.2 mph6.8 kmh 30.10 in1019.3 mb 0.00 in0.0 mm 0.00 in0.0 mm 0.00 in0.0 mm
05:23 AM 42.6°F5.9°C 41.0°F5.0°C 94% 2.2 mph ESE3.5 kmh ESE 4.2 mph6.8 kmh 30.10 in1019.3 mb 0.00 in0.0 mm 0.00 in0.0 mm 0.00 in0.0 mm
05:22 AM 42.6°F5.9°C 41.0°F5.0°C 94% 3.7 mph ESE6.0 kmh ESE 4.2 mph6.8 kmh 30.10 in1019.3 mb 0.00 in0.0 mm 0.00 in0.0 mm 0.00 in0.0 mm
05:21 AM 42.6°F5.9°C 41.0°F5.0°C 94% 4.2 mph ESE6.8 kmh ESE 4.2 mph6.8 kmh 30.10 in1019.3 mb 0.00 in0.0 mm 0.00 in0.0 mm 0.00 in0.0 mm
05:20 AM 42.6°F5.9°C 41.0°F5.0°C 94% 3.2 mph ESE5.1 kmh ESE 3.7 mph6.0 kmh 30.10 in1019.3 mb 0.00 in0.0 mm 0.00 in0.0 mm 0.00 in0.0 mm
05:19 AM 42.8°F6.0°C 41.2°F5.1°C 94% 2.7 mph ESE4.3 kmh ESE 3.7 mph6.0 kmh 30.10 in1019.3 mb 0.00 in0.0 mm 0.00 in0.0 mm 0.00 in0.0 mm
05:18 AM 42.8°F6.0°C 41.2°F5.1°C 94% 2.7 mph SSE4.3 kmh SSE 3.7 mph6.0 kmh 30.10 in1019.3 mb 0.00 in0.0 mm 0.00 in0.0 mm 0.00 in0.0 mm
05:17 AM 42.8°F6.0°C 41.2°F5.1°C 94% 2.2 mph SSE3.5 kmh SSE 3.7 mph6.0 kmh 30.10 in1019.3 mb 0.00 in0.0 mm 0.00 in0.0 mm 0.00 in0.0 mm
05:16 AM 42.8°F6.0°C 41.2°F5.1°C 94% 2.2 mph ESE3.5 kmh ESE 3.7 mph6.0 kmh 30.10 in1019.3 mb 0.00 in0.0 mm 0.00 in0.0 mm 0.00 in0.0 mm
05:15 AM 43.0°F6.1°C 41.4°F5.2°C 94% 2.7 mph ESE4.3 kmh ESE 3.7 mph6.0 kmh 30.10 in1019.3 mb 0.00 in0.0 mm 0.00 in0.0 mm 0.00 in0.0 mm
05:14 AM 43.2°F6.2°C 41.6°F5.3°C 94% 2.2 mph S3.5 kmh S 3.7 mph6.0 kmh 30.10 in1019.3 mb 0.00 in0.0 mm 0.00 in0.0 mm 0.00 in0.0 mm
05:13 AM 43.2°F6.2°C 41.6°F5.3°C 94% 3.2 mph S5.1 kmh S 4.7 mph7.6 kmh 30.10 in1019.3 mb 0.00 in0.0 mm 0.00 in0.0 mm 0.00 in0.0 mm
05:12 AM 43.2°F6.2°C 41.6°F5.3°C 94% 3.7 mph S6.0 kmh S 4.7 mph7.6 kmh 30.09 in1019.0 mb 0.00 in0.0 mm 0.00 in0.0 mm 0.00 in0.0 mm
05:11 AM 43.2°F6.2°C 41.6°F5.3°C 94% 3.2 mph SE5.1 kmh SE 4.7 mph7.6 kmh 30.09 in1019.0 mb 0.00 in0.0 mm 0.00 in0.0 mm 0.00 in0.0 mm
05:10 AM 43.2°F6.2°C 41.6°F5.3°C 94% 2.2 mph ESE3.5 kmh ESE 4.7 mph7.6 kmh 30.09 in1019.0 mb 0.00 in0.0 mm 0.00 in0.0 mm 0.00 in0.0 mm
05:09 AM 43.2°F6.2°C 41.6°F5.3°C 94% 1.7 mph SE2.7 kmh SE 4.7 mph7.6 kmh 30.09 in1019.0 mb 0.00 in0.0 mm 0.00 in0.0 mm 0.00 in0.0 mm
05:08 AM 43.2°F6.2°C 41.6°F5.3°C 94% 2.2 mph SE3.5 kmh SE 4.7 mph7.6 kmh 30.09 in1019.0 mb 0.00 in0.0 mm 0.00 in0.0 mm 0.00 in0.0 mm
05:07 AM 43.2°F6.2°C 41.6°F5.3°C 94% 2.7 mph S4.3 kmh S 4.7 mph7.6 kmh 30.09 in1019.0 mb 0.00 in0.0 mm 0.00 in0.0 mm 0.00 in0.0 mm
05:06 AM 43.2°F6.2°C 41.6°F5.3°C 94% 2.2 mph SSE3.5 kmh SSE 4.7 mph7.6 kmh 30.09 in1019.0 mb 0.00 in0.0 mm 0.00 in0.0 mm 0.00 in0.0 mm
05:05 AM 43.2°F6.2°C 41.6°F5.3°C 94% 2.2 mph SSE3.5 kmh SSE 4.7 mph7.6 kmh 30.09 in1019.0 mb 0.00 in0.0 mm 0.00 in0.0 mm 0.00 in0.0 mm
05:04 AM 43.2°F6.2°C 41.6°F5.3°C 94% 2.7 mph S4.3 kmh S 4.7 mph7.6 kmh 30.09 in1019.0 mb 0.00 in0.0 mm 0.00 in0.0 mm 0.00 in0.0 mm
05:03 AM 43.2°F6.2°C 41.6°F5.3°C 94% 3.7 mph ESE6.0 kmh ESE 4.7 mph7.6 kmh 30.09 in1019.0 mb 0.00 in0.0 mm 0.00 in0.0 mm 0.00 in0.0 mm
05:02 AM 43.2°F6.2°C 41.6°F5.3°C 94% 2.2 mph ESE3.5 kmh ESE 4.7 mph7.6 kmh 30.09 in1019.0 mb 0.00 in0.0 mm 0.00 in0.0 mm 0.00 in0.0 mm
05:01 AM 43.2°F6.2°C 41.6°F5.3°C 94% 2.2 mph SE3.5 kmh SE 4.7 mph7.6 kmh 30.09 in1019.0 mb 0.00 in0.0 mm 0.00 in0.0 mm 0.00 in0.0 mm
05:00 AM 43.2°F6.2°C 41.6°F5.3°C 94% 2.2 mph SE3.5 kmh SE 4.7 mph7.6 kmh 30.10 in1019.3 mb 0.00 in0.0 mm 0.00 in0.0 mm 0.00 in0.0 mm
04:59 AM 43.2°F6.2°C 41.6°F5.3°C 94% 2.7 mph ESE4.3 kmh ESE 4.7 mph7.6 kmh 30.10 in1019.3 mb 0.00 in0.0 mm 0.00 in0.0 mm 0.00 in0.0 mm
04:58 AM 43.2°F6.2°C 41.6°F5.3°C 94% 3.7 mph ESE6.0 kmh ESE 4.7 mph7.6 kmh 30.10 in1019.3 mb 0.00 in0.0 mm 0.00 in0.0 mm 0.00 in0.0 mm
04:57 AM 43.2°F6.2°C 41.6°F5.3°C 94% 2.7 mph ESE4.3 kmh ESE 4.7 mph7.6 kmh 30.10 in1019.3 mb 0.00 in0.0 mm 0.00 in0.0 mm 0.00 in0.0 mm
04:56 AM 43.2°F6.2°C 41.6°F5.3°C 94% 3.7 mph E6.0 kmh E 4.2 mph6.8 kmh 30.10 in1019.3 mb 0.00 in0.0 mm 0.00 in0.0 mm 0.00 in0.0 mm
04:55 AM 43.2°F6.2°C 41.6°F5.3°C 94% 3.2 mph SSE5.1 kmh SSE 4.2 mph6.8 kmh 30.10 in1019.3 mb 0.00 in0.0 mm 0.00 in0.0 mm 0.00 in0.0 mm
04:54 AM 43.2°F6.2°C 41.6°F5.3°C 94% 3.2 mph ESE5.1 kmh ESE 4.2 mph6.8 kmh 30.10 in1019.3 mb 0.00 in0.0 mm 0.00 in0.0 mm 0.00 in0.0 mm
04:53 AM 43.2°F6.2°C 41.6°F5.3°C 94% 4.2 mph ESE6.8 kmh ESE 4.2 mph6.8 kmh 30.10 in1019.3 mb 0.00 in0.0 mm 0.00 in0.0 mm 0.00 in0.0 mm
04:52 AM 43.2°F6.2°C 41.6°F5.3°C 94% 3.2 mph SE5.1 kmh SE 4.2 mph6.8 kmh 30.10 in1019.3 mb 0.00 in0.0 mm 0.00 in0.0 mm 0.00 in0.0 mm
04:51 AM 43.2°F6.2°C 41.6°F5.3°C 94% 3.7 mph SSE6.0 kmh SSE 4.2 mph6.8 kmh 30.10 in1019.3 mb 0.00 in0.0 mm 0.00 in0.0 mm 0.00 in0.0 mm
04:50 AM 43.2°F6.2°C 41.6°F5.3°C 94% 1.7 mph SSE2.7 kmh SSE 4.2 mph6.8 kmh 30.10 in1019.3 mb 0.00 in0.0 mm 0.00 in0.0 mm 0.00 in0.0 mm
04:49 AM 43.2°F6.2°C 41.6°F5.3°C 94% 2.2 mph ESE3.5 kmh ESE 4.2 mph6.8 kmh 30.10 in1019.3 mb 0.00 in0.0 mm 0.00 in0.0 mm 0.00 in0.0 mm
04:48 AM 43.2°F6.2°C 41.6°F5.3°C 94% 3.2 mph SE5.1 kmh SE 4.2 mph6.8 kmh 30.11 in1019.6 mb 0.00 in0.0 mm 0.00 in0.0 mm 0.00 in0.0 mm
04:47 AM 43.2°F6.2°C 41.6°F5.3°C 94% 2.7 mph SSE4.3 kmh SSE 4.2 mph6.8 kmh 30.11 in1019.6 mb 0.00 in0.0 mm 0.00 in0.0 mm 0.00 in0.0 mm
04:46 AM 43.2°F6.2°C 41.6°F5.3°C 94% 4.2 mph ESE6.8 kmh ESE 4.2 mph6.8 kmh 30.11 in1019.6 mb 0.00 in0.0 mm 0.00 in0.0 mm 0.00 in0.0 mm
04:45 AM 43.2°F6.2°C 41.6°F5.3°C 94% 3.2 mph ESE5.1 kmh ESE 3.7 mph6.0 kmh 30.11 in1019.6 mb 0.00 in0.0 mm 0.00 in0.0 mm 0.00 in0.0 mm
04:44 AM 43.2°F6.2°C 41.6°F5.3°C 94% 2.2 mph ESE3.5 kmh ESE 3.2 mph5.1 kmh 30.11 in1019.6 mb 0.00 in0.0 mm 0.00 in0.0 mm 0.00 in0.0 mm
04:43 AM 43.3°F6.3°C 41.7°F5.4°C 94% 3.2 mph SE5.1 kmh SE 3.7 mph6.0 kmh 30.11 in1019.6 mb 0.00 in0.0 mm 0.00 in0.0 mm 0.00 in0.0 mm
04:42 AM 43.3°F6.3°C 41.7°F5.4°C 94% 2.7 mph SE4.3 kmh SE 3.7 mph6.0 kmh 30.11 in1019.6 mb 0.00 in0.0 mm 0.00 in0.0 mm 0.00 in0.0 mm
04:41 AM 43.3°F6.3°C 41.7°F5.4°C 94% 2.7 mph SE4.3 kmh SE 3.7 mph6.0 kmh 30.11 in1019.6 mb 0.00 in0.0 mm 0.00 in0.0 mm 0.00 in0.0 mm
04:40 AM 43.3°F6.3°C 41.7°F5.4°C 94% 1.7 mph ESE2.7 kmh ESE 3.7 mph6.0 kmh 30.11 in1019.6 mb 0.00 in0.0 mm 0.00 in0.0 mm 0.00 in0.0 mm
04:39 AM 43.5°F6.4°C 41.9°F5.5°C 94% 2.7 mph SE4.3 kmh SE 3.7 mph6.0 kmh 30.11 in1019.6 mb 0.00 in0.0 mm 0.00 in0.0 mm 0.00 in0.0 mm
04:38 AM 43.5°F6.4°C 41.9°F5.5°C 94% 2.7 mph SE4.3 kmh SE 3.7 mph6.0 kmh 30.11 in1019.6 mb 0.00 in0.0 mm 0.00 in0.0 mm 0.00 in0.0 mm
04:37 AM 43.5°F6.4°C 41.9°F5.5°C 94% 2.2 mph SSE3.5 kmh SSE 3.7 mph6.0 kmh 30.11 in1019.6 mb 0.00 in0.0 mm 0.00 in0.0 mm 0.00 in0.0 mm
04:36 AM 43.5°F6.4°C 41.9°F5.5°C 94% 2.2 mph SE3.5 kmh SE 4.2 mph6.8 kmh 30.10 in1019.3 mb 0.00 in0.0 mm 0.00 in0.0 mm 0.00 in0.0 mm
04:35 AM 43.5°F6.4°C 41.9°F5.5°C 94% 2.2 mph SE3.5 kmh SE 4.2 mph6.8 kmh 30.10 in1019.3 mb 0.00 in0.0 mm 0.00 in0.0 mm 0.00 in0.0 mm
04:34 AM 43.5°F6.4°C 41.9°F5.5°C 94% 2.7 mph SSE4.3 kmh SSE 4.7 mph7.6 kmh 30.10 in1019.3 mb 0.00 in0.0 mm 0.00 in0.0 mm 0.00 in0.0 mm
04:33 AM 43.5°F6.4°C 41.9°F5.5°C 94% 3.7 mph SE6.0 kmh SE 4.7 mph7.6 kmh 30.10 in1019.3 mb 0.00 in0.0 mm 0.00 in0.0 mm 0.00 in0.0 mm
04:32 AM 43.5°F6.4°C 41.9°F5.5°C 94% 3.2 mph ESE5.1 kmh ESE 4.7 mph7.6 kmh 30.10 in1019.3 mb 0.00 in0.0 mm 0.00 in0.0 mm 0.00 in0.0 mm
04:31 AM 43.7°F6.5°C 42.1°F5.6°C 94% 2.7 mph ESE4.3 kmh ESE 4.7 mph7.6 kmh 30.10 in1019.3 mb 0.00 in0.0 mm 0.00 in0.0 mm 0.00 in0.0 mm
04:30 AM 43.7°F6.5°C 42.1°F5.6°C 94% 2.7 mph SE4.3 kmh SE 4.7 mph7.6 kmh 30.10 in1019.3 mb 0.00 in0.0 mm 0.00 in0.0 mm 0.00 in0.0 mm
04:29 AM 43.7°F6.5°C 42.1°F5.6°C 94% 3.2 mph ESE5.1 kmh ESE 4.7 mph7.6 kmh 30.10 in1019.3 mb 0.00 in0.0 mm 0.00 in0.0 mm 0.00 in0.0 mm
04:28 AM 43.7°F6.5°C 42.1°F5.6°C 94% 2.7 mph ESE4.3 kmh ESE 4.7 mph7.6 kmh 30.10 in1019.3 mb 0.00 in0.0 mm 0.00 in0.0 mm 0.00 in0.0 mm
04:27 AM 43.7°F6.5°C 42.1°F5.6°C 94% 2.7 mph SE4.3 kmh SE 4.7 mph7.6 kmh 30.10 in1019.3 mb 0.00 in0.0 mm 0.00 in0.0 mm 0.00 in0.0 mm
04:26 AM 43.7°F6.5°C 42.1°F5.6°C 94% 4.2 mph ESE6.8 kmh ESE 4.7 mph7.6 kmh 30.10 in1019.3 mb 0.00 in0.0 mm 0.00 in0.0 mm 0.00 in0.0 mm
04:25 AM 43.7°F6.5°C 42.1°F5.6°C 94% 3.7 mph ESE6.0 kmh ESE 4.7 mph7.6 kmh 30.11 in1019.6 mb 0.00 in0.0 mm 0.00 in0.0 mm 0.00 in0.0 mm
04:24 AM 43.7°F6.5°C 42.1°F5.6°C 94% 4.2 mph ESE6.8 kmh ESE 4.2 mph6.8 kmh 30.11 in1019.6 mb 0.00 in0.0 mm 0.00 in0.0 mm 0.00 in0.0 mm
04:23 AM 43.7°F6.5°C 42.1°F5.6°C 94% 2.7 mph SE4.3 kmh SE 4.2 mph6.8 kmh 30.11 in1019.6 mb 0.00 in0.0 mm 0.00 in0.0 mm 0.00 in0.0 mm
04:22 AM 43.7°F6.5°C 42.1°F5.6°C 94% 2.7 mph SE4.3 kmh SE 4.2 mph6.8 kmh 30.11 in1019.6 mb 0.00 in0.0 mm 0.00 in0.0 mm 0.00 in0.0 mm
04:21 AM 43.7°F6.5°C 42.1°F5.6°C 94% 2.7 mph SSE4.3 kmh SSE 4.2 mph6.8 kmh 30.11 in1019.6 mb 0.00 in0.0 mm 0.00 in0.0 mm 0.00 in0.0 mm
04:20 AM 43.7°F6.5°C 42.1°F5.6°C 94% 2.7 mph ESE4.3 kmh ESE 4.2 mph6.8 kmh 30.11 in1019.6 mb 0.00 in0.0 mm 0.00 in0.0 mm 0.00 in0.0 mm
04:19 AM 43.7°F6.5°C 42.1°F5.6°C 94% 3.7 mph ESE6.0 kmh ESE 4.2 mph6.8 kmh 30.11 in1019.6 mb 0.00 in0.0 mm 0.00 in0.0 mm 0.00 in0.0 mm
04:18 AM 43.7°F6.5°C 42.1°F5.6°C 94% 3.2 mph ESE5.1 kmh ESE 3.7 mph6.0 kmh 30.11 in1019.6 mb 0.00 in0.0 mm 0.00 in0.0 mm 0.00 in0.0 mm
04:17 AM 43.7°F6.5°C 42.1°F5.6°C 94% 2.7 mph ESE4.3 kmh ESE 3.7 mph6.0 kmh 30.11 in1019.6 mb 0.00 in0.0 mm 0.00 in0.0 mm 0.00 in0.0 mm
04:16 AM 43.7°F6.5°C 42.1°F5.6°C 94% 3.7 mph SE6.0 kmh SE 3.7 mph6.0 kmh 30.11 in1019.6 mb 0.00 in0.0 mm 0.00 in0.0 mm 0.00 in0.0 mm
04:15 AM 43.7°F6.5°C 42.1°F5.6°C 94% 3.2 mph ESE5.1 kmh ESE 3.7 mph6.0 kmh 30.11 in1019.6 mb 0.00 in0.0 mm 0.00 in0.0 mm 0.00 in0.0 mm
04:14 AM 43.7°F6.5°C 42.1°F5.6°C 94% 3.2 mph SSE5.1 kmh SSE 3.2 mph5.1 kmh 30.11 in1019.6 mb 0.00 in0.0 mm 0.00 in0.0 mm 0.00 in0.0 mm
04:13 AM 43.7°F6.5°C 42.1°F5.6°C 94% 2.2 mph ESE3.5 kmh ESE 3.2 mph5.1 kmh 30.11 in1019.6 mb 0.00 in0.0 mm 0.00 in0.0 mm 0.00 in0.0 mm
04:12 AM 43.9°F6.6°C 42.3°F5.7°C 94% 3.2 mph ESE5.1 kmh ESE 3.2 mph5.1 kmh 30.11 in1019.6 mb 0.00 in0.0 mm 0.00 in0.0 mm 0.00 in0.0 mm
04:11 AM 43.9°F6.6°C 42.3°F5.7°C 94% 2.7 mph ESE4.3 kmh ESE 3.7 mph6.0 kmh 30.11 in1019.6 mb 0.00 in0.0 mm 0.00 in0.0 mm 0.00 in0.0 mm
04:10 AM 43.9°F6.6°C 42.3°F5.7°C 94% 2.2 mph SE3.5 kmh SE 3.7 mph6.0 kmh 30.11 in1019.6 mb 0.00 in0.0 mm 0.00 in0.0 mm 0.00 in0.0 mm
04:09 AM 43.9°F6.6°C 42.3°F5.7°C 94% 2.7 mph ESE4.3 kmh ESE 4.2 mph6.8 kmh 30.11 in1019.6 mb 0.00 in0.0 mm 0.00 in0.0 mm 0.00 in0.0 mm
04:08 AM 43.9°F6.6°C 42.3°F5.7°C 94% 2.7 mph ESE4.3 kmh ESE 4.2 mph6.8 kmh 30.11 in1019.6 mb 0.00 in0.0 mm 0.00 in0.0 mm 0.00 in0.0 mm
04:07 AM 43.9°F6.6°C 42.3°F5.7°C 94% 2.7 mph ESE4.3 kmh ESE 4.2 mph6.8 kmh 30.11 in1019.6 mb 0.00 in0.0 mm 0.00 in0.0 mm 0.00 in0.0 mm
04:06 AM 43.9°F6.6°C 42.3°F5.7°C 94% 2.7 mph ESE4.3 kmh ESE 4.2 mph6.8 kmh 30.11 in1019.6 mb 0.00 in0.0 mm 0.00 in0.0 mm 0.00 in0.0 mm
04:05 AM 44.1°F6.7°C 42.4°F5.8°C 94% 2.7 mph ESE4.3 kmh ESE 4.2 mph6.8 kmh 30.11 in1019.6 mb 0.00 in0.0 mm 0.00 in0.0 mm 0.00 in0.0 mm
04:04 AM 44.1°F6.7°C 42.4°F5.8°C 94% 2.7 mph ESE4.3 kmh ESE 4.2 mph6.8 kmh 30.11 in1019.6 mb 0.00 in0.0 mm 0.00 in0.0 mm 0.00 in0.0 mm
04:03 AM 44.1°F6.7°C 42.4°F5.8°C 94% 2.7 mph SE4.3 kmh SE 5.3 mph8.5 kmh 30.11 in1019.6 mb 0.00 in0.0 mm 0.00 in0.0 mm 0.00 in0.0 mm
04:02 AM 44.1°F6.7°C 42.4°F5.8°C 94% 3.7 mph ESE6.0 kmh ESE 5.3 mph8.5 kmh 30.11 in1019.6 mb 0.00 in0.0 mm 0.00 in0.0 mm 0.00 in0.0 mm
04:01 AM 44.1°F6.7°C 42.4°F5.8°C 94% 2.7 mph SE4.3 kmh SE 5.3 mph8.5 kmh 30.11 in1019.6 mb 0.00 in0.0 mm 0.00 in0.0 mm 0.00 in0.0 mm
04:00 AM 44.1°F6.7°C 42.4°F5.8°C 94% 3.2 mph SE5.1 kmh SE 5.3 mph8.5 kmh 30.11 in1019.6 mb 0.00 in0.0 mm 0.00 in0.0 mm 0.00 in0.0 mm
03:59 AM 44.1°F6.7°C 42.4°F5.8°C 94% 4.2 mph ESE6.8 kmh ESE 5.3 mph8.5 kmh 30.11 in1019.6 mb 0.00 in0.0 mm 0.00 in0.0 mm 0.00 in0.0 mm
03:58 AM 44.1°F6.7°C 42.4°F5.8°C 94% 2.2 mph ESE3.5 kmh ESE 5.3 mph8.5 kmh 30.11 in1019.6 mb 0.00 in0.0 mm 0.00 in0.0 mm 0.00 in0.0 mm
03:57 AM 44.1°F6.7°C 42.4°F5.8°C 94% 3.2 mph ESE5.1 kmh ESE 5.3 mph8.5 kmh 30.11 in1019.6 mb 0.00 in0.0 mm 0.00 in0.0 mm 0.00 in0.0 mm
03:56 AM 44.1°F6.7°C 42.4°F5.8°C 94% 4.2 mph ESE6.8 kmh ESE 5.3 mph8.5 kmh 30.11 in1019.6 mb 0.00 in0.0 mm 0.00 in0.0 mm 0.00 in0.0 mm
03:55 AM 44.1°F6.7°C 42.4°F5.8°C 94% 3.7 mph ESE6.0 kmh ESE 5.3 mph8.5 kmh 30.11 in1019.6 mb 0.00 in0.0 mm 0.00 in0.0 mm 0.00 in0.0 mm
03:54 AM 44.1°F6.7°C 42.4°F5.8°C 94% 2.7 mph SSE4.3 kmh SSE 5.3 mph8.5 kmh 30.11 in1019.6 mb 0.00 in0.0 mm 0.00 in0.0 mm 0.00 in0.0 mm
03:53 AM 44.1°F6.7°C 42.4°F5.8°C 94% 5.3 mph SE8.5 kmh SE 5.3 mph8.5 kmh 30.11 in1019.6 mb 0.00 in0.0 mm 0.00 in0.0 mm 0.00 in0.0 mm
03:52 AM 44.1°F6.7°C 42.4°F5.8°C 94% 2.7 mph ESE4.3 kmh ESE 4.7 mph7.6 kmh 30.11 in1019.6 mb 0.00 in0.0 mm 0.00 in0.0 mm 0.00 in0.0 mm
03:51 AM 44.1°F6.7°C 42.4°F5.8°C 94% 3.2 mph ESE5.1 kmh ESE 4.7 mph7.6 kmh 30.11 in1019.6 mb 0.00 in0.0 mm 0.00 in0.0 mm 0.00 in0.0 mm
03:50 AM 44.1°F6.7°C 42.4°F5.8°C 94% 3.2 mph ESE5.1 kmh ESE 4.7 mph7.6 kmh 30.11 in1019.6 mb 0.00 in0.0 mm 0.00 in0.0 mm 0.00 in0.0 mm
03:49 AM 44.2°F6.8°C 42.6°F5.9°C 94% 2.7 mph ESE4.3 kmh ESE 4.7 mph7.6 kmh 30.11 in1019.6 mb 0.00 in0.0 mm 0.00 in0.0 mm 0.00 in0.0 mm
03:48 AM 44.2°F6.8°C 42.6°F5.9°C 94% 2.7 mph ESE4.3 kmh ESE 4.7 mph7.6 kmh 30.11 in1019.6 mb 0.00 in0.0 mm 0.00 in0.0 mm 0.00 in0.0 mm
03:47 AM 44.2°F6.8°C 42.6°F5.9°C 94% 3.2 mph SSE5.1 kmh SSE 4.7 mph7.6 kmh 30.11 in1019.6 mb 0.00 in0.0 mm 0.00 in0.0 mm 0.00 in0.0 mm
03:46 AM 44.2°F6.8°C 42.6°F5.9°C 94% 3.7 mph SE6.0 kmh SE 4.2 mph6.8 kmh 30.11 in1019.6 mb 0.00 in0.0 mm 0.00 in0.0 mm 0.00 in0.0 mm
03:45 AM 44.2°F6.8°C 42.6°F5.9°C 94% 3.2 mph ESE5.1 kmh ESE 4.2 mph6.8 kmh 30.11 in1019.6 mb 0.00 in0.0 mm 0.00 in0.0 mm 0.00 in0.0 mm
03:44 AM 44.2°F6.8°C 42.6°F5.9°C 94% 3.7 mph ESE6.0 kmh ESE 4.2 mph6.8 kmh 30.11 in1019.6 mb 0.00 in0.0 mm 0.00 in0.0 mm 0.00 in0.0 mm
03:43 AM 44.2°F6.8°C 42.6°F5.9°C 94% 3.7 mph ESE6.0 kmh ESE 4.2 mph6.8 kmh 30.11 in1019.6 mb 0.00 in0.0 mm 0.00 in0.0 mm 0.00 in0.0 mm
03:42 AM 44.2°F6.8°C 42.6°F5.9°C 94% 2.7 mph ESE4.3 kmh ESE 4.2 mph6.8 kmh 30.11 in1019.6 mb 0.00 in0.0 mm 0.00 in0.0 mm 0.00 in0.0 mm
03:41 AM 44.2°F6.8°C 42.6°F5.9°C 94% 3.2 mph E5.1 kmh E 4.2 mph6.8 kmh 30.11 in1019.6 mb 0.00 in0.0 mm 0.00 in0.0 mm 0.00 in0.0 mm
03:40 AM 44.2°F6.8°C 42.6°F5.9°C 94% 4.2 mph ESE6.8 kmh ESE 4.2 mph6.8 kmh 30.11 in1019.6 mb 0.00 in0.0 mm 0.00 in0.0 mm 0.00 in0.0 mm
03:39 AM 44.2°F6.8°C 42.6°F5.9°C 94% 2.7 mph ESE4.3 kmh ESE 4.2 mph6.8 kmh 30.11 in1019.6 mb 0.00 in0.0 mm 0.00 in0.0 mm 0.00 in0.0 mm
03:38 AM 44.2°F6.8°C 42.6°F5.9°C 94% 2.7 mph ESE4.3 kmh ESE 4.2 mph6.8 kmh 30.11 in1019.6 mb 0.00 in0.0 mm 0.00 in0.0 mm 0.00 in0.0 mm
03:37 AM 44.4°F6.9°C 42.8°F6.0°C 94% 2.7 mph SE4.3 kmh SE 4.2 mph6.8 kmh 30.11 in1019.6 mb 0.00 in0.0 mm 0.00 in0.0 mm 0.00 in0.0 mm
03:36 AM 44.4°F6.9°C 42.8°F6.0°C 94% 2.7 mph SE4.3 kmh SE 4.2 mph6.8 kmh 30.11 in1019.6 mb 0.00 in0.0 mm 0.00 in0.0 mm 0.00 in0.0 mm
03:35 AM 44.4°F6.9°C 42.8°F6.0°C 94% 3.7 mph ESE6.0 kmh ESE 4.2 mph6.8 kmh 30.11 in1019.6 mb 0.00 in0.0 mm 0.00 in0.0 mm 0.00 in0.0 mm
03:34 AM 44.4°F6.9°C 42.8°F6.0°C 94% 3.7 mph ESE6.0 kmh ESE 4.2 mph6.8 kmh 30.11 in1019.6 mb 0.00 in0.0 mm 0.00 in0.0 mm 0.00 in0.0 mm
03:33 AM 44.4°F6.9°C 42.8°F6.0°C 94% 3.2 mph ESE5.1 kmh ESE 4.2 mph6.8 kmh 30.11 in1019.6 mb 0.00 in0.0 mm 0.00 in0.0 mm 0.00 in0.0 mm
03:32 AM 44.4°F6.9°C 42.8°F6.0°C 94% 2.7 mph ESE4.3 kmh ESE 4.2 mph6.8 kmh 30.11 in1019.6 mb 0.00 in0.0 mm 0.00 in0.0 mm 0.00 in0.0 mm
03:31 AM 44.4°F6.9°C 42.8°F6.0°C 94% 3.7 mph SE6.0 kmh SE 4.2 mph6.8 kmh 30.11 in1019.6 mb 0.00 in0.0 mm 0.00 in0.0 mm 0.00 in0.0 mm
03:30 AM 44.4°F6.9°C 42.8°F6.0°C 94% 2.7 mph ESE4.3 kmh ESE 4.7 mph7.6 kmh 30.11 in1019.6 mb 0.00 in0.0 mm 0.00 in0.0 mm 0.00 in0.0 mm
03:29 AM 44.4°F6.9°C 42.8°F6.0°C 94% 4.2 mph ESE6.8 kmh ESE 4.7 mph7.6 kmh 30.11 in1019.6 mb 0.00 in0.0 mm 0.00 in0.0 mm 0.00 in0.0 mm
03:28 AM 44.4°F6.9°C 42.8°F6.0°C 94% 3.2 mph ESE5.1 kmh ESE 4.7 mph7.6 kmh 30.11 in1019.6 mb 0.00 in0.0 mm 0.00 in0.0 mm 0.00 in0.0 mm
03:27 AM 44.4°F6.9°C 42.8°F6.0°C 94% 3.2 mph ESE5.1 kmh ESE 4.7 mph7.6 kmh 30.11 in1019.6 mb 0.00 in0.0 mm 0.00 in0.0 mm 0.00 in0.0 mm
03:26 AM 44.4°F6.9°C 42.8°F6.0°C 94% 4.2 mph ESE6.8 kmh ESE 4.7 mph7.6 kmh 30.11 in1019.6 mb 0.00 in0.0 mm 0.00 in0.0 mm 0.00 in0.0 mm
03:25 AM 44.4°F6.9°C 42.8°F6.0°C 94% 3.7 mph ESE6.0 kmh ESE 4.7 mph7.6 kmh 30.11 in1019.6 mb 0.00 in0.0 mm 0.00 in0.0 mm 0.00 in0.0 mm
03:24 AM 44.4°F6.9°C 42.8°F6.0°C 94% 3.2 mph ESE5.1 kmh ESE 4.7 mph7.6 kmh 30.12 in1020.0 mb 0.00 in0.0 mm 0.00 in0.0 mm 0.00 in0.0 mm
03:23 AM 44.4°F6.9°C 42.8°F6.0°C 94% 3.2 mph ESE5.1 kmh ESE 4.7 mph7.6 kmh 30.12 in1020.0 mb 0.00 in0.0 mm 0.00 in0.0 mm 0.00 in0.0 mm
03:22 AM 44.4°F6.9°C 42.8°F6.0°C 94% 2.7 mph ESE4.3 kmh ESE 4.7 mph7.6 kmh 30.12 in1020.0 mb 0.00 in0.0 mm 0.00 in0.0 mm 0.00 in0.0 mm
03:21 AM 44.4°F6.9°C 43.1°F6.2°C 95% 2.7 mph E4.3 kmh E 4.7 mph7.6 kmh 30.12 in1020.0 mb 0.00 in0.0 mm 0.00 in0.0 mm 0.00 in0.0 mm
03:20 AM 44.4°F6.9°C 43.1°F6.2°C 95% 2.7 mph ESE4.3 kmh ESE 4.7 mph7.6 kmh 30.12 in1020.0 mb 0.00 in0.0 mm 0.00 in0.0 mm 0.00 in0.0 mm
03:19 AM 44.4°F6.9°C 43.1°F6.2°C 95% 2.7 mph ESE4.3 kmh ESE 4.7 mph7.6 kmh 30.12 in1020.0 mb 0.00 in0.0 mm 0.00 in0.0 mm 0.00 in0.0 mm
03:18 AM 44.4°F6.9°C 43.1°F6.2°C 95% 3.2 mph ESE5.1 kmh ESE 4.7 mph7.6 kmh 30.12 in1020.0 mb 0.00 in0.0 mm 0.00 in0.0 mm 0.00 in0.0 mm
03:17 AM 44.4°F6.9°C 43.1°F6.2°C 95% 3.2 mph ESE5.1 kmh ESE 4.7 mph7.6 kmh 30.12 in1020.0 mb 0.00 in0.0 mm 0.00 in0.0 mm 0.00 in0.0 mm
03:16 AM 44.4°F6.9°C 43.1°F6.2°C 95% 3.7 mph ESE6.0 kmh ESE 4.7 mph7.6 kmh 30.12 in1020.0 mb 0.00 in0.0 mm 0.00 in0.0 mm 0.00 in0.0 mm
03:15 AM 44.4°F6.9°C 43.1°F6.2°C 95% 3.2 mph ESE5.1 kmh ESE 4.7 mph7.6 kmh 30.12 in1020.0 mb 0.00 in0.0 mm 0.00 in0.0 mm 0.00 in0.0 mm
03:14 AM 44.4°F6.9°C 43.1°F6.2°C 95% 3.2 mph ESE5.1 kmh ESE 4.7 mph7.6 kmh 30.12 in1020.0 mb 0.00 in0.0 mm 0.00 in0.0 mm 0.00 in0.0 mm
03:13 AM 44.4°F6.9°C 43.1°F6.2°C 95% 3.7 mph ESE6.0 kmh ESE 5.8 mph9.3 kmh 30.12 in1020.0 mb 0.00 in0.0 mm 0.00 in0.0 mm 0.00 in0.0 mm
03:12 AM 44.6°F7.0°C 43.3°F6.3°C 95% 2.2 mph ESE3.5 kmh ESE 5.8 mph9.3 kmh 30.12 in1020.0 mb 0.00 in0.0 mm 0.00 in0.0 mm 0.00 in0.0 mm
03:11 AM 44.6°F7.0°C 43.3°F6.3°C 95% 2.2 mph SE3.5 kmh SE 5.8 mph9.3 kmh 30.12 in1020.0 mb 0.00 in0.0 mm 0.00 in0.0 mm 0.00 in0.0 mm
03:10 AM 44.6°F7.0°C 43.3°F6.3°C 95% 3.7 mph ESE6.0 kmh ESE 5.8 mph9.3 kmh 30.12 in1020.0 mb 0.00 in0.0 mm 0.00 in0.0 mm 0.00 in0.0 mm
03:09 AM 44.6°F7.0°C 43.3°F6.3°C 95% 2.2 mph SE3.5 kmh SE 5.8 mph9.3 kmh 30.12 in1020.0 mb 0.00 in0.0 mm 0.00 in0.0 mm 0.00 in0.0 mm
03:08 AM 44.6°F7.0°C 43.3°F6.3°C 95% 2.7 mph SE4.3 kmh SE 5.8 mph9.3 kmh 30.12 in1020.0 mb 0.00 in0.0 mm 0.00 in0.0 mm 0.00 in0.0 mm
03:07 AM 44.6°F7.0°C 43.3°F6.3°C 95% 2.7 mph ESE4.3 kmh ESE 5.8 mph9.3 kmh 30.12 in1020.0 mb 0.00 in0.0 mm 0.00 in0.0 mm 0.00 in0.0 mm
03:06 AM 44.6°F7.0°C 43.3°F6.3°C 95% 2.7 mph SE4.3 kmh SE 5.8 mph9.3 kmh 30.12 in1020.0 mb 0.00 in0.0 mm 0.00 in0.0 mm 0.00 in0.0 mm
03:05 AM 44.6°F7.0°C 43.3°F6.3°C 95% 2.7 mph ESE4.3 kmh ESE 5.8 mph9.3 kmh 30.12 in1020.0 mb 0.00 in0.0 mm 0.00 in0.0 mm 0.00 in0.0 mm
03:04 AM 44.6°F7.0°C 43.3°F6.3°C 95% 2.7 mph SSE4.3 kmh SSE 5.8 mph9.3 kmh 30.12 in1020.0 mb 0.00 in0.0 mm 0.00 in0.0 mm 0.00 in0.0 mm
03:03 AM 44.8°F7.1°C 43.4°F6.3°C 95% 3.7 mph E6.0 kmh E 5.3 mph8.5 kmh 30.12 in1020.0 mb 0.00 in0.0 mm 0.00 in0.0 mm 0.00 in0.0 mm
03:02 AM 44.8°F7.1°C 43.4°F6.3°C 95% 3.7 mph ESE6.0 kmh ESE 5.3 mph8.5 kmh 30.12 in1020.0 mb 0.00 in0.0 mm 0.00 in0.0 mm 0.00 in0.0 mm
03:01 AM 44.8°F7.1°C 43.4°F6.3°C 95% 4.7 mph SE7.6 kmh SE 5.8 mph9.3 kmh 30.12 in1020.0 mb 0.00 in0.0 mm 0.00 in0.0 mm 0.00 in0.0 mm
03:00 AM 44.8°F7.1°C 43.4°F6.3°C 95% 3.2 mph ESE5.1 kmh ESE 5.8 mph9.3 kmh 30.12 in1020.0 mb 0.00 in0.0 mm 0.00 in0.0 mm 0.00 in0.0 mm
02:59 AM 44.8°F7.1°C 43.4°F6.3°C 95% 2.2 mph SE3.5 kmh SE 5.8 mph9.3 kmh 30.12 in1020.0 mb 0.00 in0.0 mm 0.00 in0.0 mm 0.00 in0.0 mm
02:58 AM 44.8°F7.1°C 43.4°F6.3°C 95% 2.7 mph ESE4.3 kmh ESE 5.8 mph9.3 kmh 30.12 in1020.0 mb 0.00 in0.0 mm 0.00 in0.0 mm 0.00 in0.0 mm
02:57 AM 44.8°F7.1°C 43.4°F6.3°C 95% 2.2 mph ESE3.5 kmh ESE 5.8 mph9.3 kmh 30.12 in1020.0 mb 0.00 in0.0 mm 0.00 in0.0 mm 0.00 in0.0 mm
02:56 AM 44.8°F7.1°C 43.4°F6.3°C 95% 2.7 mph SE4.3 kmh SE 5.8 mph9.3 kmh 30.12 in1020.0 mb 0.00 in0.0 mm 0.00 in0.0 mm 0.00 in0.0 mm
02:55 AM 44.8°F7.1°C 43.4°F6.3°C 95% 5.3 mph ESE8.5 kmh ESE 6.8 mph10.9 kmh 30.12 in1020.0 mb 0.00 in0.0 mm 0.00 in0.0 mm 0.00 in0.0 mm
02:54 AM 44.8°F7.1°C 43.4°F6.3°C 95% 4.2 mph SSE6.8 kmh SSE 6.8 mph10.9 kmh 30.12 in1020.0 mb 0.00 in0.0 mm 0.00 in0.0 mm 0.00 in0.0 mm
02:53 AM 44.8°F7.1°C 43.4°F6.3°C 95% 4.2 mph ESE6.8 kmh ESE 6.8 mph10.9 kmh 30.12 in1020.0 mb 0.00 in0.0 mm 0.00 in0.0 mm 0.00 in0.0 mm
02:52 AM 44.8°F7.1°C 43.4°F6.3°C 95% 5.3 mph ESE8.5 kmh ESE 6.8 mph10.9 kmh 30.12 in1020.0 mb 0.00 in0.0 mm 0.00 in0.0 mm 0.00 in0.0 mm
02:51 AM 44.8°F7.1°C 43.4°F6.3°C 95% 3.7 mph ESE6.0 kmh ESE 6.8 mph10.9 kmh 30.12 in1020.0 mb 0.00 in0.0 mm 0.00 in0.0 mm 0.00 in0.0 mm
02:50 AM 44.8°F7.1°C 43.4°F6.3°C 95% 3.2 mph E5.1 kmh E 6.8 mph10.9 kmh 30.12 in1020.0 mb 0.00 in0.0 mm 0.00 in0.0 mm 0.00 in0.0 mm
02:49 AM 44.8°F7.1°C 43.4°F6.3°C 95% 3.7 mph ESE6.0 kmh ESE 6.8 mph10.9 kmh 30.12 in1020.0 mb 0.00 in0.0 mm 0.00 in0.0 mm 0.00 in0.0 mm
02:48 AM 44.8°F7.1°C 43.4°F6.3°C 95% 3.2 mph ESE5.1 kmh ESE 6.8 mph10.9 kmh 30.12 in1020.0 mb 0.00 in0.0 mm 0.00 in0.0 mm 0.00 in0.0 mm
02:47 AM 44.8°F7.1°C 43.4°F6.3°C 95% 2.7 mph SE4.3 kmh SE 6.8 mph10.9 kmh 30.12 in1020.0 mb 0.00 in0.0 mm 0.00 in0.0 mm 0.00 in0.0 mm
02:46 AM 44.8°F7.1°C 43.4°F6.3°C 95% 3.7 mph ESE6.0 kmh ESE 6.8 mph10.9 kmh 30.12 in1020.0 mb 0.00 in0.0 mm 0.00 in0.0 mm 0.00 in0.0 mm
02:45 AM 44.8°F7.1°C 43.4°F6.3°C 95% 4.2 mph SE6.8 kmh SE 5.8 mph9.3 kmh 30.12 in1020.0 mb 0.00 in0.0 mm 0.00 in0.0 mm 0.00 in0.0 mm
02:44 AM 44.8°F7.1°C 43.4°F6.3°C 95% 3.7 mph ESE6.0 kmh ESE 5.8 mph9.3 kmh 30.12 in1020.0 mb 0.00 in0.0 mm 0.00 in0.0 mm 0.00 in0.0 mm
02:43 AM 44.8°F7.1°C 43.4°F6.3°C 95% 3.2 mph SE5.1 kmh SE 5.8 mph9.3 kmh 30.12 in1020.0 mb 0.00 in0.0 mm 0.00 in0.0 mm 0.00 in0.0 mm
02:42 AM 44.8°F7.1°C 43.7°F6.5°C 96% 3.2 mph ESE5.1 kmh ESE 5.8 mph9.3 kmh 30.12 in1020.0 mb 0.00 in0.0 mm 0.00 in0.0 mm 0.00 in0.0 mm
02:41 AM 44.8°F7.1°C 43.7°F6.5°C 96% 3.7 mph SE6.0 kmh SE 5.8 mph9.3 kmh 30.12 in1020.0 mb 0.00 in0.0 mm 0.00 in0.0 mm 0.00 in0.0 mm
02:40 AM 44.8°F7.1°C 43.7°F6.5°C 96% 4.7 mph ESE7.6 kmh ESE 5.8 mph9.3 kmh 30.12 in1020.0 mb 0.00 in0.0 mm 0.00 in0.0 mm 0.00 in0.0 mm
02:39 AM 44.8°F7.1°C 43.7°F6.5°C 96% 4.2 mph ESE6.8 kmh ESE 5.8 mph9.3 kmh 30.12 in1020.0 mb 0.00 in0.0 mm 0.00 in0.0 mm 0.00 in0.0 mm
02:38 AM 44.8°F7.1°C 43.7°F6.5°C 96% 3.2 mph ESE5.1 kmh ESE 5.8 mph9.3 kmh 30.12 in1020.0 mb 0.00 in0.0 mm 0.00 in0.0 mm 0.00 in0.0 mm
02:37 AM 44.8°F7.1°C 43.7°F6.5°C 96% 2.7 mph ESE4.3 kmh ESE 5.8 mph9.3 kmh 30.12 in1020.0 mb 0.00 in0.0 mm 0.00 in0.0 mm 0.00 in0.0 mm
02:36 AM 44.8°F7.1°C 43.7°F6.5°C 96% 2.7 mph ESE4.3 kmh ESE 5.8 mph9.3 kmh 30.12 in1020.0 mb 0.00 in0.0 mm 0.00 in0.0 mm 0.00 in0.0 mm
02:35 AM 44.8°F7.1°C 43.7°F6.5°C 96% 3.7 mph SSE6.0 kmh SSE 5.8 mph9.3 kmh 30.12 in1020.0 mb 0.00 in0.0 mm 0.00 in0.0 mm 0.00 in0.0 mm
02:34 AM 44.6°F7.0°C 43.5°F6.4°C 96% 4.7 mph ESE7.6 kmh ESE 4.7 mph7.6 kmh 30.12 in1020.0 mb 0.00 in0.0 mm 0.00 in0.0 mm 0.00 in0.0 mm
02:33 AM 44.6°F7.0°C 43.5°F6.4°C 96% 4.7 mph ESE7.6 kmh ESE 4.7 mph7.6 kmh 30.12 in1020.0 mb 0.00 in0.0 mm 0.00 in0.0 mm 0.00 in0.0 mm
02:32 AM 44.6°F7.0°C 43.8°F6.6°C 97% 4.7 mph ESE7.6 kmh ESE 4.7 mph7.6 kmh 30.12 in1020.0 mb 0.00 in0.0 mm 0.00 in0.0 mm 0.00 in0.0 mm
02:31 AM 44.6°F7.0°C 43.8°F6.6°C 97% 4.2 mph E6.8 kmh E 4.7 mph7.6 kmh 30.12 in1020.0 mb 0.00 in0.0 mm 0.00 in0.0 mm 0.00 in0.0 mm
02:30 AM 44.6°F7.0°C 43.8°F6.6°C 97% 4.7 mph ESE7.6 kmh ESE 5.8 mph9.3 kmh 30.12 in1020.0 mb 0.00 in0.0 mm 0.00 in0.0 mm 0.00 in0.0 mm
02:29 AM 44.6°F7.0°C 43.8°F6.6°C 97% 4.7 mph ESE7.6 kmh ESE 5.8 mph9.3 kmh 30.12 in1020.0 mb 0.00 in0.0 mm 0.00 in0.0 mm 0.00 in0.0 mm
02:28 AM 44.6°F7.0°C 43.8°F6.6°C 97% 3.2 mph ESE5.1 kmh ESE 5.8 mph9.3 kmh 30.12 in1020.0 mb 0.00 in0.0 mm 0.00 in0.0 mm 0.00 in0.0 mm
02:27 AM 44.6°F7.0°C 43.8°F6.6°C 97% 4.2 mph SE6.8 kmh SE 5.8 mph9.3 kmh 30.12 in1020.0 mb 0.00 in0.0 mm 0.00 in0.0 mm 0.00 in0.0 mm
02:26 AM 44.6°F7.0°C 43.8°F6.6°C 97% 4.2 mph ESE6.8 kmh ESE 7.8 mph12.6 kmh 30.12 in1020.0 mb 0.00 in0.0 mm 0.00 in0.0 mm 0.00 in0.0 mm
02:25 AM 44.6°F7.0°C 43.8°F6.6°C 97% 3.2 mph ESE5.1 kmh ESE 7.8 mph12.6 kmh 30.12 in1020.0 mb 0.00 in0.0 mm 0.00 in0.0 mm 0.00 in0.0 mm
02:24 AM 44.6°F7.0°C 43.8°F6.6°C 97% 3.7 mph ESE6.0 kmh ESE 7.8 mph12.6 kmh 30.12 in1020.0 mb 0.00 in0.0 mm 0.00 in0.0 mm 0.00 in0.0 mm
02:23 AM 44.6°F7.0°C 43.8°F6.6°C 97% 2.7 mph ESE4.3 kmh ESE 7.8 mph12.6 kmh 30.12 in1020.0 mb 0.00 in0.0 mm 0.00 in0.0 mm 0.00 in0.0 mm
02:22 AM 44.6°F7.0°C 43.8°F6.6°C 97% 4.7 mph ESE7.6 kmh ESE 7.8 mph12.6 kmh 30.12 in1020.0 mb 0.00 in0.0 mm 0.00 in0.0 mm 0.00 in0.0 mm
02:21 AM 44.6°F7.0°C 44.1°F6.7°C 98% 4.7 mph ESE7.6 kmh ESE 7.8 mph12.6 kmh 30.12 in1020.0 mb 0.00 in0.0 mm 0.00 in0.0 mm 0.00 in0.0 mm
02:20 AM 44.4°F6.9°C 43.9°F6.6°C 98% 4.2 mph ESE6.8 kmh ESE 7.8 mph12.6 kmh 30.12 in1020.0 mb 0.00 in0.0 mm 0.00 in0.0 mm 0.00 in0.0 mm
02:19 AM 44.4°F6.9°C 43.9°F6.6°C 98% 5.3 mph ESE8.5 kmh ESE 7.8 mph12.6 kmh 30.12 in1020.0 mb 0.00 in0.0 mm 0.00 in0.0 mm 0.00 in0.0 mm
02:18 AM 44.4°F6.9°C 43.9°F6.6°C 98% 3.7 mph SSE6.0 kmh SSE 7.8 mph12.6 kmh 30.12 in1020.0 mb 0.00 in0.0 mm 0.00 in0.0 mm 0.00 in0.0 mm
02:17 AM 44.2°F6.8°C 43.7°F6.5°C 98% 3.7 mph ESE6.0 kmh ESE 7.8 mph12.6 kmh 30.12 in1020.0 mb 0.00 in0.0 mm 0.00 in0.0 mm 0.00 in0.0 mm
02:16 AM 44.2°F6.8°C 43.7°F6.5°C 98% 4.2 mph ESE6.8 kmh ESE 5.3 mph8.5 kmh 30.12 in1020.0 mb 0.00 in0.0 mm 0.00 in0.0 mm 0.00 in0.0 mm
02:15 AM 44.2°F6.8°C 43.7°F6.5°C 98% 3.2 mph ESE5.1 kmh ESE 5.3 mph8.5 kmh 30.12 in1020.0 mb 0.00 in0.0 mm 0.00 in0.0 mm 0.00 in0.0 mm
02:14 AM 44.1°F6.7°C 43.8°F6.6°C 99% 4.7 mph ENE7.6 kmh ENE 5.3 mph8.5 kmh 30.12 in1020.0 mb 0.00 in0.0 mm 0.00 in0.0 mm 0.00 in0.0 mm
02:13 AM 44.1°F6.7°C 43.8°F6.6°C 99% 3.7 mph ESE6.0 kmh ESE 5.3 mph8.5 kmh 30.12 in1020.0 mb 0.00 in0.0 mm 0.00 in0.0 mm 0.00 in0.0 mm
02:12 AM 43.9°F6.6°C 43.6°F6.4°C 99% 3.7 mph SE6.0 kmh SE 4.2 mph6.8 kmh 30.12 in1020.0 mb 0.00 in0.0 mm 0.00 in0.0 mm 0.00 in0.0 mm
02:11 AM 43.9°F6.6°C 43.6°F6.4°C 99% 3.7 mph ESE6.0 kmh ESE 4.2 mph6.8 kmh 30.12 in1020.0 mb 0.00 in0.0 mm 0.00 in0.0 mm 0.00 in0.0 mm
02:10 AM 43.7°F6.5°C 43.4°F6.3°C 99% 4.2 mph SE6.8 kmh SE 4.2 mph6.8 kmh 30.12 in1020.0 mb 0.00 in0.0 mm 0.00 in0.0 mm 0.00 in0.0 mm
02:09 AM 43.7°F6.5°C 43.4°F6.3°C 99% 3.2 mph SE5.1 kmh SE 3.7 mph6.0 kmh 30.12 in1020.0 mb 0.00 in0.0 mm 0.00 in0.0 mm 0.00 in0.0 mm
02:08 AM 43.7°F6.5°C 43.4°F6.3°C 99% 2.7 mph SE4.3 kmh SE 3.7 mph6.0 kmh 30.12 in1020.0 mb 0.00 in0.0 mm 0.00 in0.0 mm 0.00 in0.0 mm
02:07 AM 43.7°F6.5°C 43.4°F6.3°C 99% 2.7 mph SE4.3 kmh SE 3.7 mph6.0 kmh 30.12 in1020.0 mb 0.00 in0.0 mm 0.00 in0.0 mm 0.00 in0.0 mm
02:06 AM 43.7°F6.5°C 43.4°F6.3°C 99% 2.7 mph ESE4.3 kmh ESE 3.7 mph6.0 kmh 30.12 in1020.0 mb 0.00 in0.0 mm 0.00 in0.0 mm 0.00 in0.0 mm
02:05 AM 43.7°F6.5°C 43.4°F6.3°C 99% 2.2 mph ESE3.5 kmh ESE 3.7 mph6.0 kmh 30.12 in1020.0 mb 0.00 in0.0 mm 0.00 in0.0 mm 0.00 in0.0 mm
02:04 AM 43.7°F6.5°C 43.4°F6.3°C 99% 2.7 mph ESE4.3 kmh ESE 3.7 mph6.0 kmh 30.12 in1020.0 mb 0.00 in0.0 mm 0.00 in0.0 mm 0.00 in0.0 mm
02:03 AM 43.7°F6.5°C 43.4°F6.3°C 99% 1.7 mph ESE2.7 kmh ESE 3.7 mph6.0 kmh 30.12 in1020.0 mb 0.00 in0.0 mm 0.00 in0.0 mm 0.00 in0.0 mm
02:02 AM 43.7°F6.5°C 43.4°F6.3°C 99% 2.2 mph ESE3.5 kmh ESE 3.7 mph6.0 kmh 30.12 in1020.0 mb 0.00 in0.0 mm 0.00 in0.0 mm 0.00 in0.0 mm
02:01 AM 43.7°F6.5°C 43.4°F6.3°C 99% 1.1 mph ESE1.8 kmh ESE 3.7 mph6.0 kmh 30.12 in1020.0 mb 0.00 in0.0 mm 0.00 in0.0 mm 0.00 in0.0 mm
02:00 AM 43.7°F6.5°C 43.4°F6.3°C 99% 2.7 mph E4.3 kmh E 3.7 mph6.0 kmh 30.12 in1020.0 mb 0.00 in0.0 mm 0.00 in0.0 mm 0.00 in0.0 mm
01:59 AM 43.7°F6.5°C 43.4°F6.3°C 99% 2.7 mph ESE4.3 kmh ESE 3.7 mph6.0 kmh 30.12 in1020.0 mb 0.00 in0.0 mm 0.00 in0.0 mm 0.00 in0.0 mm
01:58 AM 43.7°F6.5°C 43.4°F6.3°C 99% 2.2 mph ESE3.5 kmh ESE 3.7 mph6.0 kmh 30.12 in1020.0 mb 0.00 in0.0 mm 0.00 in0.0 mm 0.00 in0.0 mm
01:57 AM 43.7°F6.5°C 43.4°F6.3°C 99% 2.2 mph SE3.5 kmh SE 3.7 mph6.0 kmh 30.12 in1020.0 mb 0.00 in0.0 mm 0.00 in0.0 mm 0.00 in0.0 mm
01:56 AM 43.7°F6.5°C 43.4°F6.3°C 99% 2.2 mph ESE3.5 kmh ESE 3.7 mph6.0 kmh 30.12 in1020.0 mb 0.00 in0.0 mm 0.00 in0.0 mm 0.00 in0.0 mm
01:55 AM 43.7°F6.5°C 43.4°F6.3°C 99% 1.1 mph E1.8 kmh E 3.7 mph6.0 kmh 30.12 in1020.0 mb 0.00 in0.0 mm 0.00 in0.0 mm 0.00 in0.0 mm
01:54 AM 43.7°F6.5°C 43.4°F6.3°C 99% 1.7 mph ESE2.7 kmh ESE 3.7 mph6.0 kmh 30.12 in1020.0 mb 0.00 in0.0 mm 0.00 in0.0 mm 0.00 in0.0 mm
01:53 AM 43.7°F6.5°C 43.4°F6.3°C 99% 3.2 mph SE5.1 kmh SE 3.7 mph6.0 kmh 30.12 in1020.0 mb 0.00 in0.0 mm 0.00 in0.0 mm 0.00 in0.0 mm
01:52 AM 43.9°F6.6°C 43.6°F6.4°C 99% 1.1 mph ESE1.8 kmh ESE 3.7 mph6.0 kmh 30.12 in1020.0 mb 0.00 in0.0 mm 0.00 in0.0 mm 0.00 in0.0 mm
01:51 AM 43.9°F6.6°C 43.6°F6.4°C 99% 1.7 mph ESE2.7 kmh ESE 3.7 mph6.0 kmh 30.12 in1020.0 mb 0.00 in0.0 mm 0.00 in0.0 mm 0.00 in0.0 mm
01:50 AM 43.9°F6.6°C 43.6°F6.4°C 99% 3.2 mph ESE5.1 kmh ESE 3.7 mph6.0 kmh 30.12 in1020.0 mb 0.00 in0.0 mm 0.00 in0.0 mm 0.00 in0.0 mm
01:49 AM 43.9°F6.6°C 43.6°F6.4°C 99% 1.7 mph SE2.7 kmh SE 3.7 mph6.0 kmh 30.12 in1020.0 mb 0.00 in0.0 mm 0.00 in0.0 mm 0.00 in0.0 mm
01:48 AM 43.9°F6.6°C 43.6°F6.4°C 99% 2.2 mph SE3.5 kmh SE 3.7 mph6.0 kmh 30.12 in1020.0 mb 0.00 in0.0 mm 0.00 in0.0 mm 0.00 in0.0 mm
01:47 AM 43.9°F6.6°C 43.6°F6.4°C 99% 2.2 mph ESE3.5 kmh ESE 3.7 mph6.0 kmh 30.12 in1020.0 mb 0.00 in0.0 mm 0.00 in0.0 mm 0.00 in0.0 mm
01:46 AM 43.9°F6.6°C 43.6°F6.4°C 99% 2.2 mph SE3.5 kmh SE 3.7 mph6.0 kmh 30.12 in1020.0 mb 0.00 in0.0 mm 0.00 in0.0 mm 0.00 in0.0 mm
01:45 AM 43.9°F6.6°C 43.6°F6.4°C 99% 1.7 mph SE2.7 kmh SE 3.7 mph6.0 kmh 30.12 in1020.0 mb 0.00 in0.0 mm 0.00 in0.0 mm 0.00 in0.0 mm
01:44 AM 43.9°F6.6°C 43.6°F6.4°C 99% 2.7 mph ESE4.3 kmh ESE 3.7 mph6.0 kmh 30.12 in1020.0 mb 0.00 in0.0 mm 0.00 in0.0 mm 0.00 in0.0 mm
01:43 AM 43.9°F6.6°C 43.6°F6.4°C 99% 2.7 mph ESE4.3 kmh ESE 3.7 mph6.0 kmh 30.12 in1020.0 mb 0.00 in0.0 mm 0.00 in0.0 mm 0.00 in0.0 mm
01:42 AM 43.9°F6.6°C 43.6°F6.4°C 99% 2.7 mph ESE4.3 kmh ESE 3.7 mph6.0 kmh 30.12 in1020.0 mb 0.00 in0.0 mm 0.00 in0.0 mm 0.00 in0.0 mm
01:41 AM 43.9°F6.6°C 43.6°F6.4°C 99% 3.2 mph ESE5.1 kmh ESE 3.7 mph6.0 kmh 30.12 in1020.0 mb 0.00 in0.0 mm 0.00 in0.0 mm 0.00 in0.0 mm
01:40 AM 43.9°F6.6°C 43.6°F6.4°C 99% 3.2 mph ESE5.1 kmh ESE 3.7 mph6.0 kmh 30.12 in1020.0 mb 0.00 in0.0 mm 0.00 in0.0 mm 0.00 in0.0 mm
01:39 AM 43.9°F6.6°C 43.6°F6.4°C 99% 2.7 mph ESE4.3 kmh ESE 3.7 mph6.0 kmh 30.12 in1020.0 mb 0.00 in0.0 mm 0.00 in0.0 mm 0.00 in0.0 mm
01:38 AM 43.9°F6.6°C 43.6°F6.4°C 99% 3.2 mph E5.1 kmh E 3.7 mph6.0 kmh 30.12 in1020.0 mb 0.00 in0.0 mm 0.00 in0.0 mm 0.00 in0.0 mm
01:37 AM 43.9°F6.6°C 43.6°F6.4°C 99% 3.2 mph ESE5.1 kmh ESE 3.7 mph6.0 kmh 30.12 in1020.0 mb 0.00 in0.0 mm 0.00 in0.0 mm 0.00 in0.0 mm
01:36 AM 43.9°F6.6°C 43.6°F6.4°C 99% 2.2 mph ESE3.5 kmh ESE 3.7 mph6.0 kmh 30.12 in1020.0 mb 0.00 in0.0 mm 0.00 in0.0 mm 0.00 in0.0 mm
01:35 AM 43.9°F6.6°C 43.6°F6.4°C 99% 2.7 mph ESE4.3 kmh ESE 3.7 mph6.0 kmh 30.12 in1020.0 mb 0.00 in0.0 mm 0.00 in0.0 mm 0.00 in0.0 mm
01:34 AM 43.9°F6.6°C 43.6°F6.4°C 99% 2.2 mph ESE3.5 kmh ESE 3.7 mph6.0 kmh 30.12 in1020.0 mb 0.00 in0.0 mm 0.00 in0.0 mm 0.00 in0.0 mm
01:33 AM 43.9°F6.6°C 43.6°F6.4°C 99% 3.2 mph ESE5.1 kmh ESE 3.7 mph6.0 kmh 30.12 in1020.0 mb 0.00 in0.0 mm 0.00 in0.0 mm 0.00 in0.0 mm
01:32 AM 43.9°F6.6°C 43.6°F6.4°C 99% 2.7 mph SE4.3 kmh SE 3.7 mph6.0 kmh 30.12 in1020.0 mb 0.00 in0.0 mm 0.00 in0.0 mm 0.00 in0.0 mm
01:31 AM 43.9°F6.6°C 43.6°F6.4°C 99% 2.7 mph ESE4.3 kmh ESE 3.7 mph6.0 kmh 30.12 in1020.0 mb 0.00 in0.0 mm 0.00 in0.0 mm 0.00 in0.0 mm
01:30 AM 43.9°F6.6°C 43.6°F6.4°C 99% 3.2 mph ESE5.1 kmh ESE 3.7 mph6.0 kmh 30.12 in1020.0 mb 0.00 in0.0 mm 0.00 in0.0 mm 0.00 in0.0 mm
01:29 AM 43.9°F6.6°C 43.6°F6.4°C 99% 2.2 mph ESE3.5 kmh ESE 4.2 mph6.8 kmh 30.12 in1020.0 mb 0.00 in0.0 mm 0.00 in0.0 mm 0.00 in0.0 mm
01:28 AM 43.9°F6.6°C 43.6°F6.4°C 99% 2.2 mph ESE3.5 kmh ESE 4.2 mph6.8 kmh 30.12 in1020.0 mb 0.00 in0.0 mm 0.00 in0.0 mm 0.00 in0.0 mm
01:27 AM 44.1°F6.7°C 43.8°F6.6°C 99% 3.2 mph ESE5.1 kmh ESE 4.2 mph6.8 kmh 30.12 in1020.0 mb 0.00 in0.0 mm 0.00 in0.0 mm 0.00 in0.0 mm
01:26 AM 44.1°F6.7°C 43.8°F6.6°C 99% 2.2 mph SSE3.5 kmh SSE 4.2 mph6.8 kmh 30.12 in1020.0 mb 0.00 in0.0 mm 0.00 in0.0 mm 0.00 in0.0 mm
01:25 AM 44.1°F6.7°C 43.8°F6.6°C 99% 3.2 mph ESE5.1 kmh ESE 4.2 mph6.8 kmh 30.12 in1020.0 mb 0.00 in0.0 mm 0.00 in0.0 mm 0.00 in0.0 mm
01:24 AM 44.1°F6.7°C 43.8°F6.6°C 99% 2.7 mph SSE4.3 kmh SSE 4.2 mph6.8 kmh 30.12 in1020.0 mb 0.00 in0.0 mm 0.00 in0.0 mm 0.00 in0.0 mm
01:23 AM 44.1°F6.7°C 43.8°F6.6°C 99% 2.7 mph SSE4.3 kmh SSE 4.2 mph6.8 kmh 30.12 in1020.0 mb 0.00 in0.0 mm 0.00 in0.0 mm 0.00 in0.0 mm
01:22 AM 44.1°F6.7°C 43.8°F6.6°C 99% 3.2 mph ESE5.1 kmh ESE 4.7 mph7.6 kmh 30.12 in1020.0 mb 0.00 in0.0 mm 0.00 in0.0 mm 0.00 in0.0 mm
01:21 AM 44.1°F6.7°C 43.8°F6.6°C 99% 2.7 mph SE4.3 kmh SE 4.7 mph7.6 kmh 30.12 in1020.0 mb 0.00 in0.0 mm 0.00 in0.0 mm 0.00 in0.0 mm
01:20 AM 44.1°F6.7°C 43.8°F6.6°C 99% 1.7 mph SSE2.7 kmh SSE 4.7 mph7.6 kmh 30.12 in1020.0 mb 0.00 in0.0 mm 0.00 in0.0 mm 0.00 in0.0 mm
01:19 AM 44.1°F6.7°C 43.8°F6.6°C 99% 2.7 mph ESE4.3 kmh ESE 4.7 mph7.6 kmh 30.12 in1020.0 mb 0.00 in0.0 mm 0.00 in0.0 mm 0.00 in0.0 mm
01:18 AM 44.1°F6.7°C 43.8°F6.6°C 99% 2.7 mph ESE4.3 kmh ESE 4.7 mph7.6 kmh 30.12 in1020.0 mb 0.00 in0.0 mm 0.00 in0.0 mm 0.00 in0.0 mm
01:17 AM 44.1°F6.7°C 43.8°F6.6°C 99% 4.2 mph SSE6.8 kmh SSE 4.7 mph7.6 kmh 30.12 in1020.0 mb 0.00 in0.0 mm 0.00 in0.0 mm 0.00 in0.0 mm
01:16 AM 44.1°F6.7°C 43.8°F6.6°C 99% 2.7 mph ESE4.3 kmh ESE 4.7 mph7.6 kmh 30.12 in1020.0 mb 0.00 in0.0 mm 0.00 in0.0 mm 0.00 in0.0 mm
01:15 AM 44.1°F6.7°C 43.8°F6.6°C 99% 2.7 mph ESE4.3 kmh ESE 4.7 mph7.6 kmh 30.12 in1020.0 mb 0.00 in0.0 mm 0.00 in0.0 mm 0.00 in0.0 mm
01:14 AM 44.1°F6.7°C 43.8°F6.6°C 99% 3.2 mph ESE5.1 kmh ESE 4.7 mph7.6 kmh 30.12 in1020.0 mb 0.00 in0.0 mm 0.00 in0.0 mm 0.00 in0.0 mm
01:13 AM 44.1°F6.7°C 43.8°F6.6°C 99% 4.2 mph ESE6.8 kmh ESE 4.7 mph7.6 kmh 30.12 in1020.0 mb 0.00 in0.0 mm 0.00 in0.0 mm 0.00 in0.0 mm
01:12 AM 44.2°F6.8°C 44.0°F6.7°C 99% 2.2 mph SSE3.5 kmh SSE 3.7 mph6.0 kmh 30.12 in1020.0 mb 0.00 in0.0 mm 0.00 in0.0 mm 0.00 in0.0 mm
01:11 AM 44.2°F6.8°C 44.0°F6.7°C 99% 3.2 mph SE5.1 kmh SE 3.7 mph6.0 kmh 30.12 in1020.0 mb 0.00 in0.0 mm 0.00 in0.0 mm 0.00 in0.0 mm
01:10 AM 44.2°F6.8°C 44.0°F6.7°C 99% 2.2 mph SSE3.5 kmh SSE 3.7 mph6.0 kmh 30.12 in1020.0 mb 0.00 in0.0 mm 0.00 in0.0 mm 0.00 in0.0 mm
01:09 AM 44.2°F6.8°C 44.0°F6.7°C 99% 2.2 mph SE3.5 kmh SE 4.2 mph6.8 kmh 30.12 in1020.0 mb 0.00 in0.0 mm 0.00 in0.0 mm 0.00 in0.0 mm
01:08 AM 44.2°F6.8°C 44.0°F6.7°C 99% 2.2 mph ESE3.5 kmh ESE 4.2 mph6.8 kmh 30.12 in1020.0 mb 0.00 in0.0 mm 0.00 in0.0 mm 0.00 in0.0 mm
01:07 AM 44.2°F6.8°C 44.0°F6.7°C 99% 3.2 mph ESE5.1 kmh ESE 4.2 mph6.8 kmh 30.12 in1020.0 mb 0.00 in0.0 mm 0.00 in0.0 mm 0.00 in0.0 mm
01:06 AM 44.2°F6.8°C 44.0°F6.7°C 99% 1.7 mph SE2.7 kmh SE 4.2 mph6.8 kmh 30.12 in1020.0 mb 0.00 in0.0 mm 0.00 in0.0 mm 0.00 in0.0 mm
01:05 AM 44.2°F6.8°C 44.0°F6.7°C 99% 3.2 mph ESE5.1 kmh ESE 4.2 mph6.8 kmh 30.12 in1020.0 mb 0.00 in0.0 mm 0.00 in0.0 mm 0.00 in0.0 mm
01:04 AM 44.2°F6.8°C 44.0°F6.7°C 99% 3.2 mph SE5.1 kmh SE 4.2 mph6.8 kmh 30.12 in1020.0 mb 0.00 in0.0 mm 0.00 in0.0 mm 0.00 in0.0 mm
01:03 AM 44.2°F6.8°C 44.0°F6.7°C 99% 2.7 mph ESE4.3 kmh ESE 4.2 mph6.8 kmh 30.12 in1020.0 mb 0.00 in0.0 mm 0.00 in0.0 mm 0.00 in0.0 mm
01:02 AM 44.2°F6.8°C 44.0°F6.7°C 99% 3.7 mph ESE6.0 kmh ESE 4.2 mph6.8 kmh 30.12 in1020.0 mb 0.00 in0.0 mm 0.00 in0.0 mm 0.00 in0.0 mm
01:01 AM 44.2°F6.8°C 44.0°F6.7°C 99% 2.7 mph ESE4.3 kmh ESE 4.2 mph6.8 kmh 30.12 in1020.0 mb 0.00 in0.0 mm 0.00 in0.0 mm 0.00 in0.0 mm
01:00 AM 44.2°F6.8°C 44.0°F6.7°C 99% 3.7 mph ESE6.0 kmh ESE 4.2 mph6.8 kmh 30.13 in1020.3 mb 0.00 in0.0 mm 0.00 in0.0 mm 0.00 in0.0 mm
12:59 AM 44.2°F6.8°C 44.0°F6.7°C 99% 4.2 mph SE6.8 kmh SE 4.2 mph6.8 kmh 30.13 in1020.3 mb 0.00 in0.0 mm 0.00 in0.0 mm 0.00 in0.0 mm
12:58 AM 44.2°F6.8°C 44.0°F6.7°C 99% 3.7 mph ESE6.0 kmh ESE 3.7 mph6.0 kmh 30.13 in1020.3 mb 0.00 in0.0 mm 0.00 in0.0 mm 0.00 in0.0 mm
12:57 AM 44.2°F6.8°C 44.0°F6.7°C 99% 2.2 mph ESE3.5 kmh ESE 3.2 mph5.1 kmh 30.13 in1020.3 mb 0.00 in0.0 mm 0.00 in0.0 mm 0.00 in0.0 mm
12:56 AM 44.2°F6.8°C 44.0°F6.7°C 99% 3.2 mph E5.1 kmh E 3.2 mph5.1 kmh 30.13 in1020.3 mb 0.00 in0.0 mm 0.00 in0.0 mm 0.00 in0.0 mm
12:55 AM 44.2°F6.8°C 44.0°F6.7°C 99% 2.2 mph ESE3.5 kmh ESE 3.2 mph5.1 kmh 30.13 in1020.3 mb 0.00 in0.0 mm 0.00 in0.0 mm 0.00 in0.0 mm
12:54 AM 44.2°F6.8°C 44.0°F6.7°C 99% 3.2 mph ESE5.1 kmh ESE 3.2 mph5.1 kmh 30.13 in1020.3 mb 0.00 in0.0 mm 0.00 in0.0 mm 0.00 in0.0 mm
12:53 AM 44.2°F6.8°C 44.0°F6.7°C 99% 2.2 mph ESE3.5 kmh ESE 3.2 mph5.1 kmh 30.13 in1020.3 mb 0.00 in0.0 mm 0.00 in0.0 mm 0.00 in0.0 mm
12:52 AM 44.2°F6.8°C 44.0°F6.7°C 99% 2.7 mph ESE4.3 kmh ESE 3.2 mph5.1 kmh 30.13 in1020.3 mb 0.00 in0.0 mm 0.00 in0.0 mm 0.00 in0.0 mm
12:51 AM 44.2°F6.8°C 44.0°F6.7°C 99% 1.7 mph SE2.7 kmh SE 3.2 mph5.1 kmh 30.13 in1020.3 mb 0.00 in0.0 mm 0.00 in0.0 mm 0.00 in0.0 mm
12:50 AM 44.2°F6.8°C 44.0°F6.7°C 99% 1.7 mph ESE2.7 kmh ESE 4.2 mph6.8 kmh 30.13 in1020.3 mb 0.00 in0.0 mm 0.00 in0.0 mm 0.00 in0.0 mm
12:49 AM 44.2°F6.8°C 44.0°F6.7°C 99% 2.7 mph ESE4.3 kmh ESE 4.2 mph6.8 kmh 30.13 in1020.3 mb 0.00 in0.0 mm 0.00 in0.0 mm 0.00 in0.0 mm
12:48 AM 44.2°F6.8°C 44.0°F6.7°C 99% 2.7 mph ESE4.3 kmh ESE 4.7 mph7.6 kmh 30.13 in1020.3 mb 0.00 in0.0 mm 0.00 in0.0 mm 0.00 in0.0 mm
12:47 AM 44.2°F6.8°C 44.0°F6.7°C 99% 2.2 mph ESE3.5 kmh ESE 4.7 mph7.6 kmh 30.13 in1020.3 mb 0.00 in0.0 mm 0.00 in0.0 mm 0.00 in0.0 mm
12:46 AM 44.2°F6.8°C 44.0°F6.7°C 99% 3.2 mph ESE5.1 kmh ESE 4.7 mph7.6 kmh 30.13 in1020.3 mb 0.00 in0.0 mm 0.00 in0.0 mm 0.00 in0.0 mm
12:45 AM 44.2°F6.8°C 44.0°F6.7°C 99% 2.2 mph ESE3.5 kmh ESE 4.7 mph7.6 kmh 30.13 in1020.3 mb 0.00 in0.0 mm 0.00 in0.0 mm 0.00 in0.0 mm
12:44 AM 44.2°F6.8°C 44.0°F6.7°C 99% 2.7 mph ESE4.3 kmh ESE 4.7 mph7.6 kmh 30.13 in1020.3 mb 0.00 in0.0 mm 0.00 in0.0 mm 0.00 in0.0 mm
12:43 AM 44.2°F6.8°C 44.0°F6.7°C 99% 2.2 mph ESE3.5 kmh ESE 4.7 mph7.6 kmh 30.13 in1020.3 mb 0.00 in0.0 mm 0.00 in0.0 mm 0.00 in0.0 mm
12:42 AM 44.2°F6.8°C 44.0°F6.7°C 99% 3.2 mph ESE5.1 kmh ESE 4.7 mph7.6 kmh 30.13 in1020.3 mb 0.00 in0.0 mm 0.00 in0.0 mm 0.00 in0.0 mm
12:41 AM 44.2°F6.8°C 44.0°F6.7°C 99% 2.2 mph ESE3.5 kmh ESE 4.7 mph7.6 kmh 30.13 in1020.3 mb 0.00 in0.0 mm 0.00 in0.0 mm 0.00 in0.0 mm
12:40 AM 44.2°F6.8°C 44.0°F6.7°C 99% 4.2 mph ESE6.8 kmh ESE 4.7 mph7.6 kmh 30.13 in1020.3 mb 0.00 in0.0 mm 0.00 in0.0 mm 0.00 in0.0 mm
12:39 AM 44.2°F6.8°C 44.0°F6.7°C 99% 3.2 mph ESE5.1 kmh ESE 4.7 mph7.6 kmh 30.13 in1020.3 mb 0.00 in0.0 mm 0.00 in0.0 mm 0.00 in0.0 mm
12:38 AM 44.1°F6.7°C 43.8°F6.6°C 99% 4.7 mph ESE7.6 kmh ESE 4.7 mph7.6 kmh 30.13 in1020.3 mb 0.00 in0.0 mm 0.00 in0.0 mm 0.00 in0.0 mm
12:37 AM 44.1°F6.7°C 43.8°F6.6°C 99% 3.7 mph ESE6.0 kmh ESE 3.7 mph6.0 kmh 30.13 in1020.3 mb 0.00 in0.0 mm 0.00 in0.0 mm 0.00 in0.0 mm
12:36 AM 44.1°F6.7°C 43.8°F6.6°C 99% 3.2 mph ESE5.1 kmh ESE 3.7 mph6.0 kmh 30.13 in1020.3 mb 0.00 in0.0 mm 0.00 in0.0 mm 0.00 in0.0 mm
12:35 AM 44.1°F6.7°C 43.8°F6.6°C 99% 2.7 mph ESE4.3 kmh ESE 3.7 mph6.0 kmh 30.13 in1020.3 mb 0.00 in0.0 mm 0.00 in0.0 mm 0.00 in0.0 mm
12:34 AM 44.1°F6.7°C 43.8°F6.6°C 99% 3.7 mph ESE6.0 kmh ESE 3.7 mph6.0 kmh 30.13 in1020.3 mb 0.00 in0.0 mm 0.00 in0.0 mm 0.00 in0.0 mm
12:33 AM 44.1°F6.7°C 43.5°F6.4°C 98% 3.2 mph E5.1 kmh E 3.2 mph5.1 kmh 30.13 in1020.3 mb 0.00 in0.0 mm 0.00 in0.0 mm 0.00 in0.0 mm
12:32 AM 44.1°F6.7°C 43.5°F6.4°C 98% 2.2 mph ESE3.5 kmh ESE 3.2 mph5.1 kmh 30.13 in1020.3 mb 0.00 in0.0 mm 0.00 in0.0 mm 0.00 in0.0 mm
12:31 AM 44.1°F6.7°C 43.5°F6.4°C 98% 1.7 mph E2.7 kmh E 3.2 mph5.1 kmh 30.13 in1020.3 mb 0.00 in0.0 mm 0.00 in0.0 mm 0.00 in0.0 mm
12:30 AM 44.1°F6.7°C 43.5°F6.4°C 98% 2.2 mph ESE3.5 kmh ESE 3.2 mph5.1 kmh 30.13 in1020.3 mb 0.00 in0.0 mm 0.00 in0.0 mm 0.00 in0.0 mm
12:29 AM 44.1°F6.7°C 43.5°F6.4°C 98% 2.7 mph ESE4.3 kmh ESE 3.2 mph5.1 kmh 30.13 in1020.3 mb 0.00 in0.0 mm 0.00 in0.0 mm 0.00 in0.0 mm
12:28 AM 44.1°F6.7°C 43.5°F6.4°C 98% 2.7 mph ESE4.3 kmh ESE 3.2 mph5.1 kmh 30.13 in1020.3 mb 0.00 in0.0 mm 0.00 in0.0 mm 0.00 in0.0 mm
12:27 AM 44.1°F6.7°C 43.5°F6.4°C 98% 2.7 mph ESE4.3 kmh ESE 3.2 mph5.1 kmh 30.13 in1020.3 mb 0.00 in0.0 mm 0.00 in0.0 mm 0.00 in0.0 mm
12:26 AM 44.1°F6.7°C 43.5°F6.4°C 98% 2.7 mph ESE4.3 kmh ESE 3.2 mph5.1 kmh 30.13 in1020.3 mb 0.00 in0.0 mm 0.00 in0.0 mm 0.00 in0.0 mm
12:25 AM 44.1°F6.7°C 43.5°F6.4°C 98% 2.7 mph E4.3 kmh E 3.2 mph5.1 kmh 30.12 in1020.0 mb 0.00 in0.0 mm 0.00 in0.0 mm 0.00 in0.0 mm
12:24 AM 44.1°F6.7°C 43.5°F6.4°C 98% 2.7 mph ESE4.3 kmh ESE 3.2 mph5.1 kmh 30.12 in1020.0 mb 0.00 in0.0 mm 0.00 in0.0 mm 0.00 in0.0 mm
12:23 AM 44.1°F6.7°C 43.5°F6.4°C 98% 2.2 mph ESE3.5 kmh ESE 3.2 mph5.1 kmh 30.12 in1020.0 mb 0.00 in0.0 mm 0.00 in0.0 mm 0.00 in0.0 mm
12:22 AM 44.1°F6.7°C 43.5°F6.4°C 98% 2.2 mph ESE3.5 kmh ESE 3.2 mph5.1 kmh 30.12 in1020.0 mb 0.00 in0.0 mm 0.00 in0.0 mm 0.00 in0.0 mm
12:21 AM 44.1°F6.7°C 43.5°F6.4°C 98% 2.2 mph ESE3.5 kmh ESE 3.2 mph5.1 kmh 30.12 in1020.0 mb 0.00 in0.0 mm 0.00 in0.0 mm 0.00 in0.0 mm
12:20 AM 44.1°F6.7°C 43.5°F6.4°C 98% 2.7 mph ESE4.3 kmh ESE 3.2 mph5.1 kmh 30.12 in1020.0 mb 0.00 in0.0 mm 0.00 in0.0 mm 0.00 in0.0 mm
12:19 AM 44.1°F6.7°C 43.5°F6.4°C 98% 2.2 mph ESE3.5 kmh ESE 3.2 mph5.1 kmh 30.12 in1020.0 mb 0.00 in0.0 mm 0.00 in0.0 mm 0.00 in0.0 mm
12:18 AM 44.1°F6.7°C 43.5°F6.4°C 98% 2.7 mph ESE4.3 kmh ESE 3.2 mph5.1 kmh 30.12 in1020.0 mb 0.00 in0.0 mm 0.00 in0.0 mm 0.00 in0.0 mm
12:17 AM 44.1°F6.7°C 43.5°F6.4°C 98% 2.2 mph ESE3.5 kmh ESE 2.7 mph4.3 kmh 30.12 in1020.0 mb 0.00 in0.0 mm 0.00 in0.0 mm 0.00 in0.0 mm
12:16 AM 44.1°F6.7°C 43.5°F6.4°C 98% 2.2 mph ESE3.5 kmh ESE 2.7 mph4.3 kmh 30.12 in1020.0 mb 0.00 in0.0 mm 0.00 in0.0 mm 0.00 in0.0 mm
12:15 AM 44.2°F6.8°C 43.7°F6.5°C 98% 2.2 mph ESE3.5 kmh ESE 2.7 mph4.3 kmh 30.12 in1020.0 mb 0.00 in0.0 mm 0.00 in0.0 mm 0.00 in0.0 mm
12:14 AM 44.2°F6.8°C 43.7°F6.5°C 98% 1.7 mph ESE2.7 kmh ESE 2.7 mph4.3 kmh 30.12 in1020.0 mb 0.00 in0.0 mm 0.00 in0.0 mm 0.00 in0.0 mm
12:13 AM 44.2°F6.8°C 43.7°F6.5°C 98% 1.7 mph ESE2.7 kmh ESE 2.7 mph4.3 kmh 30.13 in1020.3 mb 0.00 in0.0 mm 0.00 in0.0 mm 0.00 in0.0 mm
12:12 AM 44.2°F6.8°C 43.7°F6.5°C 98% 1.7 mph ESE2.7 kmh ESE 2.7 mph4.3 kmh 30.13 in1020.3 mb 0.00 in0.0 mm 0.00 in0.0 mm 0.00 in0.0 mm
12:11 AM 44.2°F6.8°C 43.7°F6.5°C 98% 1.7 mph E2.7 kmh E 2.7 mph4.3 kmh 30.13 in1020.3 mb 0.00 in0.0 mm 0.00 in0.0 mm 0.00 in0.0 mm
12:10 AM 44.2°F6.8°C 43.7°F6.5°C 98% 1.7 mph E2.7 kmh E 2.7 mph4.3 kmh 30.13 in1020.3 mb 0.00 in0.0 mm 0.00 in0.0 mm 0.00 in0.0 mm
12:09 AM 44.2°F6.8°C 43.7°F6.5°C 98% 1.7 mph ESE2.7 kmh ESE 2.7 mph4.3 kmh 30.13 in1020.3 mb 0.00 in0.0 mm 0.00 in0.0 mm 0.00 in0.0 mm
12:08 AM 44.2°F6.8°C 43.4°F6.3°C 97% 2.2 mph E3.5 kmh E 2.7 mph4.3 kmh 30.13 in1020.3 mb 0.00 in0.0 mm 0.00 in0.0 mm 0.00 in0.0 mm
12:07 AM 44.2°F6.8°C 43.4°F6.3°C 97% 2.2 mph E3.5 kmh E 2.2 mph3.5 kmh 30.13 in1020.3 mb 0.00 in0.0 mm 0.00 in0.0 mm 0.00 in0.0 mm
12:06 AM 44.2°F6.8°C 43.4°F6.3°C 97% 1.7 mph ESE2.7 kmh ESE 2.2 mph3.5 kmh 30.13 in1020.3 mb 0.00 in0.0 mm 0.00 in0.0 mm 0.00 in0.0 mm
12:05 AM 44.2°F6.8°C 43.4°F6.3°C 97% 2.2 mph ESE3.5 kmh ESE 2.2 mph3.5 kmh 30.13 in1020.3 mb 0.00 in0.0 mm 0.00 in0.0 mm 0.00 in0.0 mm
12:04 AM 44.2°F6.8°C 43.4°F6.3°C 97% 2.2 mph E3.5 kmh E 2.2 mph3.5 kmh 30.13 in1020.3 mb 0.00 in0.0 mm 0.00 in0.0 mm 0.00 in0.0 mm
12:03 AM 44.2°F6.8°C 43.4°F6.3°C 97% 1.7 mph E2.7 kmh E 2.2 mph3.5 kmh 30.13 in1020.3 mb 0.00 in0.0 mm 0.00 in0.0 mm 0.00 in0.0 mm
12:02 AM 44.2°F6.8°C 43.4°F6.3°C 97% 1.7 mph E2.7 kmh E 2.2 mph3.5 kmh 30.13 in1020.3 mb 0.00 in0.0 mm 0.00 in0.0 mm 0.00 in0.0 mm
12:01 AM 44.2°F6.8°C 43.4°F6.3°C 97% 1.7 mph E2.7 kmh E 2.2 mph3.5 kmh 30.13 in1020.3 mb 0.00 in0.0 mm 0.00 in0.0 mm 0.00 in0.0 mm
12:00 AM 44.2°F6.8°C 43.4°F6.3°C 97% 1.7 mph E2.7 kmh E 2.2 mph3.5 kmh 30.12 in1020.0 mb 0.00 in0.0 mm 0.00 in0.0 mm 0.00 in0.0 mm